FALL CREEK - FALL CREEK RESERVOIR (FALO3)

(Link to Forecast or Trend data)

ID, Observed Date, Observed Stage, Observed Discharge
FALO3, 09/02/2026 18:50 PDT, 3.91, 978.00
FALO3, 09/02/2026 18:45 PDT, 3.90, 972.00
FALO3, 09/02/2026 18:40 PDT, 3.90, 972.00
FALO3, 09/02/2026 18:35 PDT, 3.90, 972.00
FALO3, 09/02/2026 18:30 PDT, 3.90, 972.00
FALO3, 09/02/2026 18:25 PDT, 3.90, 972.00
FALO3, 09/02/2026 18:20 PDT, 3.90, 972.00
FALO3, 09/02/2026 18:15 PDT, 3.90, 972.00
FALO3, 09/02/2026 18:10 PDT, 3.90, 972.00
FALO3, 09/02/2026 18:05 PDT, 3.89, 966.00
FALO3, 09/02/2026 18:00 PDT, 3.90, 972.00
FALO3, 09/02/2026 17:55 PDT, 3.90, 972.00
FALO3, 09/02/2026 17:50 PDT, 3.90, 972.00
FALO3, 09/02/2026 17:45 PDT, 3.90, 972.00
FALO3, 09/02/2026 17:40 PDT, 3.90, 972.00
FALO3, 09/02/2026 17:35 PDT, 3.91, 978.00
FALO3, 09/02/2026 17:30 PDT, 3.90, 972.00
FALO3, 09/02/2026 17:25 PDT, 3.90, 972.00
FALO3, 09/02/2026 17:20 PDT, 3.90, 972.00
FALO3, 09/02/2026 17:15 PDT, 3.90, 972.00
FALO3, 09/02/2026 17:10 PDT, 3.90, 972.00
FALO3, 09/02/2026 17:05 PDT, 3.90, 972.00
FALO3, 09/02/2026 17:00 PDT, 3.90, 972.00
FALO3, 09/02/2026 16:55 PDT, 3.89, 966.00
FALO3, 09/02/2026 16:50 PDT, 3.89, 966.00
FALO3, 09/02/2026 16:45 PDT, 3.89, 966.00
FALO3, 09/02/2026 16:40 PDT, 3.90, 972.00
FALO3, 09/02/2026 16:35 PDT, 3.90, 972.00
FALO3, 09/02/2026 16:30 PDT, 3.90, 972.00
FALO3, 09/02/2026 16:25 PDT, 3.89, 966.00
FALO3, 09/02/2026 16:20 PDT, 3.90, 972.00
FALO3, 09/02/2026 16:15 PDT, 3.90, 972.00
FALO3, 09/02/2026 16:10 PDT, 3.90, 972.00
FALO3, 09/02/2026 16:05 PDT, 3.90, 972.00
FALO3, 09/02/2026 16:00 PDT, 3.90, 972.00
FALO3, 09/02/2026 15:55 PDT, 3.90, 972.00
FALO3, 09/02/2026 15:50 PDT, 3.90, 972.00
FALO3, 09/02/2026 15:45 PDT, 3.89, 966.00
FALO3, 09/02/2026 15:40 PDT, 3.90, 972.00
FALO3, 09/02/2026 15:35 PDT, 3.90, 972.00
FALO3, 09/02/2026 15:30 PDT, 3.90, 972.00
FALO3, 09/02/2026 15:25 PDT, 3.90, 972.00
FALO3, 09/02/2026 15:20 PDT, 3.90, 972.00
FALO3, 09/02/2026 15:15 PDT, 3.90, 972.00
FALO3, 09/02/2026 15:10 PDT, 3.90, 972.00
FALO3, 09/02/2026 15:05 PDT, 3.90, 972.00
FALO3, 09/02/2026 15:00 PDT, 3.90, 972.00
FALO3, 09/02/2026 14:55 PDT, 3.90, 972.00
FALO3, 09/02/2026 14:50 PDT, 3.90, 972.00
FALO3, 09/02/2026 14:45 PDT, 3.90, 972.00
FALO3, 09/02/2026 14:40 PDT, 3.90, 972.00
FALO3, 09/02/2026 14:35 PDT, 3.90, 972.00
FALO3, 09/02/2026 14:30 PDT, 3.90, 972.00
FALO3, 09/02/2026 14:25 PDT, 3.89, 966.00
FALO3, 09/02/2026 14:20 PDT, 3.90, 972.00
FALO3, 09/02/2026 14:15 PDT, 3.89, 966.00
FALO3, 09/02/2026 14:10 PDT, 3.90, 972.00
FALO3, 09/02/2026 14:05 PDT, 3.90, 972.00
FALO3, 09/02/2026 14:00 PDT, 3.90, 972.00
FALO3, 09/02/2026 13:55 PDT, 3.90, 972.00
FALO3, 09/02/2026 13:50 PDT, 3.90, 972.00
FALO3, 09/02/2026 13:45 PDT, 3.90, 972.00
FALO3, 09/02/2026 13:40 PDT, 3.90, 972.00
FALO3, 09/02/2026 13:35 PDT, 3.90, 972.00
FALO3, 09/02/2026 13:30 PDT, 3.90, 972.00
FALO3, 09/02/2026 13:25 PDT, 3.90, 972.00
FALO3, 09/02/2026 13:20 PDT, 3.91, 978.00
FALO3, 09/02/2026 13:15 PDT, 3.91, 978.00
FALO3, 09/02/2026 13:10 PDT, 3.90, 972.00
FALO3, 09/02/2026 13:05 PDT, 3.91, 978.00
FALO3, 09/02/2026 13:00 PDT, 3.91, 978.00
FALO3, 09/02/2026 12:55 PDT, 3.90, 972.00
FALO3, 09/02/2026 12:50 PDT, 3.90, 972.00
FALO3, 09/02/2026 12:45 PDT, 3.90, 972.00
FALO3, 09/02/2026 12:40 PDT, 3.89, 966.00
FALO3, 09/02/2026 12:35 PDT, 3.88, 959.00
FALO3, 09/02/2026 12:30 PDT, 3.83, 928.00
FALO3, 09/02/2026 12:25 PDT, 3.76, 886.00
FALO3, 09/02/2026 12:20 PDT, 3.65, 822.00
FALO3, 09/02/2026 12:15 PDT, 3.61, 799.00
FALO3, 09/02/2026 12:10 PDT, 3.60, 793.00
FALO3, 09/02/2026 12:05 PDT, 3.61, 799.00
FALO3, 09/02/2026 12:00 PDT, 3.61, 799.00
FALO3, 09/02/2026 11:55 PDT, 3.61, 799.00
FALO3, 09/02/2026 11:50 PDT, 3.61, 799.00
FALO3, 09/02/2026 11:45 PDT, 3.60, 793.00
FALO3, 09/02/2026 11:40 PDT, 3.61, 799.00
FALO3, 09/02/2026 11:35 PDT, 3.61, 799.00
FALO3, 09/02/2026 11:30 PDT, 3.61, 799.00
FALO3, 09/02/2026 11:25 PDT, 3.61, 799.00
FALO3, 09/02/2026 11:20 PDT, 3.61, 799.00
FALO3, 09/02/2026 11:15 PDT, 3.61, 799.00
FALO3, 09/02/2026 11:10 PDT, 3.60, 793.00
FALO3, 09/02/2026 11:05 PDT, 3.61, 799.00
FALO3, 09/02/2026 11:00 PDT, 3.61, 799.00
FALO3, 09/02/2026 10:55 PDT, 3.61, 799.00
FALO3, 09/02/2026 10:50 PDT, 3.61, 799.00
FALO3, 09/02/2026 10:45 PDT, 3.61, 799.00
FALO3, 09/02/2026 10:40 PDT, 3.61, 799.00
FALO3, 09/02/2026 10:35 PDT, 3.61, 799.00
FALO3, 09/02/2026 10:30 PDT, 3.61, 799.00
FALO3, 09/02/2026 10:25 PDT, 3.60, 793.00
FALO3, 09/02/2026 10:20 PDT, 3.61, 799.00
FALO3, 09/02/2026 10:15 PDT, 3.60, 793.00
FALO3, 09/02/2026 10:10 PDT, 3.60, 793.00
FALO3, 09/02/2026 10:05 PDT, 3.60, 793.00
FALO3, 09/02/2026 10:00 PDT, 3.60, 793.00
FALO3, 09/02/2026 09:55 PDT, 3.60, 793.00
FALO3, 09/02/2026 09:50 PDT, 3.59, 788.00
FALO3, 09/02/2026 09:45 PDT, 3.56, 771.00
FALO3, 09/02/2026 09:40 PDT, 3.51, 743.00
FALO3, 09/02/2026 09:35 PDT, 3.43, 698.00
FALO3, 09/02/2026 09:30 PDT, 3.40, 681.00
FALO3, 09/02/2026 09:25 PDT, 3.39, 676.00
FALO3, 09/02/2026 09:20 PDT, 3.39, 676.00
FALO3, 09/02/2026 09:15 PDT, 3.39, 676.00
FALO3, 09/02/2026 09:10 PDT, 3.39, 676.00
FALO3, 09/02/2026 09:05 PDT, 3.39, 676.00
FALO3, 09/02/2026 09:00 PDT, 3.39, 676.00
FALO3, 09/02/2026 08:55 PDT, 3.39, 676.00
FALO3, 09/02/2026 08:50 PDT, 3.39, 676.00
FALO3, 09/02/2026 08:45 PDT, 3.39, 676.00
FALO3, 09/02/2026 08:40 PDT, 3.39, 676.00
FALO3, 09/02/2026 08:35 PDT, 3.39, 676.00
FALO3, 09/02/2026 08:30 PDT, 3.39, 676.00
FALO3, 09/02/2026 08:25 PDT, 3.38, 670.00
FALO3, 09/02/2026 08:20 PDT, 3.39, 676.00
FALO3, 09/02/2026 08:15 PDT, 3.38, 670.00
FALO3, 09/02/2026 08:10 PDT, 3.36, 659.00
FALO3, 09/02/2026 08:05 PDT, 3.33, 643.00
FALO3, 09/02/2026 08:00 PDT, 3.26, 606.00
FALO3, 09/02/2026 07:55 PDT, 3.19, 570.00
FALO3, 09/02/2026 07:50 PDT, 3.16, 555.00
FALO3, 09/02/2026 07:45 PDT, 3.16, 555.00
FALO3, 09/02/2026 07:40 PDT, 3.16, 555.00
FALO3, 09/02/2026 07:35 PDT, 3.15, 550.00
FALO3, 09/02/2026 07:30 PDT, 3.15, 550.00
FALO3, 09/02/2026 07:25 PDT, 3.16, 555.00
FALO3, 09/02/2026 07:20 PDT, 3.16, 555.00
FALO3, 09/02/2026 07:15 PDT, 3.16, 555.00
FALO3, 09/02/2026 07:10 PDT, 3.16, 555.00
FALO3, 09/02/2026 07:05 PDT, 3.16, 555.00
FALO3, 09/02/2026 07:00 PDT, 3.16, 555.00
FALO3, 09/02/2026 06:55 PDT, 3.16, 555.00
FALO3, 09/02/2026 06:50 PDT, 3.16, 555.00
FALO3, 09/02/2026 06:45 PDT, 3.16, 555.00
FALO3, 09/02/2026 06:40 PDT, 3.16, 555.00
FALO3, 09/02/2026 06:35 PDT, 3.16, 555.00
FALO3, 09/02/2026 06:30 PDT, 3.16, 555.00
FALO3, 09/02/2026 06:25 PDT, 3.16, 555.00
FALO3, 09/02/2026 06:20 PDT, 3.16, 555.00
FALO3, 09/02/2026 06:15 PDT, 3.16, 555.00
FALO3, 09/02/2026 06:10 PDT, 3.16, 555.00
FALO3, 09/02/2026 06:05 PDT, 3.16, 555.00
FALO3, 09/02/2026 06:00 PDT, 3.16, 555.00
FALO3, 09/02/2026 05:55 PDT, 3.16, 555.00
FALO3, 09/02/2026 05:50 PDT, 3.16, 555.00
FALO3, 09/02/2026 05:45 PDT, 3.16, 555.00
FALO3, 09/02/2026 05:40 PDT, 3.16, 555.00
FALO3, 09/02/2026 05:35 PDT, 3.16, 555.00
FALO3, 09/02/2026 05:30 PDT, 3.16, 555.00
FALO3, 09/02/2026 05:25 PDT, 3.16, 555.00
FALO3, 09/02/2026 05:20 PDT, 3.16, 555.00
FALO3, 09/02/2026 05:15 PDT, 3.16, 555.00
FALO3, 09/02/2026 05:10 PDT, 3.16, 555.00
FALO3, 09/02/2026 05:05 PDT, 3.16, 555.00
FALO3, 09/02/2026 05:00 PDT, 3.16, 555.00
FALO3, 09/02/2026 04:55 PDT, 3.16, 555.00
FALO3, 09/02/2026 04:50 PDT, 3.16, 555.00
FALO3, 09/02/2026 04:45 PDT, 3.16, 555.00
FALO3, 09/02/2026 04:40 PDT, 3.16, 555.00
FALO3, 09/02/2026 04:35 PDT, 3.16, 555.00
FALO3, 09/02/2026 04:30 PDT, 3.16, 555.00
FALO3, 09/02/2026 04:25 PDT, 3.16, 555.00
FALO3, 09/02/2026 04:20 PDT, 3.16, 555.00
FALO3, 09/02/2026 04:15 PDT, 3.16, 555.00
FALO3, 09/02/2026 04:10 PDT, 3.16, 555.00
FALO3, 09/02/2026 04:05 PDT, 3.16, 555.00
FALO3, 09/02/2026 04:00 PDT, 3.15, 550.00
FALO3, 09/02/2026 03:55 PDT, 3.15, 550.00
FALO3, 09/02/2026 03:50 PDT, 3.16, 555.00
FALO3, 09/02/2026 03:45 PDT, 3.16, 555.00
FALO3, 09/02/2026 03:40 PDT, 3.16, 555.00
FALO3, 09/02/2026 03:35 PDT, 3.16, 555.00
FALO3, 09/02/2026 03:30 PDT, 3.16, 555.00
FALO3, 09/02/2026 03:25 PDT, 3.16, 555.00
FALO3, 09/02/2026 03:20 PDT, 3.16, 555.00
FALO3, 09/02/2026 03:15 PDT, 3.16, 555.00
FALO3, 09/02/2026 03:10 PDT, 3.16, 555.00
FALO3, 09/02/2026 03:05 PDT, 3.16, 555.00
FALO3, 09/02/2026 03:00 PDT, 3.16, 555.00
FALO3, 09/02/2026 02:55 PDT, 3.16, 555.00
FALO3, 09/02/2026 02:50 PDT, 3.16, 555.00
FALO3, 09/02/2026 02:45 PDT, 3.16, 555.00
FALO3, 09/02/2026 02:40 PDT, 3.16, 555.00
FALO3, 09/02/2026 02:35 PDT, 3.16, 555.00
FALO3, 09/02/2026 02:30 PDT, 3.16, 555.00
FALO3, 09/02/2026 02:25 PDT, 3.16, 555.00
FALO3, 09/02/2026 02:20 PDT, 3.16, 555.00
FALO3, 09/02/2026 02:15 PDT, 3.16, 555.00
FALO3, 09/02/2026 02:10 PDT, 3.16, 555.00
FALO3, 09/02/2026 02:05 PDT, 3.16, 555.00
FALO3, 09/02/2026 02:00 PDT, 3.16, 555.00
FALO3, 09/02/2026 01:55 PDT, 3.16, 555.00
FALO3, 09/02/2026 01:50 PDT, 3.16, 555.00
FALO3, 09/02/2026 01:45 PDT, 3.16, 555.00
FALO3, 09/02/2026 01:40 PDT, 3.16, 555.00
FALO3, 09/02/2026 01:35 PDT, 3.16, 555.00
FALO3, 09/02/2026 01:30 PDT, 3.16, 555.00
FALO3, 09/02/2026 01:25 PDT, 3.17, 560.00
FALO3, 09/02/2026 01:20 PDT, 3.16, 555.00
FALO3, 09/02/2026 01:15 PDT, 3.16, 555.00
FALO3, 09/02/2026 01:10 PDT, 3.16, 555.00
FALO3, 09/02/2026 01:05 PDT, 3.16, 555.00
FALO3, 09/02/2026 01:00 PDT, 3.16, 555.00
FALO3, 09/02/2026 00:55 PDT, 3.16, 555.00
FALO3, 09/02/2026 00:50 PDT, 3.16, 555.00
FALO3, 09/02/2026 00:45 PDT, 3.16, 555.00
FALO3, 09/02/2026 00:40 PDT, 3.16, 555.00
FALO3, 09/02/2026 00:35 PDT, 3.16, 555.00
FALO3, 09/02/2026 00:30 PDT, 3.16, 555.00
FALO3, 09/02/2026 00:25 PDT, 3.16, 555.00
FALO3, 09/02/2026 00:20 PDT, 3.16, 555.00
FALO3, 09/02/2026 00:15 PDT, 3.16, 555.00
FALO3, 09/02/2026 00:10 PDT, 3.16, 555.00
FALO3, 09/02/2026 00:05 PDT, 3.16, 555.00
FALO3, 09/02/2026 00:00 PDT, 3.16, 555.00
FALO3, 09/01/2026 23:55 PDT, 3.16, 555.00
FALO3, 09/01/2026 23:50 PDT, 3.16, 555.00
FALO3, 09/01/2026 23:45 PDT, 3.16, 555.00
FALO3, 09/01/2026 23:40 PDT, 3.16, 555.00
FALO3, 09/01/2026 23:35 PDT, 3.16, 555.00
FALO3, 09/01/2026 23:30 PDT, 3.16, 555.00
FALO3, 09/01/2026 23:25 PDT, 3.16, 555.00
FALO3, 09/01/2026 23:20 PDT, 3.16, 555.00
FALO3, 09/01/2026 23:15 PDT, 3.16, 555.00
FALO3, 09/01/2026 23:10 PDT, 3.16, 555.00
FALO3, 09/01/2026 23:05 PDT, 3.16, 555.00
FALO3, 09/01/2026 23:00 PDT, 3.16, 555.00
FALO3, 09/01/2026 22:55 PDT, 3.16, 555.00
FALO3, 09/01/2026 22:50 PDT, 3.16, 555.00
FALO3, 09/01/2026 22:45 PDT, 3.16, 555.00
FALO3, 09/01/2026 22:40 PDT, 3.16, 555.00
FALO3, 09/01/2026 22:35 PDT, 3.16, 555.00
FALO3, 09/01/2026 22:30 PDT, 3.16, 555.00
FALO3, 09/01/2026 22:25 PDT, 3.16, 555.00
FALO3, 09/01/2026 22:20 PDT, 3.16, 555.00
FALO3, 09/01/2026 22:15 PDT, 3.16, 555.00
FALO3, 09/01/2026 22:10 PDT, 3.16, 555.00
FALO3, 09/01/2026 22:05 PDT, 3.16, 555.00
FALO3, 09/01/2026 22:00 PDT, 3.16, 555.00
FALO3, 09/01/2026 21:55 PDT, 3.16, 555.00
FALO3, 09/01/2026 21:50 PDT, 3.16, 555.00
FALO3, 09/01/2026 21:45 PDT, 3.16, 555.00
FALO3, 09/01/2026 21:40 PDT, 3.16, 555.00
FALO3, 09/01/2026 21:35 PDT, 3.16, 555.00
FALO3, 09/01/2026 21:30 PDT, 3.16, 555.00
FALO3, 09/01/2026 21:25 PDT, 3.16, 555.00
FALO3, 09/01/2026 21:20 PDT, 3.16, 555.00
FALO3, 09/01/2026 21:15 PDT, 3.16, 555.00
FALO3, 09/01/2026 21:10 PDT, 3.16, 555.00
FALO3, 09/01/2026 21:05 PDT, 3.16, 555.00
FALO3, 09/01/2026 21:00 PDT, 3.16, 555.00
FALO3, 09/01/2026 20:55 PDT, 3.16, 555.00
FALO3, 09/01/2026 20:50 PDT, 3.16, 555.00
FALO3, 09/01/2026 20:45 PDT, 3.16, 555.00
FALO3, 09/01/2026 20:40 PDT, 3.16, 555.00
FALO3, 09/01/2026 20:35 PDT, 3.16, 555.00
FALO3, 09/01/2026 20:30 PDT, 3.16, 555.00
FALO3, 09/01/2026 20:25 PDT, 3.16, 555.00
FALO3, 09/01/2026 20:20 PDT, 3.17, 560.00
FALO3, 09/01/2026 20:15 PDT, 3.16, 555.00
FALO3, 09/01/2026 20:10 PDT, 3.16, 555.00
FALO3, 09/01/2026 20:05 PDT, 3.16, 555.00
FALO3, 09/01/2026 20:00 PDT, 3.16, 555.00
FALO3, 09/01/2026 19:55 PDT, 3.16, 555.00
FALO3, 09/01/2026 19:50 PDT, 3.16, 555.00
FALO3, 09/01/2026 19:45 PDT, 3.16, 555.00
FALO3, 09/01/2026 19:40 PDT, 3.16, 555.00
FALO3, 09/01/2026 19:35 PDT, 3.16, 555.00
FALO3, 09/01/2026 19:30 PDT, 3.16, 555.00
FALO3, 09/01/2026 19:25 PDT, 3.16, 555.00
FALO3, 09/01/2026 19:20 PDT, 3.16, 555.00
FALO3, 09/01/2026 19:15 PDT, 3.16, 555.00
FALO3, 09/01/2026 19:10 PDT, 3.16, 555.00
FALO3, 09/01/2026 19:05 PDT, 3.16, 555.00
FALO3, 09/01/2026 19:00 PDT, 3.16, 555.00
FALO3, 09/01/2026 18:55 PDT, 3.16, 555.00
FALO3, 09/01/2026 18:50 PDT, 3.16, 555.00
FALO3, 09/01/2026 18:45 PDT, 3.16, 555.00
FALO3, 09/01/2026 18:40 PDT, 3.16, 555.00
FALO3, 09/01/2026 18:35 PDT, 3.16, 555.00
FALO3, 09/01/2026 18:30 PDT, 3.16, 555.00
FALO3, 09/01/2026 18:25 PDT, 3.16, 555.00
FALO3, 09/01/2026 18:20 PDT, 3.16, 555.00
FALO3, 09/01/2026 18:15 PDT, 3.16, 555.00
FALO3, 09/01/2026 18:10 PDT, 3.16, 555.00
FALO3, 09/01/2026 18:05 PDT, 3.16, 555.00
FALO3, 09/01/2026 18:00 PDT, 3.16, 555.00
FALO3, 09/01/2026 17:55 PDT, 3.16, 555.00
FALO3, 09/01/2026 17:50 PDT, 3.15, 550.00
FALO3, 09/01/2026 17:45 PDT, 3.16, 555.00
FALO3, 09/01/2026 17:40 PDT, 3.16, 555.00
FALO3, 09/01/2026 17:35 PDT, 3.16, 555.00
FALO3, 09/01/2026 17:30 PDT, 3.16, 555.00
FALO3, 09/01/2026 17:25 PDT, 3.16, 555.00
FALO3, 09/01/2026 17:20 PDT, 3.16, 555.00
FALO3, 09/01/2026 17:15 PDT, 3.16, 555.00
FALO3, 09/01/2026 17:10 PDT, 3.16, 555.00
FALO3, 09/01/2026 17:05 PDT, 3.16, 555.00
FALO3, 09/01/2026 17:00 PDT, 3.16, 555.00
FALO3, 09/01/2026 16:55 PDT, 3.16, 555.00
FALO3, 09/01/2026 16:50 PDT, 3.16, 555.00
FALO3, 09/01/2026 16:45 PDT, 3.16, 555.00
FALO3, 09/01/2026 16:40 PDT, 3.16, 555.00
FALO3, 09/01/2026 16:35 PDT, 3.16, 555.00
FALO3, 09/01/2026 16:30 PDT, 3.16, 555.00
FALO3, 09/01/2026 16:25 PDT, 3.16, 555.00
FALO3, 09/01/2026 16:20 PDT, 3.17, 560.00
FALO3, 09/01/2026 16:15 PDT, 3.16, 555.00
FALO3, 09/01/2026 16:10 PDT, 3.16, 555.00
FALO3, 09/01/2026 16:05 PDT, 3.16, 555.00
FALO3, 09/01/2026 16:00 PDT, 3.16, 555.00
FALO3, 09/01/2026 15:55 PDT, 3.16, 555.00
FALO3, 09/01/2026 15:50 PDT, 3.16, 555.00
FALO3, 09/01/2026 15:45 PDT, 3.16, 555.00
FALO3, 09/01/2026 15:40 PDT, 3.16, 555.00
FALO3, 09/01/2026 15:35 PDT, 3.16, 555.00
FALO3, 09/01/2026 15:30 PDT, 3.16, 555.00
FALO3, 09/01/2026 15:25 PDT, 3.16, 555.00
FALO3, 09/01/2026 15:20 PDT, 3.16, 555.00
FALO3, 09/01/2026 15:15 PDT, 3.17, 560.00
FALO3, 09/01/2026 15:10 PDT, 3.16, 555.00
FALO3, 09/01/2026 15:05 PDT, 3.16, 555.00
FALO3, 09/01/2026 15:00 PDT, 3.16, 555.00
FALO3, 09/01/2026 14:55 PDT, 3.16, 555.00
FALO3, 09/01/2026 14:50 PDT, 3.16, 555.00
FALO3, 09/01/2026 14:45 PDT, 3.16, 555.00
FALO3, 09/01/2026 14:40 PDT, 3.17, 560.00
FALO3, 09/01/2026 14:35 PDT, 3.16, 555.00
FALO3, 09/01/2026 14:30 PDT, 3.16, 555.00
FALO3, 09/01/2026 14:25 PDT, 3.16, 555.00
FALO3, 09/01/2026 14:20 PDT, 3.16, 555.00
FALO3, 09/01/2026 14:15 PDT, 3.16, 555.00
FALO3, 09/01/2026 14:10 PDT, 3.16, 555.00
FALO3, 09/01/2026 14:05 PDT, 3.16, 555.00
FALO3, 09/01/2026 14:00 PDT, 3.16, 555.00
FALO3, 09/01/2026 13:55 PDT, 3.16, 555.00
FALO3, 09/01/2026 13:50 PDT, 3.16, 555.00
FALO3, 09/01/2026 13:45 PDT, 3.16, 555.00
FALO3, 09/01/2026 13:40 PDT, 3.16, 555.00
FALO3, 09/01/2026 13:35 PDT, 3.17, 560.00
FALO3, 09/01/2026 13:30 PDT, 3.17, 560.00
FALO3, 09/01/2026 13:25 PDT, 3.16, 555.00
FALO3, 09/01/2026 13:20 PDT, 3.16, 555.00
FALO3, 09/01/2026 13:15 PDT, 3.16, 555.00
FALO3, 09/01/2026 13:10 PDT, 3.16, 555.00
FALO3, 09/01/2026 13:05 PDT, 3.16, 555.00
FALO3, 09/01/2026 13:00 PDT, 3.17, 560.00
FALO3, 09/01/2026 12:55 PDT, 3.16, 555.00
FALO3, 09/01/2026 12:50 PDT, 3.16, 555.00
FALO3, 09/01/2026 12:45 PDT, 3.16, 555.00
FALO3, 09/01/2026 12:40 PDT, 3.16, 555.00
FALO3, 09/01/2026 12:35 PDT, 3.16, 555.00
FALO3, 09/01/2026 12:30 PDT, 3.16, 555.00
FALO3, 09/01/2026 12:25 PDT, 3.16, 555.00
FALO3, 09/01/2026 12:20 PDT, 3.16, 555.00
FALO3, 09/01/2026 12:15 PDT, 3.16, 555.00
FALO3, 09/01/2026 12:10 PDT, 3.17, 560.00
FALO3, 09/01/2026 12:05 PDT, 3.16, 555.00
FALO3, 09/01/2026 12:00 PDT, 3.16, 555.00
FALO3, 09/01/2026 11:55 PDT, 3.16, 555.00
FALO3, 09/01/2026 11:50 PDT, 3.16, 555.00
FALO3, 09/01/2026 11:45 PDT, 3.16, 555.00
FALO3, 09/01/2026 11:40 PDT, 3.16, 555.00
FALO3, 09/01/2026 11:35 PDT, 3.16, 555.00
FALO3, 09/01/2026 11:30 PDT, 3.16, 555.00
FALO3, 09/01/2026 11:25 PDT, 3.16, 555.00
FALO3, 09/01/2026 11:20 PDT, 3.16, 555.00
FALO3, 09/01/2026 11:15 PDT, 3.16, 555.00
FALO3, 09/01/2026 11:10 PDT, 3.17, 560.00
FALO3, 09/01/2026 11:05 PDT, 3.16, 555.00
FALO3, 09/01/2026 11:00 PDT, 3.17, 560.00
FALO3, 09/01/2026 10:55 PDT, 3.17, 560.00
FALO3, 09/01/2026 10:50 PDT, 3.16, 555.00
FALO3, 09/01/2026 10:45 PDT, 3.16, 555.00
FALO3, 09/01/2026 10:40 PDT, 3.16, 555.00
FALO3, 09/01/2026 10:35 PDT, 3.16, 555.00
FALO3, 09/01/2026 10:30 PDT, 3.16, 555.00
FALO3, 09/01/2026 10:25 PDT, 3.17, 560.00
FALO3, 09/01/2026 10:20 PDT, 3.16, 555.00
FALO3, 09/01/2026 10:15 PDT, 3.17, 560.00
FALO3, 09/01/2026 10:10 PDT, 3.17, 560.00
FALO3, 09/01/2026 10:05 PDT, 3.17, 560.00
FALO3, 09/01/2026 10:00 PDT, 3.16, 555.00
FALO3, 09/01/2026 09:55 PDT, 3.17, 560.00
FALO3, 09/01/2026 09:50 PDT, 3.17, 560.00
FALO3, 09/01/2026 09:45 PDT, 3.16, 555.00
FALO3, 09/01/2026 09:40 PDT, 3.16, 555.00
FALO3, 09/01/2026 09:35 PDT, 3.16, 555.00
FALO3, 09/01/2026 09:30 PDT, 3.16, 555.00
FALO3, 09/01/2026 09:25 PDT, 3.17, 560.00
FALO3, 09/01/2026 09:20 PDT, 3.17, 560.00
FALO3, 09/01/2026 09:15 PDT, 3.17, 560.00
FALO3, 09/01/2026 09:10 PDT, 3.16, 555.00
FALO3, 09/01/2026 09:05 PDT, 3.17, 560.00
FALO3, 09/01/2026 09:00 PDT, 3.17, 560.00
FALO3, 09/01/2026 08:55 PDT, 3.16, 555.00
FALO3, 09/01/2026 08:50 PDT, 3.17, 560.00
FALO3, 09/01/2026 08:45 PDT, 3.17, 560.00
FALO3, 09/01/2026 08:40 PDT, 3.17, 560.00
FALO3, 09/01/2026 08:35 PDT, 3.16, 555.00
FALO3, 09/01/2026 08:30 PDT, 3.16, 555.00
FALO3, 09/01/2026 08:25 PDT, 3.16, 555.00
FALO3, 09/01/2026 08:20 PDT, 3.17, 560.00
FALO3, 09/01/2026 08:15 PDT, 3.16, 555.00
FALO3, 09/01/2026 08:10 PDT, 3.17, 560.00
FALO3, 09/01/2026 08:05 PDT, 3.16, 555.00
FALO3, 09/01/2026 08:00 PDT, 3.17, 560.00
FALO3, 09/01/2026 07:55 PDT, 3.16, 555.00
FALO3, 09/01/2026 07:50 PDT, 3.17, 560.00
FALO3, 09/01/2026 07:45 PDT, 3.16, 555.00
FALO3, 09/01/2026 07:40 PDT, 3.16, 555.00
FALO3, 09/01/2026 07:35 PDT, 3.17, 560.00
FALO3, 09/01/2026 07:30 PDT, 3.17, 560.00
FALO3, 09/01/2026 07:25 PDT, 3.16, 555.00
FALO3, 09/01/2026 07:20 PDT, 3.17, 560.00
FALO3, 09/01/2026 07:15 PDT, 3.17, 560.00
FALO3, 09/01/2026 07:10 PDT, 3.16, 555.00
FALO3, 09/01/2026 07:05 PDT, 3.17, 560.00
FALO3, 09/01/2026 07:00 PDT, 3.16, 555.00
FALO3, 09/01/2026 06:55 PDT, 3.17, 560.00
FALO3, 09/01/2026 06:50 PDT, 3.16, 555.00
FALO3, 09/01/2026 06:45 PDT, 3.16, 555.00
FALO3, 09/01/2026 06:40 PDT, 3.16, 555.00
FALO3, 09/01/2026 06:35 PDT, 3.16, 555.00
FALO3, 09/01/2026 06:30 PDT, 3.17, 560.00
FALO3, 09/01/2026 06:25 PDT, 3.16, 555.00
FALO3, 09/01/2026 06:20 PDT, 3.17, 560.00
FALO3, 09/01/2026 06:15 PDT, 3.16, 555.00
FALO3, 09/01/2026 06:10 PDT, 3.17, 560.00
FALO3, 09/01/2026 06:05 PDT, 3.17, 560.00
FALO3, 09/01/2026 06:00 PDT, 3.17, 560.00
FALO3, 09/01/2026 05:55 PDT, 3.16, 555.00
FALO3, 09/01/2026 05:50 PDT, 3.17, 560.00
FALO3, 09/01/2026 05:45 PDT, 3.16, 555.00
FALO3, 09/01/2026 05:40 PDT, 3.17, 560.00
FALO3, 09/01/2026 05:35 PDT, 3.17, 560.00
FALO3, 09/01/2026 05:30 PDT, 3.16, 555.00
FALO3, 09/01/2026 05:25 PDT, 3.17, 560.00
FALO3, 09/01/2026 05:20 PDT, 3.16, 555.00
FALO3, 09/01/2026 05:15 PDT, 3.16, 555.00
FALO3, 09/01/2026 05:10 PDT, 3.16, 555.00
FALO3, 09/01/2026 05:05 PDT, 3.17, 560.00
FALO3, 09/01/2026 05:00 PDT, 3.17, 560.00
FALO3, 09/01/2026 04:55 PDT, 3.17, 560.00
FALO3, 09/01/2026 04:50 PDT, 3.16, 555.00
FALO3, 09/01/2026 04:45 PDT, 3.16, 555.00
FALO3, 09/01/2026 04:40 PDT, 3.17, 560.00
FALO3, 09/01/2026 04:35 PDT, 3.16, 555.00
FALO3, 09/01/2026 04:30 PDT, 3.17, 560.00
FALO3, 09/01/2026 04:25 PDT, 3.16, 555.00
FALO3, 09/01/2026 04:20 PDT, 3.16, 555.00
FALO3, 09/01/2026 04:15 PDT, 3.16, 555.00
FALO3, 09/01/2026 04:10 PDT, 3.16, 555.00
FALO3, 09/01/2026 04:05 PDT, 3.16, 555.00
FALO3, 09/01/2026 04:00 PDT, 3.17, 560.00
FALO3, 09/01/2026 03:55 PDT, 3.16, 555.00
FALO3, 09/01/2026 03:50 PDT, 3.16, 555.00
FALO3, 09/01/2026 03:45 PDT, 3.17, 560.00
FALO3, 09/01/2026 03:40 PDT, 3.17, 560.00
FALO3, 09/01/2026 03:35 PDT, 3.16, 555.00
FALO3, 09/01/2026 03:30 PDT, 3.17, 560.00
FALO3, 09/01/2026 03:25 PDT, 3.17, 560.00
FALO3, 09/01/2026 03:20 PDT, 3.16, 555.00
FALO3, 09/01/2026 03:15 PDT, 3.16, 555.00
FALO3, 09/01/2026 03:10 PDT, 3.17, 560.00
FALO3, 09/01/2026 03:05 PDT, 3.16, 555.00
FALO3, 09/01/2026 03:00 PDT, 3.17, 560.00
FALO3, 09/01/2026 02:55 PDT, 3.17, 560.00
FALO3, 09/01/2026 02:50 PDT, 3.17, 560.00
FALO3, 09/01/2026 02:45 PDT, 3.17, 560.00
FALO3, 09/01/2026 02:40 PDT, 3.17, 560.00
FALO3, 09/01/2026 02:35 PDT, 3.17, 560.00
FALO3, 09/01/2026 02:30 PDT, 3.17, 560.00
FALO3, 09/01/2026 02:25 PDT, 3.17, 560.00
FALO3, 09/01/2026 02:20 PDT, 3.17, 560.00
FALO3, 09/01/2026 02:15 PDT, 3.17, 560.00
FALO3, 09/01/2026 02:10 PDT, 3.17, 560.00
FALO3, 09/01/2026 02:05 PDT, 3.17, 560.00
FALO3, 09/01/2026 02:00 PDT, 3.17, 560.00
FALO3, 09/01/2026 01:55 PDT, 3.17, 560.00
FALO3, 09/01/2026 01:50 PDT, 3.17, 560.00
FALO3, 09/01/2026 01:45 PDT, 3.17, 560.00
FALO3, 09/01/2026 01:40 PDT, 3.17, 560.00
FALO3, 09/01/2026 01:35 PDT, 3.17, 560.00
FALO3, 09/01/2026 01:30 PDT, 3.17, 560.00
FALO3, 09/01/2026 01:25 PDT, 3.17, 560.00
FALO3, 09/01/2026 01:20 PDT, 3.17, 560.00
FALO3, 09/01/2026 01:15 PDT, 3.17, 560.00
FALO3, 09/01/2026 01:10 PDT, 3.17, 560.00
FALO3, 09/01/2026 01:05 PDT, 3.17, 560.00
FALO3, 09/01/2026 01:00 PDT, 3.16, 555.00
FALO3, 09/01/2026 00:55 PDT, 3.17, 560.00
FALO3, 09/01/2026 00:50 PDT, 3.16, 555.00
FALO3, 09/01/2026 00:45 PDT, 3.17, 560.00
FALO3, 09/01/2026 00:40 PDT, 3.17, 560.00
FALO3, 09/01/2026 00:35 PDT, 3.17, 560.00
FALO3, 09/01/2026 00:30 PDT, 3.17, 560.00
FALO3, 09/01/2026 00:25 PDT, 3.17, 560.00
FALO3, 09/01/2026 00:20 PDT, 3.17, 560.00
FALO3, 09/01/2026 00:15 PDT, 3.17, 560.00
FALO3, 09/01/2026 00:10 PDT, 3.17, 560.00
FALO3, 09/01/2026 00:05 PDT, 3.17, 560.00
FALO3, 09/01/2026 00:00 PDT, 3.17, 560.00
FALO3, 08/31/2026 23:55 PDT, 3.17, 560.00
FALO3, 08/31/2026 23:50 PDT, 3.17, 560.00
FALO3, 08/31/2026 23:45 PDT, 3.17, 560.00
FALO3, 08/31/2026 23:40 PDT, 3.17, 560.00
FALO3, 08/31/2026 23:35 PDT, 3.17, 560.00
FALO3, 08/31/2026 23:30 PDT, 3.17, 560.00
FALO3, 08/31/2026 23:25 PDT, 3.17, 560.00
FALO3, 08/31/2026 23:20 PDT, 3.17, 560.00
FALO3, 08/31/2026 23:15 PDT, 3.17, 560.00
FALO3, 08/31/2026 23:10 PDT, 3.16, 555.00
FALO3, 08/31/2026 23:05 PDT, 3.17, 560.00
FALO3, 08/31/2026 23:00 PDT, 3.17, 560.00
FALO3, 08/31/2026 22:55 PDT, 3.17, 560.00
FALO3, 08/31/2026 22:50 PDT, 3.17, 560.00
FALO3, 08/31/2026 22:45 PDT, 3.17, 560.00
FALO3, 08/31/2026 22:40 PDT, 3.16, 555.00
FALO3, 08/31/2026 22:35 PDT, 3.17, 560.00
FALO3, 08/31/2026 22:30 PDT, 3.17, 560.00
FALO3, 08/31/2026 22:25 PDT, 3.17, 560.00
FALO3, 08/31/2026 22:20 PDT, 3.17, 560.00
FALO3, 08/31/2026 22:15 PDT, 3.17, 560.00
FALO3, 08/31/2026 22:10 PDT, 3.17, 560.00
FALO3, 08/31/2026 22:05 PDT, 3.17, 560.00
FALO3, 08/31/2026 22:00 PDT, 3.17, 560.00
FALO3, 08/31/2026 21:55 PDT, 3.17, 560.00
FALO3, 08/31/2026 21:50 PDT, 3.16, 555.00
FALO3, 08/31/2026 21:45 PDT, 3.17, 560.00
FALO3, 08/31/2026 21:40 PDT, 3.17, 560.00
FALO3, 08/31/2026 21:35 PDT, 3.17, 560.00
FALO3, 08/31/2026 21:30 PDT, 3.17, 560.00
FALO3, 08/31/2026 21:25 PDT, 3.17, 560.00
FALO3, 08/31/2026 21:20 PDT, 3.16, 555.00
FALO3, 08/31/2026 21:15 PDT, 3.17, 560.00
FALO3, 08/31/2026 21:10 PDT, 3.17, 560.00
FALO3, 08/31/2026 21:05 PDT, 3.17, 560.00
FALO3, 08/31/2026 21:00 PDT, 3.17, 560.00
FALO3, 08/31/2026 20:55 PDT, 3.16, 555.00
FALO3, 08/31/2026 20:50 PDT, 3.17, 560.00
FALO3, 08/31/2026 20:45 PDT, 3.17, 560.00
FALO3, 08/31/2026 20:40 PDT, 3.17, 560.00
FALO3, 08/31/2026 20:35 PDT, 3.17, 560.00
FALO3, 08/31/2026 20:30 PDT, 3.16, 555.00
FALO3, 08/31/2026 20:25 PDT, 3.17, 560.00
FALO3, 08/31/2026 20:20 PDT, 3.17, 560.00
FALO3, 08/31/2026 20:15 PDT, 3.17, 560.00
FALO3, 08/31/2026 20:10 PDT, 3.17, 560.00
FALO3, 08/31/2026 20:05 PDT, 3.17, 560.00
FALO3, 08/31/2026 20:00 PDT, 3.17, 560.00
FALO3, 08/31/2026 19:55 PDT, 3.16, 555.00
FALO3, 08/31/2026 19:50 PDT, 3.17, 560.00
FALO3, 08/31/2026 19:45 PDT, 3.16, 555.00
FALO3, 08/31/2026 19:40 PDT, 3.17, 560.00
FALO3, 08/31/2026 19:35 PDT, 3.17, 560.00
FALO3, 08/31/2026 19:30 PDT, 3.17, 560.00
FALO3, 08/31/2026 19:25 PDT, 3.17, 560.00
FALO3, 08/31/2026 19:20 PDT, 3.17, 560.00
FALO3, 08/31/2026 19:15 PDT, 3.17, 560.00
FALO3, 08/31/2026 19:10 PDT, 3.17, 560.00
FALO3, 08/31/2026 19:05 PDT, 3.16, 555.00
FALO3, 08/31/2026 19:00 PDT, 3.16, 555.00
FALO3, 08/31/2026 18:55 PDT, 3.17, 560.00
FALO3, 08/31/2026 18:50 PDT, 3.16, 555.00
FALO3, 08/31/2026 18:45 PDT, 3.17, 560.00
FALO3, 08/31/2026 18:40 PDT, 3.16, 555.00
FALO3, 08/31/2026 18:35 PDT, 3.17, 560.00
FALO3, 08/31/2026 18:30 PDT, 3.17, 560.00
FALO3, 08/31/2026 18:25 PDT, 3.16, 555.00
FALO3, 08/31/2026 18:20 PDT, 3.17, 560.00
FALO3, 08/31/2026 18:15 PDT, 3.17, 560.00
FALO3, 08/31/2026 18:10 PDT, 3.17, 560.00
FALO3, 08/31/2026 18:05 PDT, 3.16, 555.00
FALO3, 08/31/2026 18:00 PDT, 3.17, 560.00
FALO3, 08/31/2026 17:55 PDT, 3.16, 555.00
FALO3, 08/31/2026 17:50 PDT, 3.16, 555.00
FALO3, 08/31/2026 17:45 PDT, 3.17, 560.00
FALO3, 08/31/2026 17:40 PDT, 3.16, 555.00
FALO3, 08/31/2026 17:35 PDT, 3.16, 555.00
FALO3, 08/31/2026 17:30 PDT, 3.16, 555.00
FALO3, 08/31/2026 17:25 PDT, 3.17, 560.00
FALO3, 08/31/2026 17:20 PDT, 3.17, 560.00
FALO3, 08/31/2026 17:15 PDT, 3.16, 555.00
FALO3, 08/31/2026 17:10 PDT, 3.16, 555.00
FALO3, 08/31/2026 17:05 PDT, 3.16, 555.00
FALO3, 08/31/2026 17:00 PDT, 3.16, 555.00
FALO3, 08/31/2026 16:55 PDT, 3.16, 555.00
FALO3, 08/31/2026 16:50 PDT, 3.16, 555.00
FALO3, 08/31/2026 16:45 PDT, 3.16, 555.00
FALO3, 08/31/2026 16:40 PDT, 3.16, 555.00
FALO3, 08/31/2026 16:35 PDT, 3.16, 555.00
FALO3, 08/31/2026 16:30 PDT, 3.17, 560.00
FALO3, 08/31/2026 16:25 PDT, 3.16, 555.00
FALO3, 08/31/2026 16:20 PDT, 3.16, 555.00
FALO3, 08/31/2026 16:15 PDT, 3.16, 555.00
FALO3, 08/31/2026 16:10 PDT, 3.17, 560.00
FALO3, 08/31/2026 16:05 PDT, 3.16, 555.00
FALO3, 08/31/2026 16:00 PDT, 3.17, 560.00
FALO3, 08/31/2026 15:55 PDT, 3.16, 555.00
FALO3, 08/31/2026 15:50 PDT, 3.16, 555.00
FALO3, 08/31/2026 15:45 PDT, 3.16, 555.00
FALO3, 08/31/2026 15:40 PDT, 3.16, 555.00
FALO3, 08/31/2026 15:35 PDT, 3.16, 555.00
FALO3, 08/31/2026 15:30 PDT, 3.16, 555.00
FALO3, 08/31/2026 15:25 PDT, 3.17, 560.00
FALO3, 08/31/2026 15:20 PDT, 3.17, 560.00
FALO3, 08/31/2026 15:15 PDT, 3.16, 555.00
FALO3, 08/31/2026 15:10 PDT, 3.17, 560.00
FALO3, 08/31/2026 15:05 PDT, 3.16, 555.00
FALO3, 08/31/2026 15:00 PDT, 3.16, 555.00
FALO3, 08/31/2026 14:55 PDT, 3.16, 555.00
FALO3, 08/31/2026 14:50 PDT, 3.17, 560.00
FALO3, 08/31/2026 14:45 PDT, 3.17, 560.00
FALO3, 08/31/2026 14:40 PDT, 3.16, 555.00
FALO3, 08/31/2026 14:35 PDT, 3.16, 555.00
FALO3, 08/31/2026 14:30 PDT, 3.17, 560.00
FALO3, 08/31/2026 14:25 PDT, 3.16, 555.00
FALO3, 08/31/2026 14:20 PDT, 3.17, 560.00
FALO3, 08/31/2026 14:15 PDT, 3.16, 555.00
FALO3, 08/31/2026 14:10 PDT, 3.16, 555.00
FALO3, 08/31/2026 14:05 PDT, 3.17, 560.00
FALO3, 08/31/2026 14:00 PDT, 3.16, 555.00
FALO3, 08/31/2026 13:55 PDT, 3.16, 555.00
FALO3, 08/31/2026 13:50 PDT, 3.16, 555.00
FALO3, 08/31/2026 13:45 PDT, 3.17, 560.00
FALO3, 08/31/2026 13:40 PDT, 3.17, 560.00
FALO3, 08/31/2026 13:35 PDT, 3.17, 560.00
FALO3, 08/31/2026 13:30 PDT, 3.17, 560.00
FALO3, 08/31/2026 13:25 PDT, 3.17, 560.00
FALO3, 08/31/2026 13:20 PDT, 3.17, 560.00
FALO3, 08/31/2026 13:15 PDT, 3.17, 560.00
FALO3, 08/31/2026 13:10 PDT, 3.17, 560.00
FALO3, 08/31/2026 13:05 PDT, 3.17, 560.00
FALO3, 08/31/2026 13:00 PDT, 3.17, 560.00
FALO3, 08/31/2026 12:55 PDT, 3.17, 560.00
FALO3, 08/31/2026 12:50 PDT, 3.17, 560.00
FALO3, 08/31/2026 12:45 PDT, 3.17, 560.00
FALO3, 08/31/2026 12:40 PDT, 3.17, 560.00
FALO3, 08/31/2026 12:35 PDT, 3.17, 560.00
FALO3, 08/31/2026 12:30 PDT, 3.16, 555.00
FALO3, 08/31/2026 12:25 PDT, 3.16, 555.00
FALO3, 08/31/2026 12:20 PDT, 3.17, 560.00
FALO3, 08/31/2026 12:15 PDT, 3.17, 560.00
FALO3, 08/31/2026 12:10 PDT, 3.17, 560.00
FALO3, 08/31/2026 12:05 PDT, 3.17, 560.00
FALO3, 08/31/2026 12:00 PDT, 3.17, 560.00
FALO3, 08/31/2026 11:55 PDT, 3.17, 560.00
FALO3, 08/31/2026 11:50 PDT, 3.17, 560.00
FALO3, 08/31/2026 11:45 PDT, 3.17, 560.00
FALO3, 08/31/2026 11:40 PDT, 3.17, 560.00
FALO3, 08/31/2026 11:35 PDT, 3.17, 560.00
FALO3, 08/31/2026 11:30 PDT, 3.17, 560.00
FALO3, 08/31/2026 11:25 PDT, 3.17, 560.00
FALO3, 08/31/2026 11:20 PDT, 3.17, 560.00
FALO3, 08/31/2026 11:15 PDT, 3.17, 560.00
FALO3, 08/31/2026 11:10 PDT, 3.17, 560.00
FALO3, 08/31/2026 11:05 PDT, 3.17, 560.00
FALO3, 08/31/2026 11:00 PDT, 3.17, 560.00
FALO3, 08/31/2026 10:55 PDT, 3.17, 560.00
FALO3, 08/31/2026 10:50 PDT, 3.17, 560.00
FALO3, 08/31/2026 10:45 PDT, 3.16, 555.00
FALO3, 08/31/2026 10:40 PDT, 3.17, 560.00
FALO3, 08/31/2026 10:35 PDT, 3.17, 560.00
FALO3, 08/31/2026 10:30 PDT, 3.17, 560.00
FALO3, 08/31/2026 10:25 PDT, 3.17, 560.00
FALO3, 08/31/2026 10:20 PDT, 3.17, 560.00
FALO3, 08/31/2026 10:15 PDT, 3.17, 560.00
FALO3, 08/31/2026 10:10 PDT, 3.17, 560.00
FALO3, 08/31/2026 10:05 PDT, 3.17, 560.00
FALO3, 08/31/2026 10:00 PDT, 3.17, 560.00
FALO3, 08/31/2026 09:55 PDT, 3.17, 560.00
FALO3, 08/31/2026 09:50 PDT, 3.17, 560.00
FALO3, 08/31/2026 09:45 PDT, 3.17, 560.00
FALO3, 08/31/2026 09:40 PDT, 3.17, 560.00
FALO3, 08/31/2026 09:35 PDT, 3.17, 560.00
FALO3, 08/31/2026 09:30 PDT, 3.17, 560.00
FALO3, 08/31/2026 09:25 PDT, 3.17, 560.00
FALO3, 08/31/2026 09:20 PDT, 3.17, 560.00
FALO3, 08/31/2026 09:15 PDT, 3.17, 560.00
FALO3, 08/31/2026 09:10 PDT, 3.17, 560.00
FALO3, 08/31/2026 09:05 PDT, 3.17, 560.00
FALO3, 08/31/2026 09:00 PDT, 3.17, 560.00
FALO3, 08/31/2026 08:55 PDT, 3.17, 560.00
FALO3, 08/31/2026 08:50 PDT, 3.17, 560.00
FALO3, 08/31/2026 08:45 PDT, 3.17, 560.00
FALO3, 08/31/2026 08:40 PDT, 3.17, 560.00
FALO3, 08/31/2026 08:35 PDT, 3.17, 560.00
FALO3, 08/31/2026 08:30 PDT, 3.17, 560.00
FALO3, 08/31/2026 08:25 PDT, 3.17, 560.00
FALO3, 08/31/2026 08:20 PDT, 3.17, 560.00
FALO3, 08/31/2026 08:15 PDT, 3.17, 560.00
FALO3, 08/31/2026 08:10 PDT, 3.17, 560.00
FALO3, 08/31/2026 08:05 PDT, 3.17, 560.00
FALO3, 08/31/2026 08:00 PDT, 3.17, 560.00
FALO3, 08/31/2026 07:55 PDT, 3.17, 560.00
FALO3, 08/31/2026 07:50 PDT, 3.17, 560.00
FALO3, 08/31/2026 07:45 PDT, 3.17, 560.00
FALO3, 08/31/2026 07:40 PDT, 3.17, 560.00
FALO3, 08/31/2026 07:35 PDT, 3.17, 560.00
FALO3, 08/31/2026 07:30 PDT, 3.17, 560.00
FALO3, 08/31/2026 07:25 PDT, 3.17, 560.00
FALO3, 08/31/2026 07:20 PDT, 3.17, 560.00
FALO3, 08/31/2026 07:15 PDT, 3.17, 560.00
FALO3, 08/31/2026 07:10 PDT, 3.17, 560.00
FALO3, 08/31/2026 07:05 PDT, 3.17, 560.00
FALO3, 08/31/2026 07:00 PDT, 3.17, 560.00
FALO3, 08/31/2026 06:55 PDT, 3.17, 560.00
FALO3, 08/31/2026 06:50 PDT, 3.17, 560.00
FALO3, 08/31/2026 06:45 PDT, 3.17, 560.00
FALO3, 08/31/2026 06:40 PDT, 3.17, 560.00
FALO3, 08/31/2026 06:35 PDT, 3.17, 560.00
FALO3, 08/31/2026 06:30 PDT, 3.17, 560.00
FALO3, 08/31/2026 06:25 PDT, 3.17, 560.00
FALO3, 08/31/2026 06:20 PDT, 3.17, 560.00
FALO3, 08/31/2026 06:15 PDT, 3.17, 560.00
FALO3, 08/31/2026 06:10 PDT, 3.17, 560.00
FALO3, 08/31/2026 06:05 PDT, 3.17, 560.00
FALO3, 08/31/2026 06:00 PDT, 3.17, 560.00
FALO3, 08/31/2026 05:55 PDT, 3.17, 560.00
FALO3, 08/31/2026 05:50 PDT, 3.17, 560.00
FALO3, 08/31/2026 05:45 PDT, 3.17, 560.00
FALO3, 08/31/2026 05:40 PDT, 3.16, 555.00
FALO3, 08/31/2026 05:35 PDT, 3.17, 560.00
FALO3, 08/31/2026 05:30 PDT, 3.17, 560.00
FALO3, 08/31/2026 05:25 PDT, 3.17, 560.00
FALO3, 08/31/2026 05:20 PDT, 3.17, 560.00
FALO3, 08/31/2026 05:15 PDT, 3.17, 560.00
FALO3, 08/31/2026 05:10 PDT, 3.17, 560.00
FALO3, 08/31/2026 05:05 PDT, 3.17, 560.00
FALO3, 08/31/2026 05:00 PDT, 3.17, 560.00
FALO3, 08/31/2026 04:55 PDT, 3.17, 560.00
FALO3, 08/31/2026 04:50 PDT, 3.17, 560.00
FALO3, 08/31/2026 04:45 PDT, 3.17, 560.00
FALO3, 08/31/2026 04:40 PDT, 3.17, 560.00
FALO3, 08/31/2026 04:35 PDT, 3.17, 560.00
FALO3, 08/31/2026 04:30 PDT, 3.17, 560.00
FALO3, 08/31/2026 04:25 PDT, 3.17, 560.00
FALO3, 08/31/2026 04:20 PDT, 3.17, 560.00
FALO3, 08/31/2026 04:15 PDT, 3.17, 560.00
FALO3, 08/31/2026 04:10 PDT, 3.17, 560.00
FALO3, 08/31/2026 04:05 PDT, 3.17, 560.00
FALO3, 08/31/2026 04:00 PDT, 3.17, 560.00
FALO3, 08/31/2026 03:55 PDT, 3.17, 560.00
FALO3, 08/31/2026 03:50 PDT, 3.17, 560.00
FALO3, 08/31/2026 03:45 PDT, 3.17, 560.00
FALO3, 08/31/2026 03:40 PDT, 3.17, 560.00
FALO3, 08/31/2026 03:35 PDT, 3.17, 560.00
FALO3, 08/31/2026 03:30 PDT, 3.17, 560.00
FALO3, 08/31/2026 03:25 PDT, 3.17, 560.00
FALO3, 08/31/2026 03:20 PDT, 3.17, 560.00
FALO3, 08/31/2026 03:15 PDT, 3.17, 560.00
FALO3, 08/31/2026 03:10 PDT, 3.17, 560.00
FALO3, 08/31/2026 03:05 PDT, 3.17, 560.00
FALO3, 08/31/2026 03:00 PDT, 3.17, 560.00
FALO3, 08/31/2026 02:55 PDT, 3.17, 560.00
FALO3, 08/31/2026 02:50 PDT, 3.17, 560.00
FALO3, 08/31/2026 02:45 PDT, 3.17, 560.00
FALO3, 08/31/2026 02:40 PDT, 3.16, 555.00
FALO3, 08/31/2026 02:35 PDT, 3.17, 560.00
FALO3, 08/31/2026 02:30 PDT, 3.17, 560.00
FALO3, 08/31/2026 02:25 PDT, 3.17, 560.00
FALO3, 08/31/2026 02:20 PDT, 3.17, 560.00
FALO3, 08/31/2026 02:15 PDT, 3.17, 560.00
FALO3, 08/31/2026 02:10 PDT, 3.17, 560.00
FALO3, 08/31/2026 02:05 PDT, 3.17, 560.00
FALO3, 08/31/2026 02:00 PDT, 3.17, 560.00
FALO3, 08/31/2026 01:55 PDT, 3.17, 560.00
FALO3, 08/31/2026 01:50 PDT, 3.17, 560.00
FALO3, 08/31/2026 01:45 PDT, 3.17, 560.00
FALO3, 08/31/2026 01:40 PDT, 3.17, 560.00
FALO3, 08/31/2026 01:35 PDT, 3.17, 560.00
FALO3, 08/31/2026 01:30 PDT, 3.17, 560.00
FALO3, 08/31/2026 01:25 PDT, 3.17, 560.00
FALO3, 08/31/2026 01:20 PDT, 3.17, 560.00
FALO3, 08/31/2026 01:15 PDT, 3.17, 560.00
FALO3, 08/31/2026 01:10 PDT, 3.17, 560.00
FALO3, 08/31/2026 01:05 PDT, 3.17, 560.00
FALO3, 08/31/2026 01:00 PDT, 3.17, 560.00
FALO3, 08/31/2026 00:55 PDT, 3.17, 560.00
FALO3, 08/31/2026 00:50 PDT, 3.17, 560.00
FALO3, 08/31/2026 00:45 PDT, 3.17, 560.00
FALO3, 08/31/2026 00:40 PDT, 3.17, 560.00
FALO3, 08/31/2026 00:35 PDT, 3.17, 560.00
FALO3, 08/31/2026 00:30 PDT, 3.18, 565.00
FALO3, 08/31/2026 00:25 PDT, 3.17, 560.00
FALO3, 08/31/2026 00:20 PDT, 3.18, 565.00
FALO3, 08/31/2026 00:15 PDT, 3.17, 560.00
FALO3, 08/31/2026 00:10 PDT, 3.17, 560.00
FALO3, 08/31/2026 00:05 PDT, 3.17, 560.00
FALO3, 08/31/2026 00:00 PDT, 3.17, 560.00
FALO3, 08/30/2026 23:55 PDT, 3.17, 560.00
FALO3, 08/30/2026 23:50 PDT, 3.18, 565.00
FALO3, 08/30/2026 23:45 PDT, 3.17, 560.00
FALO3, 08/30/2026 23:40 PDT, 3.18, 565.00
FALO3, 08/30/2026 23:35 PDT, 3.17, 560.00
FALO3, 08/30/2026 23:30 PDT, 3.17, 560.00
FALO3, 08/30/2026 23:25 PDT, 3.17, 560.00
FALO3, 08/30/2026 23:20 PDT, 3.17, 560.00
FALO3, 08/30/2026 23:15 PDT, 3.18, 565.00
FALO3, 08/30/2026 23:10 PDT, 3.17, 560.00
FALO3, 08/30/2026 23:05 PDT, 3.17, 560.00
FALO3, 08/30/2026 23:00 PDT, 3.17, 560.00
FALO3, 08/30/2026 22:55 PDT, 3.17, 560.00
FALO3, 08/30/2026 22:50 PDT, 3.17, 560.00
FALO3, 08/30/2026 22:45 PDT, 3.17, 560.00
FALO3, 08/30/2026 22:40 PDT, 3.18, 565.00
FALO3, 08/30/2026 22:35 PDT, 3.17, 560.00
FALO3, 08/30/2026 22:30 PDT, 3.18, 565.00
FALO3, 08/30/2026 22:25 PDT, 3.18, 565.00
FALO3, 08/30/2026 22:20 PDT, 3.17, 560.00
FALO3, 08/30/2026 22:15 PDT, 3.17, 560.00
FALO3, 08/30/2026 22:10 PDT, 3.18, 565.00
FALO3, 08/30/2026 22:05 PDT, 3.18, 565.00
FALO3, 08/30/2026 22:00 PDT, 3.17, 560.00
FALO3, 08/30/2026 21:55 PDT, 3.17, 560.00
FALO3, 08/30/2026 21:50 PDT, 3.17, 560.00
FALO3, 08/30/2026 21:45 PDT, 3.17, 560.00
FALO3, 08/30/2026 21:40 PDT, 3.17, 560.00
FALO3, 08/30/2026 21:35 PDT, 3.17, 560.00
FALO3, 08/30/2026 21:30 PDT, 3.17, 560.00
FALO3, 08/30/2026 21:25 PDT, 3.17, 560.00
FALO3, 08/30/2026 21:20 PDT, 3.17, 560.00
FALO3, 08/30/2026 21:15 PDT, 3.17, 560.00
FALO3, 08/30/2026 21:10 PDT, 3.17, 560.00
FALO3, 08/30/2026 21:05 PDT, 3.17, 560.00
FALO3, 08/30/2026 21:00 PDT, 3.17, 560.00
FALO3, 08/30/2026 20:55 PDT, 3.17, 560.00
FALO3, 08/30/2026 20:50 PDT, 3.17, 560.00
FALO3, 08/30/2026 20:45 PDT, 3.17, 560.00
FALO3, 08/30/2026 20:40 PDT, 3.17, 560.00
FALO3, 08/30/2026 20:35 PDT, 3.17, 560.00
FALO3, 08/30/2026 20:30 PDT, 3.17, 560.00
FALO3, 08/30/2026 20:25 PDT, 3.17, 560.00
FALO3, 08/30/2026 20:20 PDT, 3.17, 560.00
FALO3, 08/30/2026 20:15 PDT, 3.17, 560.00
FALO3, 08/30/2026 20:10 PDT, 3.17, 560.00
FALO3, 08/30/2026 20:05 PDT, 3.17, 560.00
FALO3, 08/30/2026 20:00 PDT, 3.17, 560.00
FALO3, 08/30/2026 19:55 PDT, 3.17, 560.00
FALO3, 08/30/2026 19:50 PDT, 3.17, 560.00
FALO3, 08/30/2026 19:45 PDT, 3.17, 560.00
FALO3, 08/30/2026 19:40 PDT, 3.17, 560.00
FALO3, 08/30/2026 19:35 PDT, 3.17, 560.00
FALO3, 08/30/2026 19:30 PDT, 3.17, 560.00
FALO3, 08/30/2026 19:25 PDT, 3.17, 560.00
FALO3, 08/30/2026 19:20 PDT, 3.17, 560.00
FALO3, 08/30/2026 19:15 PDT, 3.17, 560.00
FALO3, 08/30/2026 19:10 PDT, 3.17, 560.00
FALO3, 08/30/2026 19:05 PDT, 3.17, 560.00
FALO3, 08/30/2026 19:00 PDT, 3.17, 560.00
FALO3, 08/30/2026 18:55 PDT, 3.17, 560.00
FALO3, 08/30/2026 18:50 PDT, 3.17, 560.00
FALO3, 08/30/2026 18:45 PDT, 3.17, 560.00
FALO3, 08/30/2026 18:40 PDT, 3.17, 560.00
FALO3, 08/30/2026 18:35 PDT, 3.16, 555.00
FALO3, 08/30/2026 18:30 PDT, 3.17, 560.00
FALO3, 08/30/2026 18:25 PDT, 3.16, 555.00
FALO3, 08/30/2026 18:20 PDT, 3.16, 555.00
FALO3, 08/30/2026 18:15 PDT, 3.17, 560.00
FALO3, 08/30/2026 18:10 PDT, 3.17, 560.00
FALO3, 08/30/2026 18:05 PDT, 3.17, 560.00
FALO3, 08/30/2026 18:00 PDT, 3.17, 560.00
FALO3, 08/30/2026 17:55 PDT, 3.17, 560.00
FALO3, 08/30/2026 17:50 PDT, 3.17, 560.00
FALO3, 08/30/2026 17:45 PDT, 3.17, 560.00
FALO3, 08/30/2026 17:40 PDT, 3.17, 560.00
FALO3, 08/30/2026 17:35 PDT, 3.17, 560.00
FALO3, 08/30/2026 17:30 PDT, 3.17, 560.00
FALO3, 08/30/2026 17:25 PDT, 3.17, 560.00
FALO3, 08/30/2026 17:20 PDT, 3.17, 560.00
FALO3, 08/30/2026 17:15 PDT, 3.17, 560.00
FALO3, 08/30/2026 17:10 PDT, 3.17, 560.00
FALO3, 08/30/2026 17:05 PDT, 3.17, 560.00
FALO3, 08/30/2026 17:00 PDT, 3.17, 560.00
FALO3, 08/30/2026 16:55 PDT, 3.17, 560.00
FALO3, 08/30/2026 16:50 PDT, 3.16, 555.00
FALO3, 08/30/2026 16:45 PDT, 3.16, 555.00
FALO3, 08/30/2026 16:40 PDT, 3.16, 555.00
FALO3, 08/30/2026 16:35 PDT, 3.17, 560.00
FALO3, 08/30/2026 16:30 PDT, 3.16, 555.00
FALO3, 08/30/2026 16:25 PDT, 3.16, 555.00
FALO3, 08/30/2026 16:20 PDT, 3.17, 560.00
FALO3, 08/30/2026 16:15 PDT, 3.17, 560.00
FALO3, 08/30/2026 16:10 PDT, 3.17, 560.00
FALO3, 08/30/2026 16:05 PDT, 3.17, 560.00
FALO3, 08/30/2026 16:00 PDT, 3.17, 560.00
FALO3, 08/30/2026 15:55 PDT, 3.17, 560.00
FALO3, 08/30/2026 15:50 PDT, 3.17, 560.00
FALO3, 08/30/2026 15:45 PDT, 3.17, 560.00
FALO3, 08/30/2026 15:40 PDT, 3.16, 555.00
FALO3, 08/30/2026 15:35 PDT, 3.17, 560.00
FALO3, 08/30/2026 15:30 PDT, 3.17, 560.00
FALO3, 08/30/2026 15:25 PDT, 3.17, 560.00
FALO3, 08/30/2026 15:20 PDT, 3.17, 560.00
FALO3, 08/30/2026 15:15 PDT, 3.17, 560.00
FALO3, 08/30/2026 15:10 PDT, 3.17, 560.00
FALO3, 08/30/2026 15:05 PDT, 3.17, 560.00
FALO3, 08/30/2026 15:00 PDT, 3.17, 560.00
FALO3, 08/30/2026 14:55 PDT, 3.17, 560.00
FALO3, 08/30/2026 14:50 PDT, 3.17, 560.00
FALO3, 08/30/2026 14:45 PDT, 3.17, 560.00
FALO3, 08/30/2026 14:40 PDT, 3.17, 560.00
FALO3, 08/30/2026 14:35 PDT, 3.17, 560.00
FALO3, 08/30/2026 14:30 PDT, 3.17, 560.00
FALO3, 08/30/2026 14:25 PDT, 3.17, 560.00
FALO3, 08/30/2026 14:20 PDT, 3.17, 560.00
FALO3, 08/30/2026 14:15 PDT, 3.17, 560.00
FALO3, 08/30/2026 14:10 PDT, 3.17, 560.00
FALO3, 08/30/2026 14:05 PDT, 3.17, 560.00
FALO3, 08/30/2026 14:00 PDT, 3.16, 555.00
FALO3, 08/30/2026 13:55 PDT, 3.16, 555.00
FALO3, 08/30/2026 13:50 PDT, 3.17, 560.00
FALO3, 08/30/2026 13:45 PDT, 3.17, 560.00
FALO3, 08/30/2026 13:40 PDT, 3.17, 560.00
FALO3, 08/30/2026 13:35 PDT, 3.17, 560.00
FALO3, 08/30/2026 13:30 PDT, 3.17, 560.00
FALO3, 08/30/2026 13:25 PDT, 3.17, 560.00
FALO3, 08/30/2026 13:20 PDT, 3.17, 560.00
FALO3, 08/30/2026 13:15 PDT, 3.17, 560.00
FALO3, 08/30/2026 13:10 PDT, 3.17, 560.00
FALO3, 08/30/2026 13:05 PDT, 3.17, 560.00
FALO3, 08/30/2026 13:00 PDT, 3.18, 565.00
FALO3, 08/30/2026 12:55 PDT, 3.17, 560.00
FALO3, 08/30/2026 12:50 PDT, 3.17, 560.00
FALO3, 08/30/2026 12:45 PDT, 3.17, 560.00
FALO3, 08/30/2026 12:40 PDT, 3.17, 560.00
FALO3, 08/30/2026 12:35 PDT, 3.17, 560.00
FALO3, 08/30/2026 12:30 PDT, 3.17, 560.00
FALO3, 08/30/2026 12:25 PDT, 3.17, 560.00
FALO3, 08/30/2026 12:20 PDT, 3.17, 560.00
FALO3, 08/30/2026 12:15 PDT, 3.17, 560.00
FALO3, 08/30/2026 12:10 PDT, 3.17, 560.00
FALO3, 08/30/2026 12:05 PDT, 3.17, 560.00
FALO3, 08/30/2026 12:00 PDT, 3.17, 560.00
FALO3, 08/30/2026 11:55 PDT, 3.17, 560.00
FALO3, 08/30/2026 11:50 PDT, 3.17, 560.00
FALO3, 08/30/2026 11:45 PDT, 3.17, 560.00
FALO3, 08/30/2026 11:40 PDT, 3.17, 560.00
FALO3, 08/30/2026 11:35 PDT, 3.17, 560.00
FALO3, 08/30/2026 11:30 PDT, 3.17, 560.00
FALO3, 08/30/2026 11:25 PDT, 3.17, 560.00
FALO3, 08/30/2026 11:20 PDT, 3.17, 560.00
FALO3, 08/30/2026 11:15 PDT, 3.17, 560.00
FALO3, 08/30/2026 11:10 PDT, 3.17, 560.00
FALO3, 08/30/2026 11:05 PDT, 3.17, 560.00
FALO3, 08/30/2026 11:00 PDT, 3.17, 560.00
FALO3, 08/30/2026 10:55 PDT, 3.17, 560.00
FALO3, 08/30/2026 10:50 PDT, 3.17, 560.00
FALO3, 08/30/2026 10:45 PDT, 3.17, 560.00
FALO3, 08/30/2026 10:40 PDT, 3.17, 560.00
FALO3, 08/30/2026 10:35 PDT, 3.17, 560.00
FALO3, 08/30/2026 10:30 PDT, 3.17, 560.00
FALO3, 08/30/2026 10:25 PDT, 3.17, 560.00
FALO3, 08/30/2026 10:20 PDT, 3.17, 560.00
FALO3, 08/30/2026 10:15 PDT, 3.17, 560.00
FALO3, 08/30/2026 10:10 PDT, 3.17, 560.00
FALO3, 08/30/2026 10:05 PDT, 3.17, 560.00
FALO3, 08/30/2026 10:00 PDT, 3.17, 560.00
FALO3, 08/30/2026 09:55 PDT, 3.17, 560.00
FALO3, 08/30/2026 09:50 PDT, 3.17, 560.00
FALO3, 08/30/2026 09:45 PDT, 3.17, 560.00
FALO3, 08/30/2026 09:40 PDT, 3.17, 560.00
FALO3, 08/30/2026 09:35 PDT, 3.17, 560.00
FALO3, 08/30/2026 09:30 PDT, 3.17, 560.00
FALO3, 08/30/2026 09:25 PDT, 3.17, 560.00
FALO3, 08/30/2026 09:20 PDT, 3.17, 560.00
FALO3, 08/30/2026 09:15 PDT, 3.17, 560.00
FALO3, 08/30/2026 09:10 PDT, 3.17, 560.00
FALO3, 08/30/2026 09:05 PDT, 3.17, 560.00
FALO3, 08/30/2026 09:00 PDT, 3.17, 560.00
FALO3, 08/30/2026 08:55 PDT, 3.17, 560.00
FALO3, 08/30/2026 08:50 PDT, 3.17, 560.00
FALO3, 08/30/2026 08:45 PDT, 3.17, 560.00
FALO3, 08/30/2026 08:40 PDT, 3.17, 560.00
FALO3, 08/30/2026 08:35 PDT, 3.17, 560.00
FALO3, 08/30/2026 08:30 PDT, 3.17, 560.00
FALO3, 08/30/2026 08:25 PDT, 3.17, 560.00
FALO3, 08/30/2026 08:20 PDT, 3.17, 560.00
FALO3, 08/30/2026 08:15 PDT, 3.17, 560.00
FALO3, 08/30/2026 08:10 PDT, 3.17, 560.00
FALO3, 08/30/2026 08:05 PDT, 3.17, 560.00
FALO3, 08/30/2026 08:00 PDT, 3.17, 560.00
FALO3, 08/30/2026 07:55 PDT, 3.17, 560.00
FALO3, 08/30/2026 07:50 PDT, 3.17, 560.00
FALO3, 08/30/2026 07:45 PDT, 3.17, 560.00
FALO3, 08/30/2026 07:40 PDT, 3.17, 560.00
FALO3, 08/30/2026 07:35 PDT, 3.17, 560.00
FALO3, 08/30/2026 07:30 PDT, 3.17, 560.00
FALO3, 08/30/2026 07:25 PDT, 3.17, 560.00
FALO3, 08/30/2026 07:20 PDT, 3.17, 560.00
FALO3, 08/30/2026 07:15 PDT, 3.17, 560.00
FALO3, 08/30/2026 07:10 PDT, 3.17, 560.00
FALO3, 08/30/2026 07:05 PDT, 3.17, 560.00
FALO3, 08/30/2026 07:00 PDT, 3.17, 560.00
FALO3, 08/30/2026 06:55 PDT, 3.17, 560.00
FALO3, 08/30/2026 06:50 PDT, 3.17, 560.00
FALO3, 08/30/2026 06:45 PDT, 3.17, 560.00
FALO3, 08/30/2026 06:40 PDT, 3.17, 560.00
FALO3, 08/30/2026 06:35 PDT, 3.17, 560.00
FALO3, 08/30/2026 06:30 PDT, 3.17, 560.00
FALO3, 08/30/2026 06:25 PDT, 3.17, 560.00
FALO3, 08/30/2026 06:20 PDT, 3.17, 560.00
FALO3, 08/30/2026 06:15 PDT, 3.17, 560.00
FALO3, 08/30/2026 06:10 PDT, 3.17, 560.00
FALO3, 08/30/2026 06:05 PDT, 3.17, 560.00
FALO3, 08/30/2026 06:00 PDT, 3.17, 560.00
FALO3, 08/30/2026 05:55 PDT, 3.17, 560.00
FALO3, 08/30/2026 05:50 PDT, 3.17, 560.00
FALO3, 08/30/2026 05:45 PDT, 3.17, 560.00
FALO3, 08/30/2026 05:40 PDT, 3.18, 565.00
FALO3, 08/30/2026 05:35 PDT, 3.17, 560.00
FALO3, 08/30/2026 05:30 PDT, 3.17, 560.00
FALO3, 08/30/2026 05:25 PDT, 3.17, 560.00
FALO3, 08/30/2026 05:20 PDT, 3.17, 560.00
FALO3, 08/30/2026 05:15 PDT, 3.17, 560.00
FALO3, 08/30/2026 05:10 PDT, 3.17, 560.00
FALO3, 08/30/2026 05:05 PDT, 3.17, 560.00
FALO3, 08/30/2026 05:00 PDT, 3.17, 560.00
FALO3, 08/30/2026 04:55 PDT, 3.17, 560.00
FALO3, 08/30/2026 04:50 PDT, 3.17, 560.00
FALO3, 08/30/2026 04:45 PDT, 3.17, 560.00
FALO3, 08/30/2026 04:40 PDT, 3.17, 560.00
FALO3, 08/30/2026 04:35 PDT, 3.17, 560.00
FALO3, 08/30/2026 04:30 PDT, 3.17, 560.00
FALO3, 08/30/2026 04:25 PDT, 3.17, 560.00
FALO3, 08/30/2026 04:20 PDT, 3.18, 565.00
FALO3, 08/30/2026 04:15 PDT, 3.17, 560.00
FALO3, 08/30/2026 04:10 PDT, 3.17, 560.00
FALO3, 08/30/2026 04:05 PDT, 3.17, 560.00
FALO3, 08/30/2026 04:00 PDT, 3.17, 560.00
FALO3, 08/30/2026 03:55 PDT, 3.17, 560.00
FALO3, 08/30/2026 03:50 PDT, 3.17, 560.00
FALO3, 08/30/2026 03:45 PDT, 3.17, 560.00
FALO3, 08/30/2026 03:40 PDT, 3.18, 565.00
FALO3, 08/30/2026 03:35 PDT, 3.17, 560.00
FALO3, 08/30/2026 03:30 PDT, 3.17, 560.00
FALO3, 08/30/2026 03:25 PDT, 3.18, 565.00
FALO3, 08/30/2026 03:20 PDT, 3.18, 565.00
FALO3, 08/30/2026 03:15 PDT, 3.18, 565.00
FALO3, 08/30/2026 03:10 PDT, 3.17, 560.00
FALO3, 08/30/2026 03:05 PDT, 3.18, 565.00
FALO3, 08/30/2026 03:00 PDT, 3.17, 560.00
FALO3, 08/30/2026 02:55 PDT, 3.17, 560.00
FALO3, 08/30/2026 02:50 PDT, 3.17, 560.00
FALO3, 08/30/2026 02:45 PDT, 3.17, 560.00
FALO3, 08/30/2026 02:40 PDT, 3.17, 560.00
FALO3, 08/30/2026 02:35 PDT, 3.17, 560.00
FALO3, 08/30/2026 02:30 PDT, 3.17, 560.00
FALO3, 08/30/2026 02:25 PDT, 3.17, 560.00
FALO3, 08/30/2026 02:20 PDT, 3.17, 560.00
FALO3, 08/30/2026 02:15 PDT, 3.17, 560.00
FALO3, 08/30/2026 02:10 PDT, 3.17, 560.00
FALO3, 08/30/2026 02:05 PDT, 3.17, 560.00
FALO3, 08/30/2026 02:00 PDT, 3.17, 560.00
FALO3, 08/30/2026 01:55 PDT, 3.17, 560.00
FALO3, 08/30/2026 01:50 PDT, 3.17, 560.00
FALO3, 08/30/2026 01:45 PDT, 3.18, 565.00
FALO3, 08/30/2026 01:40 PDT, 3.17, 560.00
FALO3, 08/30/2026 01:35 PDT, 3.18, 565.00
FALO3, 08/30/2026 01:30 PDT, 3.17, 560.00
FALO3, 08/30/2026 01:25 PDT, 3.18, 565.00
FALO3, 08/30/2026 01:20 PDT, 3.17, 560.00
FALO3, 08/30/2026 01:15 PDT, 3.17, 560.00
FALO3, 08/30/2026 01:10 PDT, 3.17, 560.00
FALO3, 08/30/2026 01:05 PDT, 3.18, 565.00
FALO3, 08/30/2026 01:00 PDT, 3.17, 560.00
FALO3, 08/30/2026 00:55 PDT, 3.18, 565.00
FALO3, 08/30/2026 00:50 PDT, 3.17, 560.00
FALO3, 08/30/2026 00:45 PDT, 3.17, 560.00
FALO3, 08/30/2026 00:40 PDT, 3.17, 560.00
FALO3, 08/30/2026 00:35 PDT, 3.17, 560.00
FALO3, 08/30/2026 00:30 PDT, 3.17, 560.00
FALO3, 08/30/2026 00:25 PDT, 3.17, 560.00
FALO3, 08/30/2026 00:20 PDT, 3.17, 560.00
FALO3, 08/30/2026 00:15 PDT, 3.17, 560.00
FALO3, 08/30/2026 00:10 PDT, 3.17, 560.00
FALO3, 08/30/2026 00:05 PDT, 3.17, 560.00
FALO3, 08/30/2026 00:00 PDT, 3.17, 560.00
FALO3, 08/29/2026 23:55 PDT, 3.17, 560.00
FALO3, 08/29/2026 23:50 PDT, 3.17, 560.00
FALO3, 08/29/2026 23:45 PDT, 3.17, 560.00
FALO3, 08/29/2026 23:40 PDT, 3.17, 560.00
FALO3, 08/29/2026 23:35 PDT, 3.17, 560.00
FALO3, 08/29/2026 23:30 PDT, 3.17, 560.00
FALO3, 08/29/2026 23:25 PDT, 3.17, 560.00
FALO3, 08/29/2026 23:20 PDT, 3.17, 560.00
FALO3, 08/29/2026 23:15 PDT, 3.18, 565.00
FALO3, 08/29/2026 23:10 PDT, 3.18, 565.00
FALO3, 08/29/2026 23:05 PDT, 3.18, 565.00
FALO3, 08/29/2026 23:00 PDT, 3.17, 560.00
FALO3, 08/29/2026 22:55 PDT, 3.17, 560.00
FALO3, 08/29/2026 22:50 PDT, 3.17, 560.00
FALO3, 08/29/2026 22:45 PDT, 3.17, 560.00
FALO3, 08/29/2026 22:40 PDT, 3.17, 560.00
FALO3, 08/29/2026 22:35 PDT, 3.17, 560.00
FALO3, 08/29/2026 22:30 PDT, 3.17, 560.00
FALO3, 08/29/2026 22:25 PDT, 3.17, 560.00
FALO3, 08/29/2026 22:20 PDT, 3.17, 560.00
FALO3, 08/29/2026 22:15 PDT, 3.18, 565.00
FALO3, 08/29/2026 22:10 PDT, 3.18, 565.00
FALO3, 08/29/2026 22:05 PDT, 3.17, 560.00
FALO3, 08/29/2026 22:00 PDT, 3.18, 565.00
FALO3, 08/29/2026 21:55 PDT, 3.17, 560.00
FALO3, 08/29/2026 21:50 PDT, 3.18, 565.00
FALO3, 08/29/2026 21:45 PDT, 3.17, 560.00
FALO3, 08/29/2026 21:40 PDT, 3.17, 560.00
FALO3, 08/29/2026 21:35 PDT, 3.18, 565.00
FALO3, 08/29/2026 21:30 PDT, 3.17, 560.00
FALO3, 08/29/2026 21:25 PDT, 3.17, 560.00
FALO3, 08/29/2026 21:20 PDT, 3.17, 560.00
FALO3, 08/29/2026 21:15 PDT, 3.18, 565.00
FALO3, 08/29/2026 21:10 PDT, 3.17, 560.00
FALO3, 08/29/2026 21:05 PDT, 3.17, 560.00
FALO3, 08/29/2026 21:00 PDT, 3.18, 565.00
FALO3, 08/29/2026 20:55 PDT, 3.17, 560.00
FALO3, 08/29/2026 20:50 PDT, 3.17, 560.00
FALO3, 08/29/2026 20:45 PDT, 3.17, 560.00
FALO3, 08/29/2026 20:40 PDT, 3.17, 560.00
FALO3, 08/29/2026 20:35 PDT, 3.17, 560.00
FALO3, 08/29/2026 20:30 PDT, 3.17, 560.00
FALO3, 08/29/2026 20:25 PDT, 3.17, 560.00
FALO3, 08/29/2026 20:20 PDT, 3.17, 560.00
FALO3, 08/29/2026 20:15 PDT, 3.17, 560.00
FALO3, 08/29/2026 20:10 PDT, 3.17, 560.00
FALO3, 08/29/2026 20:05 PDT, 3.17, 560.00
FALO3, 08/29/2026 20:00 PDT, 3.17, 560.00
FALO3, 08/29/2026 19:55 PDT, 3.17, 560.00
FALO3, 08/29/2026 19:50 PDT, 3.17, 560.00
FALO3, 08/29/2026 19:45 PDT, 3.17, 560.00
FALO3, 08/29/2026 19:40 PDT, 3.17, 560.00
FALO3, 08/29/2026 19:35 PDT, 3.17, 560.00
FALO3, 08/29/2026 19:30 PDT, 3.17, 560.00
FALO3, 08/29/2026 19:25 PDT, 3.17, 560.00
FALO3, 08/29/2026 19:20 PDT, 3.17, 560.00
FALO3, 08/29/2026 19:15 PDT, 3.17, 560.00
FALO3, 08/29/2026 19:10 PDT, 3.17, 560.00
FALO3, 08/29/2026 19:05 PDT, 3.17, 560.00
FALO3, 08/29/2026 19:00 PDT, 3.17, 560.00
FALO3, 08/29/2026 18:55 PDT, 3.17, 560.00
FALO3, 08/29/2026 18:50 PDT, 3.17, 560.00
FALO3, 08/29/2026 18:45 PDT, 3.17, 560.00
FALO3, 08/29/2026 18:40 PDT, 3.17, 560.00
FALO3, 08/29/2026 18:35 PDT, 3.17, 560.00
FALO3, 08/29/2026 18:30 PDT, 3.17, 560.00
FALO3, 08/29/2026 18:25 PDT, 3.17, 560.00
FALO3, 08/29/2026 18:20 PDT, 3.17, 560.00
FALO3, 08/29/2026 18:15 PDT, 3.17, 560.00
FALO3, 08/29/2026 18:10 PDT, 3.17, 560.00
FALO3, 08/29/2026 18:05 PDT, 3.17, 560.00
FALO3, 08/29/2026 18:00 PDT, 3.18, 565.00
FALO3, 08/29/2026 17:55 PDT, 3.17, 560.00
FALO3, 08/29/2026 17:50 PDT, 3.17, 560.00
FALO3, 08/29/2026 17:45 PDT, 3.17, 560.00
FALO3, 08/29/2026 17:40 PDT, 3.17, 560.00
FALO3, 08/29/2026 17:35 PDT, 3.17, 560.00
FALO3, 08/29/2026 17:30 PDT, 3.17, 560.00
FALO3, 08/29/2026 17:25 PDT, 3.17, 560.00
FALO3, 08/29/2026 17:20 PDT, 3.17, 560.00
FALO3, 08/29/2026 17:15 PDT, 3.17, 560.00
FALO3, 08/29/2026 17:10 PDT, 3.17, 560.00
FALO3, 08/29/2026 17:05 PDT, 3.17, 560.00
FALO3, 08/29/2026 17:00 PDT, 3.17, 560.00
FALO3, 08/29/2026 16:55 PDT, 3.17, 560.00
FALO3, 08/29/2026 16:50 PDT, 3.17, 560.00
FALO3, 08/29/2026 16:45 PDT, 3.17, 560.00
FALO3, 08/29/2026 16:40 PDT, 3.17, 560.00
FALO3, 08/29/2026 16:35 PDT, 3.17, 560.00
FALO3, 08/29/2026 16:30 PDT, 3.17, 560.00
FALO3, 08/29/2026 16:25 PDT, 3.17, 560.00
FALO3, 08/29/2026 16:20 PDT, 3.17, 560.00
FALO3, 08/29/2026 16:15 PDT, 3.17, 560.00
FALO3, 08/29/2026 16:10 PDT, 3.17, 560.00
FALO3, 08/29/2026 16:05 PDT, 3.18, 565.00
FALO3, 08/29/2026 16:00 PDT, 3.17, 560.00
FALO3, 08/29/2026 15:55 PDT, 3.17, 560.00
FALO3, 08/29/2026 15:50 PDT, 3.18, 565.00
FALO3, 08/29/2026 15:45 PDT, 3.17, 560.00
FALO3, 08/29/2026 15:40 PDT, 3.17, 560.00
FALO3, 08/29/2026 15:35 PDT, 3.17, 560.00
FALO3, 08/29/2026 15:30 PDT, 3.17, 560.00
FALO3, 08/29/2026 15:25 PDT, 3.17, 560.00
FALO3, 08/29/2026 15:20 PDT, 3.17, 560.00
FALO3, 08/29/2026 15:15 PDT, 3.17, 560.00
FALO3, 08/29/2026 15:10 PDT, 3.18, 565.00
FALO3, 08/29/2026 15:05 PDT, 3.17, 560.00
FALO3, 08/29/2026 15:00 PDT, 3.17, 560.00
FALO3, 08/29/2026 14:55 PDT, 3.18, 565.00
FALO3, 08/29/2026 14:50 PDT, 3.18, 565.00
FALO3, 08/29/2026 14:45 PDT, 3.17, 560.00
FALO3, 08/29/2026 14:40 PDT, 3.17, 560.00
FALO3, 08/29/2026 14:35 PDT, 3.17, 560.00
FALO3, 08/29/2026 14:30 PDT, 3.17, 560.00
FALO3, 08/29/2026 14:25 PDT, 3.17, 560.00
FALO3, 08/29/2026 14:20 PDT, 3.17, 560.00
FALO3, 08/29/2026 14:15 PDT, 3.18, 565.00
FALO3, 08/29/2026 14:10 PDT, 3.17, 560.00
FALO3, 08/29/2026 14:05 PDT, 3.17, 560.00
FALO3, 08/29/2026 14:00 PDT, 3.18, 565.00
FALO3, 08/29/2026 13:55 PDT, 3.17, 560.00
FALO3, 08/29/2026 13:50 PDT, 3.18, 565.00
FALO3, 08/29/2026 13:45 PDT, 3.17, 560.00
FALO3, 08/29/2026 13:40 PDT, 3.18, 565.00
FALO3, 08/29/2026 13:35 PDT, 3.17, 560.00
FALO3, 08/29/2026 13:30 PDT, 3.18, 565.00
FALO3, 08/29/2026 13:25 PDT, 3.18, 565.00
FALO3, 08/29/2026 13:20 PDT, 3.17, 560.00
FALO3, 08/29/2026 13:15 PDT, 3.18, 565.00
FALO3, 08/29/2026 13:10 PDT, 3.18, 565.00
FALO3, 08/29/2026 13:05 PDT, 3.18, 565.00
FALO3, 08/29/2026 13:00 PDT, 3.18, 565.00
FALO3, 08/29/2026 12:55 PDT, 3.18, 565.00
FALO3, 08/29/2026 12:50 PDT, 3.18, 565.00
FALO3, 08/29/2026 12:45 PDT, 3.18, 565.00
FALO3, 08/29/2026 12:40 PDT, 3.17, 560.00
FALO3, 08/29/2026 12:35 PDT, 3.18, 565.00
FALO3, 08/29/2026 12:30 PDT, 3.18, 565.00
FALO3, 08/29/2026 12:25 PDT, 3.17, 560.00
FALO3, 08/29/2026 12:20 PDT, 3.17, 560.00
FALO3, 08/29/2026 12:15 PDT, 3.18, 565.00
FALO3, 08/29/2026 12:10 PDT, 3.17, 560.00
FALO3, 08/29/2026 12:05 PDT, 3.18, 565.00
FALO3, 08/29/2026 12:00 PDT, 3.18, 565.00
FALO3, 08/29/2026 11:55 PDT, 3.17, 560.00
FALO3, 08/29/2026 11:50 PDT, 3.17, 560.00
FALO3, 08/29/2026 11:45 PDT, 3.17, 560.00
FALO3, 08/29/2026 11:40 PDT, 3.18, 565.00
FALO3, 08/29/2026 11:35 PDT, 3.17, 560.00
FALO3, 08/29/2026 11:30 PDT, 3.17, 560.00
FALO3, 08/29/2026 11:25 PDT, 3.17, 560.00
FALO3, 08/29/2026 11:20 PDT, 3.17, 560.00
FALO3, 08/29/2026 11:15 PDT, 3.18, 565.00
FALO3, 08/29/2026 11:10 PDT, 3.17, 560.00
FALO3, 08/29/2026 11:05 PDT, 3.17, 560.00
FALO3, 08/29/2026 11:00 PDT, 3.17, 560.00
FALO3, 08/29/2026 10:55 PDT, 3.18, 565.00
FALO3, 08/29/2026 10:50 PDT, 3.18, 565.00
FALO3, 08/29/2026 10:45 PDT, 3.17, 560.00
FALO3, 08/29/2026 10:40 PDT, 3.17, 560.00
FALO3, 08/29/2026 10:35 PDT, 3.17, 560.00
FALO3, 08/29/2026 10:30 PDT, 3.17, 560.00
FALO3, 08/29/2026 10:25 PDT, 3.17, 560.00
FALO3, 08/29/2026 10:20 PDT, 3.17, 560.00
FALO3, 08/29/2026 10:15 PDT, 3.17, 560.00
FALO3, 08/29/2026 10:10 PDT, 3.17, 560.00
FALO3, 08/29/2026 10:05 PDT, 3.18, 565.00
FALO3, 08/29/2026 10:00 PDT, 3.18, 565.00
FALO3, 08/29/2026 09:55 PDT, 3.17, 560.00
FALO3, 08/29/2026 09:50 PDT, 3.18, 565.00
FALO3, 08/29/2026 09:45 PDT, 3.18, 565.00
FALO3, 08/29/2026 09:40 PDT, 3.18, 565.00
FALO3, 08/29/2026 09:35 PDT, 3.18, 565.00
FALO3, 08/29/2026 09:30 PDT, 3.18, 565.00
FALO3, 08/29/2026 09:25 PDT, 3.18, 565.00
FALO3, 08/29/2026 09:20 PDT, 3.18, 565.00
FALO3, 08/29/2026 09:15 PDT, 3.18, 565.00
FALO3, 08/29/2026 09:10 PDT, 3.17, 560.00
FALO3, 08/29/2026 09:05 PDT, 3.18, 565.00
FALO3, 08/29/2026 09:00 PDT, 3.17, 560.00
FALO3, 08/29/2026 08:55 PDT, 3.18, 565.00
FALO3, 08/29/2026 08:50 PDT, 3.18, 565.00
FALO3, 08/29/2026 08:45 PDT, 3.18, 565.00
FALO3, 08/29/2026 08:40 PDT, 3.18, 565.00
FALO3, 08/29/2026 08:35 PDT, 3.17, 560.00
FALO3, 08/29/2026 08:30 PDT, 3.17, 560.00
FALO3, 08/29/2026 08:25 PDT, 3.18, 565.00
FALO3, 08/29/2026 08:20 PDT, 3.18, 565.00
FALO3, 08/29/2026 08:15 PDT, 3.17, 560.00
FALO3, 08/29/2026 08:10 PDT, 3.18, 565.00
FALO3, 08/29/2026 08:05 PDT, 3.18, 565.00
FALO3, 08/29/2026 08:00 PDT, 3.18, 565.00
FALO3, 08/29/2026 07:55 PDT, 3.18, 565.00
FALO3, 08/29/2026 07:50 PDT, 3.18, 565.00
FALO3, 08/29/2026 07:45 PDT, 3.17, 560.00
FALO3, 08/29/2026 07:40 PDT, 3.18, 565.00
FALO3, 08/29/2026 07:35 PDT, 3.18, 565.00
FALO3, 08/29/2026 07:30 PDT, 3.18, 565.00
FALO3, 08/29/2026 07:25 PDT, 3.18, 565.00
FALO3, 08/29/2026 07:20 PDT, 3.18, 565.00
FALO3, 08/29/2026 07:15 PDT, 3.18, 565.00
FALO3, 08/29/2026 07:10 PDT, 3.18, 565.00
FALO3, 08/29/2026 07:05 PDT, 3.18, 565.00
FALO3, 08/29/2026 07:00 PDT, 3.18, 565.00
FALO3, 08/29/2026 06:55 PDT, 3.17, 560.00
FALO3, 08/29/2026 06:50 PDT, 3.18, 565.00
FALO3, 08/29/2026 06:45 PDT, 3.17, 560.00
FALO3, 08/29/2026 06:40 PDT, 3.18, 565.00
FALO3, 08/29/2026 06:35 PDT, 3.18, 565.00
FALO3, 08/29/2026 06:30 PDT, 3.18, 565.00
FALO3, 08/29/2026 06:25 PDT, 3.18, 565.00
FALO3, 08/29/2026 06:20 PDT, 3.17, 560.00
FALO3, 08/29/2026 06:15 PDT, 3.18, 565.00
FALO3, 08/29/2026 06:10 PDT, 3.18, 565.00
FALO3, 08/29/2026 06:05 PDT, 3.18, 565.00
FALO3, 08/29/2026 06:00 PDT, 3.18, 565.00
FALO3, 08/29/2026 05:55 PDT, 3.17, 560.00
FALO3, 08/29/2026 05:50 PDT, 3.18, 565.00
FALO3, 08/29/2026 05:45 PDT, 3.18, 565.00
FALO3, 08/29/2026 05:40 PDT, 3.18, 565.00
FALO3, 08/29/2026 05:35 PDT, 3.18, 565.00
FALO3, 08/29/2026 05:30 PDT, 3.18, 565.00
FALO3, 08/29/2026 05:25 PDT, 3.17, 560.00
FALO3, 08/29/2026 05:20 PDT, 3.18, 565.00
FALO3, 08/29/2026 05:15 PDT, 3.18, 565.00
FALO3, 08/29/2026 05:10 PDT, 3.18, 565.00
FALO3, 08/29/2026 05:05 PDT, 3.18, 565.00
FALO3, 08/29/2026 05:00 PDT, 3.18, 565.00
FALO3, 08/29/2026 04:55 PDT, 3.18, 565.00
FALO3, 08/29/2026 04:50 PDT, 3.18, 565.00
FALO3, 08/29/2026 04:45 PDT, 3.18, 565.00
FALO3, 08/29/2026 04:40 PDT, 3.18, 565.00
FALO3, 08/29/2026 04:35 PDT, 3.18, 565.00
FALO3, 08/29/2026 04:30 PDT, 3.18, 565.00
FALO3, 08/29/2026 04:25 PDT, 3.18, 565.00
FALO3, 08/29/2026 04:20 PDT, 3.18, 565.00
FALO3, 08/29/2026 04:15 PDT, 3.17, 560.00
FALO3, 08/29/2026 04:10 PDT, 3.18, 565.00
FALO3, 08/29/2026 04:05 PDT, 3.18, 565.00
FALO3, 08/29/2026 04:00 PDT, 3.18, 565.00
FALO3, 08/29/2026 03:55 PDT, 3.18, 565.00
FALO3, 08/29/2026 03:50 PDT, 3.18, 565.00
FALO3, 08/29/2026 03:45 PDT, 3.17, 560.00
FALO3, 08/29/2026 03:40 PDT, 3.17, 560.00
FALO3, 08/29/2026 03:35 PDT, 3.18, 565.00
FALO3, 08/29/2026 03:30 PDT, 3.18, 565.00
FALO3, 08/29/2026 03:25 PDT, 3.17, 560.00
FALO3, 08/29/2026 03:20 PDT, 3.18, 565.00
FALO3, 08/29/2026 03:15 PDT, 3.18, 565.00
FALO3, 08/29/2026 03:10 PDT, 3.18, 565.00
FALO3, 08/29/2026 03:05 PDT, 3.18, 565.00
FALO3, 08/29/2026 03:00 PDT, 3.18, 565.00
FALO3, 08/29/2026 02:55 PDT, 3.18, 565.00
FALO3, 08/29/2026 02:50 PDT, 3.18, 565.00
FALO3, 08/29/2026 02:45 PDT, 3.19, 570.00
FALO3, 08/29/2026 02:40 PDT, 3.18, 565.00
FALO3, 08/29/2026 02:35 PDT, 3.18, 565.00
FALO3, 08/29/2026 02:30 PDT, 3.18, 565.00
FALO3, 08/29/2026 02:25 PDT, 3.18, 565.00
FALO3, 08/29/2026 02:20 PDT, 3.18, 565.00
FALO3, 08/29/2026 02:15 PDT, 3.18, 565.00
FALO3, 08/29/2026 02:10 PDT, 3.18, 565.00
FALO3, 08/29/2026 02:05 PDT, 3.18, 565.00
FALO3, 08/29/2026 02:00 PDT, 3.18, 565.00
FALO3, 08/29/2026 01:55 PDT, 3.18, 565.00
FALO3, 08/29/2026 01:50 PDT, 3.18, 565.00
FALO3, 08/29/2026 01:45 PDT, 3.18, 565.00
FALO3, 08/29/2026 01:40 PDT, 3.18, 565.00
FALO3, 08/29/2026 01:35 PDT, 3.18, 565.00
FALO3, 08/29/2026 01:30 PDT, 3.18, 565.00
FALO3, 08/29/2026 01:25 PDT, 3.18, 565.00
FALO3, 08/29/2026 01:20 PDT, 3.18, 565.00
FALO3, 08/29/2026 01:15 PDT, 3.18, 565.00
FALO3, 08/29/2026 01:10 PDT, 3.18, 565.00
FALO3, 08/29/2026 01:05 PDT, 3.18, 565.00
FALO3, 08/29/2026 01:00 PDT, 3.18, 565.00
FALO3, 08/29/2026 00:55 PDT, 3.18, 565.00
FALO3, 08/29/2026 00:50 PDT, 3.18, 565.00
FALO3, 08/29/2026 00:45 PDT, 3.17, 560.00
FALO3, 08/29/2026 00:40 PDT, 3.18, 565.00
FALO3, 08/29/2026 00:35 PDT, 3.18, 565.00
FALO3, 08/29/2026 00:30 PDT, 3.18, 565.00
FALO3, 08/29/2026 00:25 PDT, 3.18, 565.00
FALO3, 08/29/2026 00:20 PDT, 3.18, 565.00
FALO3, 08/29/2026 00:15 PDT, 3.18, 565.00
FALO3, 08/29/2026 00:10 PDT, 3.18, 565.00
FALO3, 08/29/2026 00:05 PDT, 3.18, 565.00
FALO3, 08/29/2026 00:00 PDT, 3.18, 565.00
FALO3, 08/28/2026 23:55 PDT, 3.18, 565.00
FALO3, 08/28/2026 23:50 PDT, 3.18, 565.00
FALO3, 08/28/2026 23:45 PDT, 3.18, 565.00
FALO3, 08/28/2026 23:40 PDT, 3.18, 565.00
FALO3, 08/28/2026 23:35 PDT, 3.18, 565.00
FALO3, 08/28/2026 23:30 PDT, 3.17, 560.00
FALO3, 08/28/2026 23:25 PDT, 3.17, 560.00
FALO3, 08/28/2026 23:20 PDT, 3.18, 565.00
FALO3, 08/28/2026 23:15 PDT, 3.18, 565.00
FALO3, 08/28/2026 23:10 PDT, 3.18, 565.00
FALO3, 08/28/2026 23:05 PDT, 3.18, 565.00
FALO3, 08/28/2026 23:00 PDT, 3.18, 565.00
FALO3, 08/28/2026 22:55 PDT, 3.18, 565.00
FALO3, 08/28/2026 22:50 PDT, 3.18, 565.00
FALO3, 08/28/2026 22:45 PDT, 3.18, 565.00
FALO3, 08/28/2026 22:40 PDT, 3.18, 565.00
FALO3, 08/28/2026 22:35 PDT, 3.18, 565.00
FALO3, 08/28/2026 22:30 PDT, 3.18, 565.00
FALO3, 08/28/2026 22:25 PDT, 3.18, 565.00
FALO3, 08/28/2026 22:20 PDT, 3.18, 565.00
FALO3, 08/28/2026 22:15 PDT, 3.18, 565.00
FALO3, 08/28/2026 22:10 PDT, 3.18, 565.00
FALO3, 08/28/2026 22:05 PDT, 3.18, 565.00
FALO3, 08/28/2026 22:00 PDT, 3.18, 565.00
FALO3, 08/28/2026 21:55 PDT, 3.18, 565.00
FALO3, 08/28/2026 21:50 PDT, 3.18, 565.00
FALO3, 08/28/2026 21:45 PDT, 3.18, 565.00
FALO3, 08/28/2026 21:40 PDT, 3.18, 565.00
FALO3, 08/28/2026 21:35 PDT, 3.17, 560.00
FALO3, 08/28/2026 21:30 PDT, 3.18, 565.00
FALO3, 08/28/2026 21:25 PDT, 3.18, 565.00
FALO3, 08/28/2026 21:20 PDT, 3.18, 565.00
FALO3, 08/28/2026 21:15 PDT, 3.18, 565.00
FALO3, 08/28/2026 21:10 PDT, 3.18, 565.00
FALO3, 08/28/2026 21:05 PDT, 3.18, 565.00
FALO3, 08/28/2026 21:00 PDT, 3.18, 565.00
FALO3, 08/28/2026 20:55 PDT, 3.18, 565.00
FALO3, 08/28/2026 20:50 PDT, 3.18, 565.00
FALO3, 08/28/2026 20:45 PDT, 3.18, 565.00
FALO3, 08/28/2026 20:40 PDT, 3.18, 565.00
FALO3, 08/28/2026 20:35 PDT, 3.17, 560.00
FALO3, 08/28/2026 20:30 PDT, 3.17, 560.00
FALO3, 08/28/2026 20:25 PDT, 3.18, 565.00
FALO3, 08/28/2026 20:20 PDT, 3.18, 565.00
FALO3, 08/28/2026 20:15 PDT, 3.18, 565.00
FALO3, 08/28/2026 20:10 PDT, 3.18, 565.00
FALO3, 08/28/2026 20:05 PDT, 3.18, 565.00
FALO3, 08/28/2026 20:00 PDT, 3.18, 565.00
FALO3, 08/28/2026 19:55 PDT, 3.18, 565.00
FALO3, 08/28/2026 19:50 PDT, 3.18, 565.00
FALO3, 08/28/2026 19:45 PDT, 3.18, 565.00
FALO3, 08/28/2026 19:40 PDT, 3.18, 565.00
FALO3, 08/28/2026 19:35 PDT, 3.18, 565.00
FALO3, 08/28/2026 19:30 PDT, 3.18, 565.00
FALO3, 08/28/2026 19:25 PDT, 3.18, 565.00
FALO3, 08/28/2026 19:20 PDT, 3.18, 565.00
FALO3, 08/28/2026 19:15 PDT, 3.18, 565.00
FALO3, 08/28/2026 19:10 PDT, 3.18, 565.00
FALO3, 08/28/2026 19:05 PDT, 3.18, 565.00
FALO3, 08/28/2026 19:00 PDT, 3.18, 565.00
FALO3, 08/28/2026 18:55 PDT, 3.18, 565.00
FALO3, 08/28/2026 18:50 PDT, 3.18, 565.00
FALO3, 08/28/2026 18:45 PDT, 3.18, 565.00
FALO3, 08/28/2026 18:40 PDT, 3.18, 565.00
FALO3, 08/28/2026 18:35 PDT, 3.18, 565.00
FALO3, 08/28/2026 18:30 PDT, 3.17, 560.00
FALO3, 08/28/2026 18:25 PDT, 3.17, 560.00
FALO3, 08/28/2026 18:20 PDT, 3.17, 560.00
FALO3, 08/28/2026 18:15 PDT, 3.17, 560.00
FALO3, 08/28/2026 18:10 PDT, 3.17, 560.00
FALO3, 08/28/2026 18:05 PDT, 3.17, 560.00
FALO3, 08/28/2026 18:00 PDT, 3.17, 560.00
FALO3, 08/28/2026 17:55 PDT, 3.18, 565.00
FALO3, 08/28/2026 17:50 PDT, 3.18, 565.00
FALO3, 08/28/2026 17:45 PDT, 3.17, 560.00
FALO3, 08/28/2026 17:40 PDT, 3.18, 565.00
FALO3, 08/28/2026 17:35 PDT, 3.18, 565.00
FALO3, 08/28/2026 17:30 PDT, 3.18, 565.00
FALO3, 08/28/2026 17:25 PDT, 3.18, 565.00
FALO3, 08/28/2026 17:20 PDT, 3.18, 565.00
FALO3, 08/28/2026 17:15 PDT, 3.18, 565.00
FALO3, 08/28/2026 17:10 PDT, 3.18, 565.00
FALO3, 08/28/2026 17:05 PDT, 3.18, 565.00
FALO3, 08/28/2026 17:00 PDT, 3.17, 560.00
FALO3, 08/28/2026 16:55 PDT, 3.17, 560.00
FALO3, 08/28/2026 16:50 PDT, 3.18, 565.00
FALO3, 08/28/2026 16:45 PDT, 3.17, 560.00
FALO3, 08/28/2026 16:40 PDT, 3.18, 565.00
FALO3, 08/28/2026 16:35 PDT, 3.17, 560.00
FALO3, 08/28/2026 16:30 PDT, 3.18, 565.00
FALO3, 08/28/2026 16:25 PDT, 3.18, 565.00
FALO3, 08/28/2026 16:20 PDT, 3.18, 565.00
FALO3, 08/28/2026 16:15 PDT, 3.18, 565.00
FALO3, 08/28/2026 16:10 PDT, 3.17, 560.00
FALO3, 08/28/2026 16:05 PDT, 3.17, 560.00
FALO3, 08/28/2026 16:00 PDT, 3.17, 560.00
FALO3, 08/28/2026 15:55 PDT, 3.18, 565.00
FALO3, 08/28/2026 15:50 PDT, 3.18, 565.00
FALO3, 08/28/2026 15:45 PDT, 3.18, 565.00
FALO3, 08/28/2026 15:40 PDT, 3.17, 560.00
FALO3, 08/28/2026 15:35 PDT, 3.17, 560.00
FALO3, 08/28/2026 15:30 PDT, 3.18, 565.00
FALO3, 08/28/2026 15:25 PDT, 3.17, 560.00
FALO3, 08/28/2026 15:20 PDT, 3.18, 565.00
FALO3, 08/28/2026 15:15 PDT, 3.18, 565.00
FALO3, 08/28/2026 15:10 PDT, 3.18, 565.00
FALO3, 08/28/2026 15:05 PDT, 3.17, 560.00
FALO3, 08/28/2026 15:00 PDT, 3.18, 565.00
FALO3, 08/28/2026 14:55 PDT, 3.18, 565.00
FALO3, 08/28/2026 14:50 PDT, 3.17, 560.00
FALO3, 08/28/2026 14:45 PDT, 3.18, 565.00
FALO3, 08/28/2026 14:40 PDT, 3.18, 565.00
FALO3, 08/28/2026 14:35 PDT, 3.18, 565.00
FALO3, 08/28/2026 14:30 PDT, 3.18, 565.00
FALO3, 08/28/2026 14:25 PDT, 3.18, 565.00
FALO3, 08/28/2026 14:20 PDT, 3.18, 565.00
FALO3, 08/28/2026 14:15 PDT, 3.18, 565.00
FALO3, 08/28/2026 14:10 PDT, 3.18, 565.00
FALO3, 08/28/2026 14:05 PDT, 3.18, 565.00
FALO3, 08/28/2026 14:00 PDT, 3.18, 565.00
FALO3, 08/28/2026 13:55 PDT, 3.18, 565.00
FALO3, 08/28/2026 13:50 PDT, 3.18, 565.00
FALO3, 08/28/2026 13:45 PDT, 3.18, 565.00
FALO3, 08/28/2026 13:40 PDT, 3.18, 565.00
FALO3, 08/28/2026 13:35 PDT, 3.18, 565.00
FALO3, 08/28/2026 13:30 PDT, 3.18, 565.00
FALO3, 08/28/2026 13:25 PDT, 3.18, 565.00
FALO3, 08/28/2026 13:20 PDT, 3.18, 565.00
FALO3, 08/28/2026 13:15 PDT, 3.17, 560.00
FALO3, 08/28/2026 13:10 PDT, 3.17, 560.00
FALO3, 08/28/2026 13:05 PDT, 3.18, 565.00
FALO3, 08/28/2026 13:00 PDT, 3.18, 565.00
FALO3, 08/28/2026 12:55 PDT, 3.18, 565.00
FALO3, 08/28/2026 12:50 PDT, 3.18, 565.00
FALO3, 08/28/2026 12:45 PDT, 3.18, 565.00
FALO3, 08/28/2026 12:40 PDT, 3.18, 565.00
FALO3, 08/28/2026 12:35 PDT, 3.18, 565.00
FALO3, 08/28/2026 12:30 PDT, 3.18, 565.00
FALO3, 08/28/2026 12:25 PDT, 3.18, 565.00
FALO3, 08/28/2026 12:20 PDT, 3.18, 565.00
FALO3, 08/28/2026 12:15 PDT, 3.18, 565.00
FALO3, 08/28/2026 12:10 PDT, 3.18, 565.00
FALO3, 08/28/2026 12:05 PDT, 3.18, 565.00
FALO3, 08/28/2026 12:00 PDT, 3.18, 565.00
FALO3, 08/28/2026 11:55 PDT, 3.18, 565.00
FALO3, 08/28/2026 11:50 PDT, 3.18, 565.00
FALO3, 08/28/2026 11:45 PDT, 3.18, 565.00
FALO3, 08/28/2026 11:40 PDT, 3.18, 565.00
FALO3, 08/28/2026 11:35 PDT, 3.18, 565.00
FALO3, 08/28/2026 11:30 PDT, 3.18, 565.00
FALO3, 08/28/2026 11:25 PDT, 3.18, 565.00
FALO3, 08/28/2026 11:20 PDT, 3.18, 565.00
FALO3, 08/28/2026 11:15 PDT, 3.18, 565.00
FALO3, 08/28/2026 11:10 PDT, 3.18, 565.00
FALO3, 08/28/2026 11:05 PDT, 3.18, 565.00
FALO3, 08/28/2026 11:00 PDT, 3.18, 565.00
FALO3, 08/28/2026 10:55 PDT, 3.18, 565.00
FALO3, 08/28/2026 10:50 PDT, 3.18, 565.00
FALO3, 08/28/2026 10:45 PDT, 3.18, 565.00
FALO3, 08/28/2026 10:40 PDT, 3.18, 565.00
FALO3, 08/28/2026 10:35 PDT, 3.18, 565.00
FALO3, 08/28/2026 10:30 PDT, 3.18, 565.00
FALO3, 08/28/2026 10:25 PDT, 3.18, 565.00
FALO3, 08/28/2026 10:20 PDT, 3.18, 565.00
FALO3, 08/28/2026 10:15 PDT, 3.18, 565.00
FALO3, 08/28/2026 10:10 PDT, 3.18, 565.00
FALO3, 08/28/2026 10:05 PDT, 3.18, 565.00
FALO3, 08/28/2026 10:00 PDT, 3.18, 565.00
FALO3, 08/28/2026 09:55 PDT, 3.18, 565.00
FALO3, 08/28/2026 09:50 PDT, 3.18, 565.00
FALO3, 08/28/2026 09:45 PDT, 3.18, 565.00
FALO3, 08/28/2026 09:40 PDT, 3.18, 565.00
FALO3, 08/28/2026 09:35 PDT, 3.18, 565.00
FALO3, 08/28/2026 09:30 PDT, 3.18, 565.00
FALO3, 08/28/2026 09:25 PDT, 3.18, 565.00
FALO3, 08/28/2026 09:20 PDT, 3.18, 565.00
FALO3, 08/28/2026 09:15 PDT, 3.18, 565.00
FALO3, 08/28/2026 09:10 PDT, 3.18, 565.00
FALO3, 08/28/2026 09:05 PDT, 3.18, 565.00
FALO3, 08/28/2026 09:00 PDT, 3.18, 565.00
FALO3, 08/28/2026 08:55 PDT, 3.18, 565.00
FALO3, 08/28/2026 08:50 PDT, 3.18, 565.00
FALO3, 08/28/2026 08:45 PDT, 3.18, 565.00
FALO3, 08/28/2026 08:40 PDT, 3.18, 565.00
FALO3, 08/28/2026 08:35 PDT, 3.18, 565.00
FALO3, 08/28/2026 08:20 PDT, 3.18, 565.00
FALO3, 08/28/2026 08:15 PDT, 3.18, 565.00
FALO3, 08/28/2026 08:10 PDT, 3.18, 565.00
FALO3, 08/28/2026 08:05 PDT, 3.18, 565.00
FALO3, 08/28/2026 08:00 PDT, 3.18, 565.00
FALO3, 08/28/2026 07:55 PDT, 3.18, 565.00
FALO3, 08/28/2026 07:50 PDT, 3.18, 565.00
FALO3, 08/28/2026 07:45 PDT, 3.18, 565.00
FALO3, 08/28/2026 07:40 PDT, 3.18, 565.00
FALO3, 08/28/2026 07:35 PDT, 3.18, 565.00
FALO3, 08/28/2026 07:30 PDT, 3.18, 565.00
FALO3, 08/28/2026 07:25 PDT, 3.18, 565.00
FALO3, 08/28/2026 07:20 PDT, 3.18, 565.00
FALO3, 08/28/2026 07:15 PDT, 3.18, 565.00
FALO3, 08/28/2026 07:10 PDT, 3.17, 560.00
FALO3, 08/28/2026 07:05 PDT, 3.18, 565.00
FALO3, 08/28/2026 07:00 PDT, 3.18, 565.00
FALO3, 08/28/2026 06:55 PDT, 3.18, 565.00
FALO3, 08/28/2026 06:50 PDT, 3.18, 565.00
FALO3, 08/28/2026 06:45 PDT, 3.19, 570.00
FALO3, 08/28/2026 06:40 PDT, 3.18, 565.00
FALO3, 08/28/2026 06:35 PDT, 3.18, 565.00
FALO3, 08/28/2026 06:30 PDT, 3.18, 565.00
FALO3, 08/28/2026 06:25 PDT, 3.18, 565.00
FALO3, 08/28/2026 06:20 PDT, 3.18, 565.00
FALO3, 08/28/2026 06:15 PDT, 3.18, 565.00
FALO3, 08/28/2026 06:10 PDT, 3.18, 565.00
FALO3, 08/28/2026 06:05 PDT, 3.18, 565.00
FALO3, 08/28/2026 06:00 PDT, 3.18, 565.00
FALO3, 08/28/2026 05:55 PDT, 3.18, 565.00
FALO3, 08/28/2026 05:50 PDT, 3.18, 565.00
FALO3, 08/28/2026 05:45 PDT, 3.18, 565.00
FALO3, 08/28/2026 05:40 PDT, 3.18, 565.00
FALO3, 08/28/2026 05:35 PDT, 3.18, 565.00
FALO3, 08/28/2026 05:30 PDT, 3.19, 570.00
FALO3, 08/28/2026 05:25 PDT, 3.18, 565.00
FALO3, 08/28/2026 05:20 PDT, 3.18, 565.00
FALO3, 08/28/2026 05:15 PDT, 3.18, 565.00
FALO3, 08/28/2026 05:10 PDT, 3.18, 565.00
FALO3, 08/28/2026 05:05 PDT, 3.18, 565.00
FALO3, 08/28/2026 05:00 PDT, 3.18, 565.00
FALO3, 08/28/2026 04:55 PDT, 3.18, 565.00
FALO3, 08/28/2026 04:50 PDT, 3.18, 565.00
FALO3, 08/28/2026 04:45 PDT, 3.18, 565.00
FALO3, 08/28/2026 04:40 PDT, 3.18, 565.00
FALO3, 08/28/2026 04:35 PDT, 3.18, 565.00
FALO3, 08/28/2026 04:30 PDT, 3.18, 565.00
FALO3, 08/28/2026 04:25 PDT, 3.18, 565.00
FALO3, 08/28/2026 04:20 PDT, 3.18, 565.00
FALO3, 08/28/2026 04:15 PDT, 3.18, 565.00
FALO3, 08/28/2026 04:10 PDT, 3.18, 565.00
FALO3, 08/28/2026 04:05 PDT, 3.18, 565.00
FALO3, 08/28/2026 04:00 PDT, 3.19, 570.00
FALO3, 08/28/2026 03:55 PDT, 3.18, 565.00
FALO3, 08/28/2026 03:50 PDT, 3.18, 565.00
FALO3, 08/28/2026 03:45 PDT, 3.18, 565.00
FALO3, 08/28/2026 03:40 PDT, 3.18, 565.00
FALO3, 08/28/2026 03:35 PDT, 3.18, 565.00
FALO3, 08/28/2026 03:30 PDT, 3.18, 565.00
FALO3, 08/28/2026 03:25 PDT, 3.18, 565.00
FALO3, 08/28/2026 03:20 PDT, 3.18, 565.00
FALO3, 08/28/2026 03:15 PDT, 3.19, 570.00
FALO3, 08/28/2026 03:10 PDT, 3.18, 565.00
FALO3, 08/28/2026 03:05 PDT, 3.18, 565.00
FALO3, 08/28/2026 03:00 PDT, 3.18, 565.00
FALO3, 08/28/2026 02:55 PDT, 3.18, 565.00
FALO3, 08/28/2026 02:50 PDT, 3.18, 565.00
FALO3, 08/28/2026 02:45 PDT, 3.18, 565.00
FALO3, 08/28/2026 02:40 PDT, 3.18, 565.00
FALO3, 08/28/2026 02:35 PDT, 3.18, 565.00
FALO3, 08/28/2026 02:30 PDT, 3.19, 570.00
FALO3, 08/28/2026 02:25 PDT, 3.18, 565.00
FALO3, 08/28/2026 02:20 PDT, 3.18, 565.00
FALO3, 08/28/2026 02:15 PDT, 3.19, 570.00
FALO3, 08/28/2026 02:10 PDT, 3.18, 565.00
FALO3, 08/28/2026 02:05 PDT, 3.19, 570.00
FALO3, 08/28/2026 02:00 PDT, 3.19, 570.00
FALO3, 08/28/2026 01:55 PDT, 3.19, 570.00
FALO3, 08/28/2026 01:50 PDT, 3.18, 565.00
FALO3, 08/28/2026 01:45 PDT, 3.18, 565.00
FALO3, 08/28/2026 01:40 PDT, 3.19, 570.00
FALO3, 08/28/2026 01:35 PDT, 3.19, 570.00
FALO3, 08/28/2026 01:30 PDT, 3.18, 565.00
FALO3, 08/28/2026 01:25 PDT, 3.18, 565.00
FALO3, 08/28/2026 01:20 PDT, 3.18, 565.00
FALO3, 08/28/2026 01:15 PDT, 3.18, 565.00
FALO3, 08/28/2026 01:10 PDT, 3.18, 565.00
FALO3, 08/28/2026 01:05 PDT, 3.18, 565.00
FALO3, 08/28/2026 01:00 PDT, 3.18, 565.00
FALO3, 08/28/2026 00:55 PDT, 3.19, 570.00
FALO3, 08/28/2026 00:50 PDT, 3.18, 565.00
FALO3, 08/28/2026 00:45 PDT, 3.19, 570.00
FALO3, 08/28/2026 00:40 PDT, 3.19, 570.00
FALO3, 08/28/2026 00:35 PDT, 3.19, 570.00
FALO3, 08/28/2026 00:30 PDT, 3.19, 570.00
FALO3, 08/28/2026 00:25 PDT, 3.18, 565.00
FALO3, 08/28/2026 00:20 PDT, 3.19, 570.00
FALO3, 08/28/2026 00:15 PDT, 3.18, 565.00
FALO3, 08/28/2026 00:10 PDT, 3.18, 565.00
FALO3, 08/28/2026 00:05 PDT, 3.19, 570.00
FALO3, 08/28/2026 00:00 PDT, 3.19, 570.00
FALO3, 08/27/2026 23:55 PDT, 3.18, 565.00
FALO3, 08/27/2026 23:50 PDT, 3.19, 570.00
FALO3, 08/27/2026 23:45 PDT, 3.19, 570.00
FALO3, 08/27/2026 23:40 PDT, 3.18, 565.00
FALO3, 08/27/2026 23:35 PDT, 3.19, 570.00
FALO3, 08/27/2026 23:30 PDT, 3.19, 570.00
FALO3, 08/27/2026 23:25 PDT, 3.18, 565.00
FALO3, 08/27/2026 23:20 PDT, 3.18, 565.00
FALO3, 08/27/2026 23:15 PDT, 3.18, 565.00
FALO3, 08/27/2026 23:10 PDT, 3.19, 570.00
FALO3, 08/27/2026 23:05 PDT, 3.19, 570.00
FALO3, 08/27/2026 23:00 PDT, 3.19, 570.00
FALO3, 08/27/2026 22:55 PDT, 3.18, 565.00
FALO3, 08/27/2026 22:50 PDT, 3.18, 565.00
FALO3, 08/27/2026 22:45 PDT, 3.19, 570.00
FALO3, 08/27/2026 22:40 PDT, 3.18, 565.00
FALO3, 08/27/2026 22:35 PDT, 3.19, 570.00
FALO3, 08/27/2026 22:30 PDT, 3.18, 565.00
FALO3, 08/27/2026 22:25 PDT, 3.18, 565.00
FALO3, 08/27/2026 22:20 PDT, 3.19, 570.00
FALO3, 08/27/2026 22:15 PDT, 3.19, 570.00
FALO3, 08/27/2026 22:10 PDT, 3.19, 570.00
FALO3, 08/27/2026 22:05 PDT, 3.18, 565.00
FALO3, 08/27/2026 22:00 PDT, 3.18, 565.00
FALO3, 08/27/2026 21:55 PDT, 3.19, 570.00
FALO3, 08/27/2026 21:50 PDT, 3.19, 570.00
FALO3, 08/27/2026 21:45 PDT, 3.18, 565.00
FALO3, 08/27/2026 21:40 PDT, 3.19, 570.00
FALO3, 08/27/2026 21:35 PDT, 3.18, 565.00
FALO3, 08/27/2026 21:30 PDT, 3.18, 565.00
FALO3, 08/27/2026 21:25 PDT, 3.18, 565.00
FALO3, 08/27/2026 21:20 PDT, 3.18, 565.00
FALO3, 08/27/2026 21:15 PDT, 3.18, 565.00
FALO3, 08/27/2026 21:10 PDT, 3.19, 570.00
FALO3, 08/27/2026 21:05 PDT, 3.18, 565.00
FALO3, 08/27/2026 21:00 PDT, 3.19, 570.00
FALO3, 08/27/2026 20:55 PDT, 3.18, 565.00
FALO3, 08/27/2026 20:50 PDT, 3.19, 570.00
FALO3, 08/27/2026 20:45 PDT, 3.18, 565.00
FALO3, 08/27/2026 20:40 PDT, 3.18, 565.00
FALO3, 08/27/2026 20:35 PDT, 3.18, 565.00
FALO3, 08/27/2026 20:30 PDT, 3.18, 565.00
FALO3, 08/27/2026 20:25 PDT, 3.18, 565.00
FALO3, 08/27/2026 20:20 PDT, 3.18, 565.00
FALO3, 08/27/2026 20:15 PDT, 3.18, 565.00
FALO3, 08/27/2026 20:10 PDT, 3.18, 565.00
FALO3, 08/27/2026 20:05 PDT, 3.18, 565.00
FALO3, 08/27/2026 20:00 PDT, 3.18, 565.00
FALO3, 08/27/2026 19:55 PDT, 3.18, 565.00
FALO3, 08/27/2026 19:50 PDT, 3.18, 565.00
FALO3, 08/27/2026 19:45 PDT, 3.18, 565.00
FALO3, 08/27/2026 19:40 PDT, 3.18, 565.00
FALO3, 08/27/2026 19:35 PDT, 3.19, 570.00
FALO3, 08/27/2026 19:30 PDT, 3.18, 565.00
FALO3, 08/27/2026 19:25 PDT, 3.18, 565.00
FALO3, 08/27/2026 19:20 PDT, 3.18, 565.00
FALO3, 08/27/2026 19:15 PDT, 3.19, 570.00
FALO3, 08/27/2026 19:10 PDT, 3.18, 565.00
FALO3, 08/27/2026 19:05 PDT, 3.18, 565.00
FALO3, 08/27/2026 19:00 PDT, 3.18, 565.00
FALO3, 08/27/2026 18:55 PDT, 3.18, 565.00
FALO3, 08/27/2026 18:50 PDT, 3.18, 565.00
FALO3, 08/27/2026 18:45 PDT, 3.18, 565.00
FALO3, 08/27/2026 18:40 PDT, 3.18, 565.00
FALO3, 08/27/2026 18:35 PDT, 3.18, 565.00
FALO3, 08/27/2026 18:30 PDT, 3.19, 570.00
FALO3, 08/27/2026 18:25 PDT, 3.18, 565.00
FALO3, 08/27/2026 18:20 PDT, 3.18, 565.00
FALO3, 08/27/2026 18:15 PDT, 3.18, 565.00
FALO3, 08/27/2026 18:10 PDT, 3.18, 565.00
FALO3, 08/27/2026 18:05 PDT, 3.18, 565.00
FALO3, 08/27/2026 18:00 PDT, 3.18, 565.00
FALO3, 08/27/2026 17:55 PDT, 3.18, 565.00
FALO3, 08/27/2026 17:50 PDT, 3.18, 565.00
FALO3, 08/27/2026 17:45 PDT, 3.18, 565.00
FALO3, 08/27/2026 17:40 PDT, 3.17, 560.00
FALO3, 08/27/2026 17:35 PDT, 3.17, 560.00
FALO3, 08/27/2026 17:30 PDT, 3.18, 565.00
FALO3, 08/27/2026 17:25 PDT, 3.18, 565.00
FALO3, 08/27/2026 17:20 PDT, 3.18, 565.00
FALO3, 08/27/2026 17:15 PDT, 3.18, 565.00
FALO3, 08/27/2026 17:10 PDT, 3.18, 565.00
FALO3, 08/27/2026 17:05 PDT, 3.18, 565.00
FALO3, 08/27/2026 17:00 PDT, 3.18, 565.00
FALO3, 08/27/2026 16:55 PDT, 3.18, 565.00
FALO3, 08/27/2026 16:50 PDT, 3.18, 565.00
FALO3, 08/27/2026 16:45 PDT, 3.18, 565.00
FALO3, 08/27/2026 16:40 PDT, 3.18, 565.00
FALO3, 08/27/2026 16:35 PDT, 3.17, 560.00
FALO3, 08/27/2026 16:30 PDT, 3.18, 565.00
FALO3, 08/27/2026 16:25 PDT, 3.18, 565.00
FALO3, 08/27/2026 16:20 PDT, 3.18, 565.00
FALO3, 08/27/2026 16:15 PDT, 3.18, 565.00
FALO3, 08/27/2026 16:10 PDT, 3.18, 565.00
FALO3, 08/27/2026 16:05 PDT, 3.18, 565.00
FALO3, 08/27/2026 16:00 PDT, 3.18, 565.00
FALO3, 08/27/2026 15:55 PDT, 3.18, 565.00
FALO3, 08/27/2026 15:50 PDT, 3.18, 565.00
FALO3, 08/27/2026 15:45 PDT, 3.18, 565.00
FALO3, 08/27/2026 15:40 PDT, 3.18, 565.00
FALO3, 08/27/2026 15:35 PDT, 3.18, 565.00
FALO3, 08/27/2026 15:30 PDT, 3.18, 565.00
FALO3, 08/27/2026 15:25 PDT, 3.18, 565.00
FALO3, 08/27/2026 15:20 PDT, 3.18, 565.00
FALO3, 08/27/2026 15:15 PDT, 3.18, 565.00
FALO3, 08/27/2026 15:10 PDT, 3.18, 565.00
FALO3, 08/27/2026 15:05 PDT, 3.18, 565.00
FALO3, 08/27/2026 15:00 PDT, 3.18, 565.00
FALO3, 08/27/2026 14:55 PDT, 3.18, 565.00
FALO3, 08/27/2026 14:50 PDT, 3.18, 565.00
FALO3, 08/27/2026 14:45 PDT, 3.18, 565.00
FALO3, 08/27/2026 14:40 PDT, 3.18, 565.00
FALO3, 08/27/2026 14:35 PDT, 3.18, 565.00
FALO3, 08/27/2026 14:30 PDT, 3.18, 565.00
FALO3, 08/27/2026 14:25 PDT, 3.18, 565.00
FALO3, 08/27/2026 14:20 PDT, 3.18, 565.00
FALO3, 08/27/2026 14:15 PDT, 3.18, 565.00
FALO3, 08/27/2026 14:10 PDT, 3.19, 570.00
FALO3, 08/27/2026 14:05 PDT, 3.18, 565.00
FALO3, 08/27/2026 14:00 PDT, 3.19, 570.00
FALO3, 08/27/2026 13:55 PDT, 3.18, 565.00
FALO3, 08/27/2026 13:50 PDT, 3.19, 570.00
FALO3, 08/27/2026 13:45 PDT, 3.18, 565.00
FALO3, 08/27/2026 13:40 PDT, 3.18, 565.00
FALO3, 08/27/2026 13:35 PDT, 3.18, 565.00
FALO3, 08/27/2026 13:30 PDT, 3.18, 565.00
FALO3, 08/27/2026 13:25 PDT, 3.18, 565.00
FALO3, 08/27/2026 13:20 PDT, 3.18, 565.00
FALO3, 08/27/2026 13:15 PDT, 3.19, 570.00
FALO3, 08/27/2026 13:10 PDT, 3.18, 565.00
FALO3, 08/27/2026 13:05 PDT, 3.18, 565.00
FALO3, 08/27/2026 13:00 PDT, 3.18, 565.00
FALO3, 08/27/2026 12:55 PDT, 3.18, 565.00
FALO3, 08/27/2026 12:50 PDT, 3.18, 565.00
FALO3, 08/27/2026 12:45 PDT, 3.19, 570.00
FALO3, 08/27/2026 12:40 PDT, 3.19, 570.00
FALO3, 08/27/2026 12:35 PDT, 3.18, 565.00
FALO3, 08/27/2026 12:30 PDT, 3.19, 570.00
FALO3, 08/27/2026 12:25 PDT, 3.18, 565.00
FALO3, 08/27/2026 12:20 PDT, 3.18, 565.00
FALO3, 08/27/2026 12:15 PDT, 3.18, 565.00
FALO3, 08/27/2026 12:10 PDT, 3.18, 565.00
FALO3, 08/27/2026 12:05 PDT, 3.19, 570.00
FALO3, 08/27/2026 12:00 PDT, 3.18, 565.00
FALO3, 08/27/2026 11:55 PDT, 3.18, 565.00
FALO3, 08/27/2026 11:50 PDT, 3.18, 565.00
FALO3, 08/27/2026 11:45 PDT, 3.18, 565.00
FALO3, 08/27/2026 11:40 PDT, 3.18, 565.00
FALO3, 08/27/2026 11:35 PDT, 3.18, 565.00
FALO3, 08/27/2026 11:30 PDT, 3.18, 565.00
FALO3, 08/27/2026 11:25 PDT, 3.18, 565.00
FALO3, 08/27/2026 11:20 PDT, 3.19, 570.00
FALO3, 08/27/2026 11:15 PDT, 3.18, 565.00
FALO3, 08/27/2026 11:10 PDT, 3.18, 565.00
FALO3, 08/27/2026 11:05 PDT, 3.18, 565.00
FALO3, 08/27/2026 11:00 PDT, 3.18, 565.00
FALO3, 08/27/2026 10:55 PDT, 3.19, 570.00
FALO3, 08/27/2026 10:50 PDT, 3.18, 565.00
FALO3, 08/27/2026 10:45 PDT, 3.18, 565.00
FALO3, 08/27/2026 10:40 PDT, 3.18, 565.00
FALO3, 08/27/2026 10:35 PDT, 3.19, 570.00
FALO3, 08/27/2026 10:30 PDT, 3.18, 565.00
FALO3, 08/27/2026 10:25 PDT, 3.18, 565.00
FALO3, 08/27/2026 10:20 PDT, 3.18, 565.00
FALO3, 08/27/2026 10:15 PDT, 3.18, 565.00
FALO3, 08/27/2026 10:10 PDT, 3.18, 565.00
FALO3, 08/27/2026 10:05 PDT, 3.18, 565.00
FALO3, 08/27/2026 10:00 PDT, 3.18, 565.00
FALO3, 08/27/2026 09:55 PDT, 3.19, 570.00
FALO3, 08/27/2026 09:50 PDT, 3.19, 570.00
FALO3, 08/27/2026 09:45 PDT, 3.18, 565.00
FALO3, 08/27/2026 09:40 PDT, 3.18, 565.00
FALO3, 08/27/2026 09:35 PDT, 3.18, 565.00
FALO3, 08/27/2026 09:30 PDT, 3.18, 565.00
FALO3, 08/27/2026 09:25 PDT, 3.18, 565.00
FALO3, 08/27/2026 09:20 PDT, 3.18, 565.00
FALO3, 08/27/2026 09:15 PDT, 3.18, 565.00
FALO3, 08/27/2026 09:10 PDT, 3.18, 565.00
FALO3, 08/27/2026 09:05 PDT, 3.19, 570.00
FALO3, 08/27/2026 09:00 PDT, 3.18, 565.00
FALO3, 08/27/2026 08:55 PDT, 3.18, 565.00
FALO3, 08/27/2026 08:50 PDT, 3.19, 570.00
FALO3, 08/27/2026 08:45 PDT, 3.19, 570.00
FALO3, 08/27/2026 08:40 PDT, 3.19, 570.00
FALO3, 08/27/2026 08:35 PDT, 3.18, 565.00
FALO3, 08/27/2026 08:30 PDT, 3.19, 570.00
FALO3, 08/27/2026 08:25 PDT, 3.18, 565.00
FALO3, 08/27/2026 08:20 PDT, 3.18, 565.00
FALO3, 08/27/2026 08:15 PDT, 3.18, 565.00
FALO3, 08/27/2026 08:10 PDT, 3.18, 565.00
FALO3, 08/27/2026 08:05 PDT, 3.18, 565.00
FALO3, 08/27/2026 08:00 PDT, 3.19, 570.00
FALO3, 08/27/2026 07:55 PDT, 3.18, 565.00
FALO3, 08/27/2026 07:50 PDT, 3.19, 570.00
FALO3, 08/27/2026 07:45 PDT, 3.19, 570.00
FALO3, 08/27/2026 07:40 PDT, 3.19, 570.00
FALO3, 08/27/2026 07:35 PDT, 3.19, 570.00
FALO3, 08/27/2026 07:30 PDT, 3.19, 570.00
FALO3, 08/27/2026 07:25 PDT, 3.19, 570.00
FALO3, 08/27/2026 07:20 PDT, 3.19, 570.00
FALO3, 08/27/2026 07:15 PDT, 3.19, 570.00
FALO3, 08/27/2026 07:10 PDT, 3.19, 570.00
FALO3, 08/27/2026 07:05 PDT, 3.19, 570.00
FALO3, 08/27/2026 07:00 PDT, 3.19, 570.00
FALO3, 08/27/2026 06:55 PDT, 3.19, 570.00
FALO3, 08/27/2026 06:50 PDT, 3.19, 570.00
FALO3, 08/27/2026 06:45 PDT, 3.19, 570.00
FALO3, 08/27/2026 06:40 PDT, 3.19, 570.00
FALO3, 08/27/2026 06:35 PDT, 3.19, 570.00
FALO3, 08/27/2026 06:30 PDT, 3.18, 565.00
FALO3, 08/27/2026 06:25 PDT, 3.18, 565.00
FALO3, 08/27/2026 06:20 PDT, 3.19, 570.00
FALO3, 08/27/2026 06:15 PDT, 3.18, 565.00
FALO3, 08/27/2026 06:10 PDT, 3.18, 565.00
FALO3, 08/27/2026 06:05 PDT, 3.19, 570.00
FALO3, 08/27/2026 06:00 PDT, 3.19, 570.00
FALO3, 08/27/2026 05:55 PDT, 3.19, 570.00
FALO3, 08/27/2026 05:50 PDT, 3.19, 570.00
FALO3, 08/27/2026 05:45 PDT, 3.19, 570.00
FALO3, 08/27/2026 05:40 PDT, 3.19, 570.00
FALO3, 08/27/2026 05:35 PDT, 3.19, 570.00
FALO3, 08/27/2026 05:30 PDT, 3.19, 570.00
FALO3, 08/27/2026 05:25 PDT, 3.19, 570.00
FALO3, 08/27/2026 05:20 PDT, 3.19, 570.00
FALO3, 08/27/2026 05:15 PDT, 3.19, 570.00
FALO3, 08/27/2026 05:10 PDT, 3.19, 570.00
FALO3, 08/27/2026 05:05 PDT, 3.19, 570.00
FALO3, 08/27/2026 05:00 PDT, 3.19, 570.00
FALO3, 08/27/2026 04:55 PDT, 3.19, 570.00
FALO3, 08/27/2026 04:50 PDT, 3.19, 570.00
FALO3, 08/27/2026 04:45 PDT, 3.19, 570.00
FALO3, 08/27/2026 04:40 PDT, 3.19, 570.00
FALO3, 08/27/2026 04:35 PDT, 3.19, 570.00
FALO3, 08/27/2026 04:30 PDT, 3.19, 570.00
FALO3, 08/27/2026 04:25 PDT, 3.19, 570.00
FALO3, 08/27/2026 04:20 PDT, 3.19, 570.00
FALO3, 08/27/2026 04:15 PDT, 3.19, 570.00
FALO3, 08/27/2026 04:10 PDT, 3.19, 570.00
FALO3, 08/27/2026 04:05 PDT, 3.19, 570.00
FALO3, 08/27/2026 04:00 PDT, 3.19, 570.00
FALO3, 08/27/2026 03:55 PDT, 3.19, 570.00
FALO3, 08/27/2026 03:50 PDT, 3.19, 570.00
FALO3, 08/27/2026 03:45 PDT, 3.19, 570.00
FALO3, 08/27/2026 03:40 PDT, 3.19, 570.00
FALO3, 08/27/2026 03:35 PDT, 3.19, 570.00
FALO3, 08/27/2026 03:30 PDT, 3.19, 570.00
FALO3, 08/27/2026 03:25 PDT, 3.19, 570.00
FALO3, 08/27/2026 03:20 PDT, 3.19, 570.00
FALO3, 08/27/2026 03:15 PDT, 3.19, 570.00
FALO3, 08/27/2026 03:10 PDT, 3.19, 570.00
FALO3, 08/27/2026 03:05 PDT, 3.19, 570.00
FALO3, 08/27/2026 03:00 PDT, 3.19, 570.00
FALO3, 08/27/2026 02:55 PDT, 3.19, 570.00
FALO3, 08/27/2026 02:50 PDT, 3.18, 565.00
FALO3, 08/27/2026 02:45 PDT, 3.19, 570.00
FALO3, 08/27/2026 02:40 PDT, 3.19, 570.00
FALO3, 08/27/2026 02:35 PDT, 3.19, 570.00
FALO3, 08/27/2026 02:30 PDT, 3.19, 570.00
FALO3, 08/27/2026 02:25 PDT, 3.19, 570.00
FALO3, 08/27/2026 02:20 PDT, 3.19, 570.00
FALO3, 08/27/2026 02:15 PDT, 3.19, 570.00
FALO3, 08/27/2026 02:10 PDT, 3.19, 570.00
FALO3, 08/27/2026 02:05 PDT, 3.19, 570.00
FALO3, 08/27/2026 02:00 PDT, 3.19, 570.00
FALO3, 08/27/2026 01:55 PDT, 3.19, 570.00
FALO3, 08/27/2026 01:50 PDT, 3.19, 570.00
FALO3, 08/27/2026 01:45 PDT, 3.19, 570.00
FALO3, 08/27/2026 01:40 PDT, 3.19, 570.00
FALO3, 08/27/2026 01:35 PDT, 3.19, 570.00
FALO3, 08/27/2026 01:30 PDT, 3.19, 570.00
FALO3, 08/27/2026 01:25 PDT, 3.19, 570.00
FALO3, 08/27/2026 01:20 PDT, 3.19, 570.00
FALO3, 08/27/2026 01:15 PDT, 3.19, 570.00
FALO3, 08/27/2026 01:10 PDT, 3.19, 570.00
FALO3, 08/27/2026 01:05 PDT, 3.19, 570.00
FALO3, 08/27/2026 01:00 PDT, 3.19, 570.00
FALO3, 08/27/2026 00:55 PDT, 3.19, 570.00
FALO3, 08/27/2026 00:50 PDT, 3.19, 570.00
FALO3, 08/27/2026 00:45 PDT, 3.19, 570.00
FALO3, 08/27/2026 00:40 PDT, 3.19, 570.00
FALO3, 08/27/2026 00:35 PDT, 3.19, 570.00
FALO3, 08/27/2026 00:30 PDT, 3.19, 570.00
FALO3, 08/27/2026 00:25 PDT, 3.19, 570.00
FALO3, 08/27/2026 00:20 PDT, 3.19, 570.00
FALO3, 08/27/2026 00:15 PDT, 3.19, 570.00
FALO3, 08/27/2026 00:10 PDT, 3.19, 570.00
FALO3, 08/27/2026 00:05 PDT, 3.19, 570.00
FALO3, 08/27/2026 00:00 PDT, 3.19, 570.00
FALO3, 08/26/2026 23:55 PDT, 3.19, 570.00
FALO3, 08/26/2026 23:50 PDT, 3.19, 570.00
FALO3, 08/26/2026 23:45 PDT, 3.19, 570.00
FALO3, 08/26/2026 23:40 PDT, 3.19, 570.00
FALO3, 08/26/2026 23:35 PDT, 3.19, 570.00
FALO3, 08/26/2026 23:30 PDT, 3.19, 570.00
FALO3, 08/26/2026 23:25 PDT, 3.19, 570.00
FALO3, 08/26/2026 23:20 PDT, 3.19, 570.00
FALO3, 08/26/2026 23:15 PDT, 3.19, 570.00
FALO3, 08/26/2026 23:10 PDT, 3.19, 570.00
FALO3, 08/26/2026 23:05 PDT, 3.19, 570.00
FALO3, 08/26/2026 23:00 PDT, 3.19, 570.00
FALO3, 08/26/2026 22:55 PDT, 3.19, 570.00
FALO3, 08/26/2026 22:50 PDT, 3.19, 570.00
FALO3, 08/26/2026 22:45 PDT, 3.19, 570.00
FALO3, 08/26/2026 22:40 PDT, 3.19, 570.00
FALO3, 08/26/2026 22:35 PDT, 3.19, 570.00
FALO3, 08/26/2026 22:30 PDT, 3.19, 570.00
FALO3, 08/26/2026 22:25 PDT, 3.19, 570.00
FALO3, 08/26/2026 22:20 PDT, 3.19, 570.00
FALO3, 08/26/2026 22:15 PDT, 3.19, 570.00
FALO3, 08/26/2026 22:10 PDT, 3.19, 570.00
FALO3, 08/26/2026 22:05 PDT, 3.19, 570.00
FALO3, 08/26/2026 22:00 PDT, 3.19, 570.00
FALO3, 08/26/2026 21:55 PDT, 3.19, 570.00
FALO3, 08/26/2026 21:50 PDT, 3.19, 570.00
FALO3, 08/26/2026 21:45 PDT, 3.19, 570.00
FALO3, 08/26/2026 21:40 PDT, 3.19, 570.00
FALO3, 08/26/2026 21:35 PDT, 3.19, 570.00
FALO3, 08/26/2026 21:30 PDT, 3.19, 570.00
FALO3, 08/26/2026 21:25 PDT, 3.19, 570.00
FALO3, 08/26/2026 21:20 PDT, 3.19, 570.00
FALO3, 08/26/2026 21:15 PDT, 3.19, 570.00
FALO3, 08/26/2026 21:10 PDT, 3.19, 570.00
FALO3, 08/26/2026 21:05 PDT, 3.19, 570.00
FALO3, 08/26/2026 21:00 PDT, 3.19, 570.00
FALO3, 08/26/2026 20:55 PDT, 3.19, 570.00
FALO3, 08/26/2026 20:50 PDT, 3.19, 570.00
FALO3, 08/26/2026 20:45 PDT, 3.19, 570.00
FALO3, 08/26/2026 20:40 PDT, 3.19, 570.00
FALO3, 08/26/2026 20:35 PDT, 3.18, 565.00
FALO3, 08/26/2026 20:30 PDT, 3.19, 570.00
FALO3, 08/26/2026 20:25 PDT, 3.19, 570.00
FALO3, 08/26/2026 20:20 PDT, 3.19, 570.00
FALO3, 08/26/2026 20:15 PDT, 3.19, 570.00
FALO3, 08/26/2026 20:10 PDT, 3.19, 570.00
FALO3, 08/26/2026 20:05 PDT, 3.18, 565.00
FALO3, 08/26/2026 20:00 PDT, 3.19, 570.00
FALO3, 08/26/2026 19:55 PDT, 3.19, 570.00
FALO3, 08/26/2026 19:50 PDT, 3.19, 570.00
FALO3, 08/26/2026 19:45 PDT, 3.19, 570.00
FALO3, 08/26/2026 19:40 PDT, 3.19, 570.00
FALO3, 08/26/2026 19:35 PDT, 3.18, 565.00
FALO3, 08/26/2026 19:30 PDT, 3.19, 570.00
FALO3, 08/26/2026 19:25 PDT, 3.18, 565.00
FALO3, 08/26/2026 19:20 PDT, 3.19, 570.00
FALO3, 08/26/2026 19:15 PDT, 3.18, 565.00
FALO3, 08/26/2026 19:10 PDT, 3.18, 565.00
FALO3, 08/26/2026 19:05 PDT, 3.19, 570.00
FALO3, 08/26/2026 19:00 PDT, 3.19, 570.00
FALO3, 08/26/2026 18:55 PDT, 3.18, 565.00
FALO3, 08/26/2026 18:50 PDT, 3.18, 565.00
FALO3, 08/26/2026 18:45 PDT, 3.18, 565.00
FALO3, 08/26/2026 18:40 PDT, 3.18, 565.00
FALO3, 08/26/2026 18:35 PDT, 3.18, 565.00
FALO3, 08/26/2026 18:30 PDT, 3.18, 565.00
FALO3, 08/26/2026 18:25 PDT, 3.19, 570.00
FALO3, 08/26/2026 18:20 PDT, 3.18, 565.00
FALO3, 08/26/2026 18:15 PDT, 3.19, 570.00
FALO3, 08/26/2026 18:10 PDT, 3.18, 565.00
FALO3, 08/26/2026 18:05 PDT, 3.19, 570.00
FALO3, 08/26/2026 18:00 PDT, 3.19, 570.00
FALO3, 08/26/2026 17:55 PDT, 3.19, 570.00
FALO3, 08/26/2026 17:50 PDT, 3.19, 570.00
FALO3, 08/26/2026 17:45 PDT, 3.18, 565.00
FALO3, 08/26/2026 17:40 PDT, 3.19, 570.00
FALO3, 08/26/2026 17:35 PDT, 3.19, 570.00
FALO3, 08/26/2026 17:30 PDT, 3.19, 570.00
FALO3, 08/26/2026 17:25 PDT, 3.19, 570.00
FALO3, 08/26/2026 17:20 PDT, 3.18, 565.00
FALO3, 08/26/2026 17:15 PDT, 3.18, 565.00
FALO3, 08/26/2026 17:10 PDT, 3.18, 565.00
FALO3, 08/26/2026 17:05 PDT, 3.19, 570.00
FALO3, 08/26/2026 17:00 PDT, 3.19, 570.00
FALO3, 08/26/2026 16:55 PDT, 3.18, 565.00
FALO3, 08/26/2026 16:50 PDT, 3.18, 565.00
FALO3, 08/26/2026 16:45 PDT, 3.18, 565.00
FALO3, 08/26/2026 16:40 PDT, 3.18, 565.00
FALO3, 08/26/2026 16:35 PDT, 3.18, 565.00
FALO3, 08/26/2026 16:30 PDT, 3.18, 565.00
FALO3, 08/26/2026 16:25 PDT, 3.18, 565.00
FALO3, 08/26/2026 16:20 PDT, 3.18, 565.00
FALO3, 08/26/2026 16:15 PDT, 3.19, 570.00
FALO3, 08/26/2026 16:10 PDT, 3.18, 565.00
FALO3, 08/26/2026 16:05 PDT, 3.18, 565.00
FALO3, 08/26/2026 16:00 PDT, 3.18, 565.00
FALO3, 08/26/2026 15:55 PDT, 3.18, 565.00
FALO3, 08/26/2026 15:50 PDT, 3.18, 565.00
FALO3, 08/26/2026 15:45 PDT, 3.18, 565.00
FALO3, 08/26/2026 15:40 PDT, 3.19, 570.00
FALO3, 08/26/2026 15:35 PDT, 3.19, 570.00
FALO3, 08/26/2026 15:30 PDT, 3.18, 565.00
FALO3, 08/26/2026 15:25 PDT, 3.18, 565.00
FALO3, 08/26/2026 15:20 PDT, 3.18, 565.00
FALO3, 08/26/2026 15:15 PDT, 3.19, 570.00
FALO3, 08/26/2026 15:10 PDT, 3.18, 565.00
FALO3, 08/26/2026 15:05 PDT, 3.19, 570.00
FALO3, 08/26/2026 15:00 PDT, 3.18, 565.00
FALO3, 08/26/2026 14:55 PDT, 3.19, 570.00
FALO3, 08/26/2026 14:50 PDT, 3.19, 570.00
FALO3, 08/26/2026 14:45 PDT, 3.19, 570.00
FALO3, 08/26/2026 14:40 PDT, 3.19, 570.00
FALO3, 08/26/2026 14:35 PDT, 3.18, 565.00
FALO3, 08/26/2026 14:30 PDT, 3.18, 565.00
FALO3, 08/26/2026 14:25 PDT, 3.18, 565.00
FALO3, 08/26/2026 14:20 PDT, 3.18, 565.00
FALO3, 08/26/2026 14:15 PDT, 3.18, 565.00
FALO3, 08/26/2026 14:10 PDT, 3.19, 570.00
FALO3, 08/26/2026 14:05 PDT, 3.19, 570.00
FALO3, 08/26/2026 14:00 PDT, 3.19, 570.00
FALO3, 08/26/2026 13:55 PDT, 3.19, 570.00
FALO3, 08/26/2026 13:50 PDT, 3.19, 570.00
FALO3, 08/26/2026 13:45 PDT, 3.19, 570.00
FALO3, 08/26/2026 13:40 PDT, 3.19, 570.00
FALO3, 08/26/2026 13:35 PDT, 3.19, 570.00
FALO3, 08/26/2026 13:30 PDT, 3.19, 570.00
FALO3, 08/26/2026 13:25 PDT, 3.19, 570.00
FALO3, 08/26/2026 13:20 PDT, 3.19, 570.00
FALO3, 08/26/2026 13:15 PDT, 3.19, 570.00
FALO3, 08/26/2026 13:10 PDT, 3.19, 570.00
FALO3, 08/26/2026 13:05 PDT, 3.19, 570.00
FALO3, 08/26/2026 13:00 PDT, 3.18, 565.00
FALO3, 08/26/2026 12:55 PDT, 3.19, 570.00
FALO3, 08/26/2026 12:50 PDT, 3.19, 570.00
FALO3, 08/26/2026 12:45 PDT, 3.19, 570.00
FALO3, 08/26/2026 12:40 PDT, 3.19, 570.00
FALO3, 08/26/2026 12:35 PDT, 3.19, 570.00
FALO3, 08/26/2026 12:30 PDT, 3.19, 570.00
FALO3, 08/26/2026 12:25 PDT, 3.19, 570.00
FALO3, 08/26/2026 12:20 PDT, 3.19, 570.00
FALO3, 08/26/2026 12:15 PDT, 3.19, 570.00
FALO3, 08/26/2026 12:10 PDT, 3.19, 570.00
FALO3, 08/26/2026 12:05 PDT, 3.18, 565.00
FALO3, 08/26/2026 12:00 PDT, 3.19, 570.00
FALO3, 08/26/2026 11:55 PDT, 3.19, 570.00
FALO3, 08/26/2026 11:50 PDT, 3.19, 570.00
FALO3, 08/26/2026 11:45 PDT, 3.19, 570.00
FALO3, 08/26/2026 11:40 PDT, 3.19, 570.00
FALO3, 08/26/2026 11:35 PDT, 3.19, 570.00
FALO3, 08/26/2026 11:30 PDT, 3.19, 570.00
FALO3, 08/26/2026 11:25 PDT, 3.19, 570.00
FALO3, 08/26/2026 11:20 PDT, 3.18, 565.00
FALO3, 08/26/2026 11:15 PDT, 3.19, 570.00
FALO3, 08/26/2026 11:10 PDT, 3.19, 570.00
FALO3, 08/26/2026 11:05 PDT, 3.19, 570.00
FALO3, 08/26/2026 11:00 PDT, 3.19, 570.00
FALO3, 08/26/2026 10:55 PDT, 3.19, 570.00
FALO3, 08/26/2026 10:50 PDT, 3.19, 570.00
FALO3, 08/26/2026 10:45 PDT, 3.19, 570.00
FALO3, 08/26/2026 10:40 PDT, 3.19, 570.00
FALO3, 08/26/2026 10:35 PDT, 3.19, 570.00
FALO3, 08/26/2026 10:30 PDT, 3.19, 570.00
FALO3, 08/26/2026 10:25 PDT, 3.19, 570.00
FALO3, 08/26/2026 10:20 PDT, 3.19, 570.00
FALO3, 08/26/2026 10:15 PDT, 3.18, 565.00
FALO3, 08/26/2026 10:10 PDT, 3.19, 570.00
FALO3, 08/26/2026 10:05 PDT, 3.19, 570.00
FALO3, 08/26/2026 10:00 PDT, 3.19, 570.00
FALO3, 08/26/2026 09:55 PDT, 3.19, 570.00
FALO3, 08/26/2026 09:50 PDT, 3.19, 570.00
FALO3, 08/26/2026 09:45 PDT, 3.19, 570.00
FALO3, 08/26/2026 09:40 PDT, 3.19, 570.00
FALO3, 08/26/2026 09:35 PDT, 3.19, 570.00
FALO3, 08/26/2026 09:30 PDT, 3.19, 570.00
FALO3, 08/26/2026 09:25 PDT, 3.19, 570.00
FALO3, 08/26/2026 09:20 PDT, 3.19, 570.00
FALO3, 08/26/2026 09:15 PDT, 3.19, 570.00
FALO3, 08/26/2026 09:10 PDT, 3.19, 570.00
FALO3, 08/26/2026 09:05 PDT, 3.19, 570.00
FALO3, 08/26/2026 09:00 PDT, 3.19, 570.00
FALO3, 08/26/2026 08:55 PDT, 3.19, 570.00
FALO3, 08/26/2026 08:50 PDT, 3.19, 570.00
FALO3, 08/26/2026 08:45 PDT, 3.19, 570.00
FALO3, 08/26/2026 08:40 PDT, 3.19, 570.00
FALO3, 08/26/2026 08:35 PDT, 3.19, 570.00
FALO3, 08/26/2026 08:30 PDT, 3.19, 570.00
FALO3, 08/26/2026 08:25 PDT, 3.19, 570.00
FALO3, 08/26/2026 08:20 PDT, 3.19, 570.00
FALO3, 08/26/2026 08:15 PDT, 3.19, 570.00
FALO3, 08/26/2026 08:10 PDT, 3.19, 570.00
FALO3, 08/26/2026 08:05 PDT, 3.19, 570.00
FALO3, 08/26/2026 08:00 PDT, 3.19, 570.00
FALO3, 08/26/2026 07:55 PDT, 3.19, 570.00
FALO3, 08/26/2026 07:50 PDT, 3.19, 570.00
FALO3, 08/26/2026 07:45 PDT, 3.19, 570.00
FALO3, 08/26/2026 07:40 PDT, 3.19, 570.00
FALO3, 08/26/2026 07:35 PDT, 3.19, 570.00
FALO3, 08/26/2026 07:30 PDT, 3.19, 570.00
FALO3, 08/26/2026 07:25 PDT, 3.19, 570.00
FALO3, 08/26/2026 07:20 PDT, 3.19, 570.00
FALO3, 08/26/2026 07:15 PDT, 3.19, 570.00
FALO3, 08/26/2026 07:10 PDT, 3.19, 570.00
FALO3, 08/26/2026 07:05 PDT, 3.19, 570.00
FALO3, 08/26/2026 07:00 PDT, 3.19, 570.00
FALO3, 08/26/2026 06:55 PDT, 3.19, 570.00
FALO3, 08/26/2026 06:50 PDT, 3.19, 570.00
FALO3, 08/26/2026 06:45 PDT, 3.19, 570.00
FALO3, 08/26/2026 06:40 PDT, 3.19, 570.00
FALO3, 08/26/2026 06:35 PDT, 3.19, 570.00
FALO3, 08/26/2026 06:30 PDT, 3.19, 570.00
FALO3, 08/26/2026 06:25 PDT, 3.19, 570.00
FALO3, 08/26/2026 06:20 PDT, 3.19, 570.00
FALO3, 08/26/2026 06:15 PDT, 3.19, 570.00
FALO3, 08/26/2026 06:10 PDT, 3.19, 570.00
FALO3, 08/26/2026 06:05 PDT, 3.19, 570.00
FALO3, 08/26/2026 06:00 PDT, 3.19, 570.00
FALO3, 08/26/2026 05:55 PDT, 3.19, 570.00
FALO3, 08/26/2026 05:50 PDT, 3.19, 570.00
FALO3, 08/26/2026 05:45 PDT, 3.19, 570.00
FALO3, 08/26/2026 05:40 PDT, 3.19, 570.00
FALO3, 08/26/2026 05:35 PDT, 3.19, 570.00
FALO3, 08/26/2026 05:30 PDT, 3.19, 570.00
FALO3, 08/26/2026 05:25 PDT, 3.19, 570.00
FALO3, 08/26/2026 05:20 PDT, 3.19, 570.00
FALO3, 08/26/2026 05:15 PDT, 3.19, 570.00
FALO3, 08/26/2026 05:10 PDT, 3.19, 570.00
FALO3, 08/26/2026 05:05 PDT, 3.19, 570.00
FALO3, 08/26/2026 05:00 PDT, 3.20, 575.00
FALO3, 08/26/2026 04:55 PDT, 3.19, 570.00
FALO3, 08/26/2026 04:50 PDT, 3.19, 570.00
FALO3, 08/26/2026 04:45 PDT, 3.19, 570.00
FALO3, 08/26/2026 04:40 PDT, 3.19, 570.00
FALO3, 08/26/2026 04:35 PDT, 3.19, 570.00
FALO3, 08/26/2026 04:30 PDT, 3.19, 570.00
FALO3, 08/26/2026 04:25 PDT, 3.19, 570.00
FALO3, 08/26/2026 04:20 PDT, 3.19, 570.00
FALO3, 08/26/2026 04:15 PDT, 3.19, 570.00
FALO3, 08/26/2026 04:10 PDT, 3.19, 570.00
FALO3, 08/26/2026 04:05 PDT, 3.19, 570.00
FALO3, 08/26/2026 04:00 PDT, 3.20, 575.00
FALO3, 08/26/2026 03:55 PDT, 3.19, 570.00
FALO3, 08/26/2026 03:50 PDT, 3.19, 570.00
FALO3, 08/26/2026 03:45 PDT, 3.19, 570.00
FALO3, 08/26/2026 03:40 PDT, 3.19, 570.00
FALO3, 08/26/2026 03:35 PDT, 3.20, 575.00
FALO3, 08/26/2026 03:30 PDT, 3.20, 575.00
FALO3, 08/26/2026 03:25 PDT, 3.20, 575.00
FALO3, 08/26/2026 03:20 PDT, 3.19, 570.00
FALO3, 08/26/2026 03:15 PDT, 3.19, 570.00
FALO3, 08/26/2026 03:10 PDT, 3.19, 570.00
FALO3, 08/26/2026 03:05 PDT, 3.19, 570.00
FALO3, 08/26/2026 03:00 PDT, 3.20, 575.00
FALO3, 08/26/2026 02:55 PDT, 3.19, 570.00
FALO3, 08/26/2026 02:50 PDT, 3.20, 575.00
FALO3, 08/26/2026 02:45 PDT, 3.20, 575.00
FALO3, 08/26/2026 02:40 PDT, 3.20, 575.00
FALO3, 08/26/2026 02:35 PDT, 3.20, 575.00
FALO3, 08/26/2026 02:30 PDT, 3.19, 570.00
FALO3, 08/26/2026 02:25 PDT, 3.19, 570.00
FALO3, 08/26/2026 02:20 PDT, 3.19, 570.00
FALO3, 08/26/2026 02:15 PDT, 3.20, 575.00
FALO3, 08/26/2026 02:10 PDT, 3.20, 575.00
FALO3, 08/26/2026 02:05 PDT, 3.19, 570.00
FALO3, 08/26/2026 02:00 PDT, 3.19, 570.00
FALO3, 08/26/2026 01:55 PDT, 3.19, 570.00
FALO3, 08/26/2026 01:50 PDT, 3.19, 570.00
FALO3, 08/26/2026 01:45 PDT, 3.20, 575.00
FALO3, 08/26/2026 01:40 PDT, 3.20, 575.00
FALO3, 08/26/2026 01:35 PDT, 3.20, 575.00
FALO3, 08/26/2026 01:30 PDT, 3.19, 570.00
FALO3, 08/26/2026 01:25 PDT, 3.19, 570.00
FALO3, 08/26/2026 01:20 PDT, 3.19, 570.00
FALO3, 08/26/2026 01:15 PDT, 3.20, 575.00
FALO3, 08/26/2026 01:10 PDT, 3.19, 570.00
FALO3, 08/26/2026 01:05 PDT, 3.19, 570.00
FALO3, 08/26/2026 01:00 PDT, 3.20, 575.00
FALO3, 08/26/2026 00:55 PDT, 3.19, 570.00
FALO3, 08/26/2026 00:50 PDT, 3.19, 570.00
FALO3, 08/26/2026 00:45 PDT, 3.20, 575.00
FALO3, 08/26/2026 00:40 PDT, 3.20, 575.00
FALO3, 08/26/2026 00:35 PDT, 3.20, 575.00
FALO3, 08/26/2026 00:30 PDT, 3.20, 575.00
FALO3, 08/26/2026 00:25 PDT, 3.19, 570.00
FALO3, 08/26/2026 00:20 PDT, 3.20, 575.00
FALO3, 08/26/2026 00:15 PDT, 3.19, 570.00
FALO3, 08/26/2026 00:10 PDT, 3.19, 570.00
FALO3, 08/26/2026 00:05 PDT, 3.20, 575.00
FALO3, 08/26/2026 00:00 PDT, 3.20, 575.00
FALO3, 08/25/2026 23:55 PDT, 3.20, 575.00
FALO3, 08/25/2026 23:50 PDT, 3.19, 570.00
FALO3, 08/25/2026 23:45 PDT, 3.19, 570.00
FALO3, 08/25/2026 23:40 PDT, 3.19, 570.00
FALO3, 08/25/2026 23:35 PDT, 3.20, 575.00
FALO3, 08/25/2026 23:30 PDT, 3.19, 570.00
FALO3, 08/25/2026 23:25 PDT, 3.19, 570.00
FALO3, 08/25/2026 23:20 PDT, 3.20, 575.00
FALO3, 08/25/2026 23:15 PDT, 3.20, 575.00
FALO3, 08/25/2026 23:10 PDT, 3.20, 575.00
FALO3, 08/25/2026 23:05 PDT, 3.19, 570.00
FALO3, 08/25/2026 23:00 PDT, 3.19, 570.00
FALO3, 08/25/2026 22:55 PDT, 3.20, 575.00
FALO3, 08/25/2026 22:50 PDT, 3.19, 570.00
FALO3, 08/25/2026 22:45 PDT, 3.19, 570.00
FALO3, 08/25/2026 22:40 PDT, 3.20, 575.00
FALO3, 08/25/2026 22:35 PDT, 3.20, 575.00
FALO3, 08/25/2026 22:30 PDT, 3.19, 570.00
FALO3, 08/25/2026 22:25 PDT, 3.19, 570.00
FALO3, 08/25/2026 22:20 PDT, 3.19, 570.00
FALO3, 08/25/2026 22:15 PDT, 3.20, 575.00
FALO3, 08/25/2026 22:10 PDT, 3.19, 570.00
FALO3, 08/25/2026 22:05 PDT, 3.19, 570.00
FALO3, 08/25/2026 22:00 PDT, 3.19, 570.00
FALO3, 08/25/2026 21:55 PDT, 3.20, 575.00
FALO3, 08/25/2026 21:50 PDT, 3.19, 570.00
FALO3, 08/25/2026 21:45 PDT, 3.19, 570.00
FALO3, 08/25/2026 21:40 PDT, 3.19, 570.00
FALO3, 08/25/2026 21:35 PDT, 3.19, 570.00
FALO3, 08/25/2026 21:30 PDT, 3.19, 570.00
FALO3, 08/25/2026 21:25 PDT, 3.20, 575.00
FALO3, 08/25/2026 21:20 PDT, 3.19, 570.00
FALO3, 08/25/2026 21:15 PDT, 3.19, 570.00
FALO3, 08/25/2026 21:10 PDT, 3.19, 570.00
FALO3, 08/25/2026 21:05 PDT, 3.19, 570.00
FALO3, 08/25/2026 21:00 PDT, 3.20, 575.00
FALO3, 08/25/2026 20:55 PDT, 3.20, 575.00
FALO3, 08/25/2026 20:50 PDT, 3.19, 570.00
FALO3, 08/25/2026 20:45 PDT, 3.19, 570.00
FALO3, 08/25/2026 20:40 PDT, 3.19, 570.00
FALO3, 08/25/2026 20:35 PDT, 3.19, 570.00
FALO3, 08/25/2026 20:30 PDT, 3.19, 570.00
FALO3, 08/25/2026 20:25 PDT, 3.19, 570.00
FALO3, 08/25/2026 20:20 PDT, 3.19, 570.00
FALO3, 08/25/2026 20:15 PDT, 3.19, 570.00
FALO3, 08/25/2026 20:10 PDT, 3.19, 570.00
FALO3, 08/25/2026 20:05 PDT, 3.19, 570.00
FALO3, 08/25/2026 20:00 PDT, 3.19, 570.00
FALO3, 08/25/2026 19:55 PDT, 3.19, 570.00
FALO3, 08/25/2026 19:50 PDT, 3.19, 570.00
FALO3, 08/25/2026 19:45 PDT, 3.19, 570.00
FALO3, 08/25/2026 19:40 PDT, 3.19, 570.00
FALO3, 08/25/2026 19:35 PDT, 3.19, 570.00
FALO3, 08/25/2026 19:30 PDT, 3.20, 575.00
FALO3, 08/25/2026 19:25 PDT, 3.19, 570.00
FALO3, 08/25/2026 19:20 PDT, 3.19, 570.00
FALO3, 08/25/2026 19:15 PDT, 3.19, 570.00
FALO3, 08/25/2026 19:10 PDT, 3.19, 570.00
FALO3, 08/25/2026 19:05 PDT, 3.20, 575.00
FALO3, 08/25/2026 19:00 PDT, 3.19, 570.00
FALO3, 08/25/2026 18:55 PDT, 3.19, 570.00
FALO3, 08/25/2026 18:50 PDT, 3.19, 570.00
FALO3, 08/25/2026 18:45 PDT, 3.19, 570.00
FALO3, 08/25/2026 18:40 PDT, 3.19, 570.00
FALO3, 08/25/2026 18:35 PDT, 3.19, 570.00
FALO3, 08/25/2026 18:30 PDT, 3.19, 570.00
FALO3, 08/25/2026 18:25 PDT, 3.18, 565.00
FALO3, 08/25/2026 18:20 PDT, 3.19, 570.00
FALO3, 08/25/2026 18:15 PDT, 3.19, 570.00
FALO3, 08/25/2026 18:10 PDT, 3.19, 570.00
FALO3, 08/25/2026 18:05 PDT, 3.19, 570.00
FALO3, 08/25/2026 18:00 PDT, 3.19, 570.00
FALO3, 08/25/2026 17:55 PDT, 3.19, 570.00
FALO3, 08/25/2026 17:50 PDT, 3.19, 570.00
FALO3, 08/25/2026 17:45 PDT, 3.19, 570.00
FALO3, 08/25/2026 17:40 PDT, 3.19, 570.00
FALO3, 08/25/2026 17:35 PDT, 3.19, 570.00
FALO3, 08/25/2026 17:30 PDT, 3.19, 570.00
FALO3, 08/25/2026 17:25 PDT, 3.19, 570.00
FALO3, 08/25/2026 17:20 PDT, 3.19, 570.00
FALO3, 08/25/2026 17:15 PDT, 3.18, 565.00
FALO3, 08/25/2026 17:10 PDT, 3.18, 565.00
FALO3, 08/25/2026 17:05 PDT, 3.18, 565.00
FALO3, 08/25/2026 17:00 PDT, 3.18, 565.00
FALO3, 08/25/2026 16:55 PDT, 3.19, 570.00
FALO3, 08/25/2026 16:50 PDT, 3.19, 570.00
FALO3, 08/25/2026 16:45 PDT, 3.19, 570.00
FALO3, 08/25/2026 16:40 PDT, 3.19, 570.00
FALO3, 08/25/2026 16:35 PDT, 3.19, 570.00
FALO3, 08/25/2026 16:30 PDT, 3.19, 570.00
FALO3, 08/25/2026 16:25 PDT, 3.19, 570.00
FALO3, 08/25/2026 16:20 PDT, 3.19, 570.00
FALO3, 08/25/2026 16:15 PDT, 3.19, 570.00
FALO3, 08/25/2026 16:10 PDT, 3.19, 570.00
FALO3, 08/25/2026 16:05 PDT, 3.19, 570.00
FALO3, 08/25/2026 16:00 PDT, 3.19, 570.00
FALO3, 08/25/2026 15:55 PDT, 3.19, 570.00
FALO3, 08/25/2026 15:50 PDT, 3.19, 570.00
FALO3, 08/25/2026 15:45 PDT, 3.19, 570.00
FALO3, 08/25/2026 15:40 PDT, 3.19, 570.00
FALO3, 08/25/2026 15:35 PDT, 3.19, 570.00
FALO3, 08/25/2026 15:30 PDT, 3.19, 570.00
FALO3, 08/25/2026 15:25 PDT, 3.19, 570.00
FALO3, 08/25/2026 15:20 PDT, 3.19, 570.00
FALO3, 08/25/2026 15:15 PDT, 3.19, 570.00
FALO3, 08/25/2026 15:10 PDT, 3.19, 570.00
FALO3, 08/25/2026 15:05 PDT, 3.19, 570.00
FALO3, 08/25/2026 15:00 PDT, 3.19, 570.00
FALO3, 08/25/2026 14:55 PDT, 3.19, 570.00
FALO3, 08/25/2026 14:50 PDT, 3.19, 570.00
FALO3, 08/25/2026 14:45 PDT, 3.19, 570.00
FALO3, 08/25/2026 14:40 PDT, 3.19, 570.00
FALO3, 08/25/2026 14:35 PDT, 3.19, 570.00
FALO3, 08/25/2026 14:30 PDT, 3.19, 570.00
FALO3, 08/25/2026 14:25 PDT, 3.19, 570.00
FALO3, 08/25/2026 14:20 PDT, 3.19, 570.00
FALO3, 08/25/2026 14:15 PDT, 3.19, 570.00
FALO3, 08/25/2026 14:10 PDT, 3.19, 570.00
FALO3, 08/25/2026 14:05 PDT, 3.19, 570.00
FALO3, 08/25/2026 14:00 PDT, 3.19, 570.00
FALO3, 08/25/2026 13:55 PDT, 3.19, 570.00
FALO3, 08/25/2026 13:50 PDT, 3.18, 565.00
FALO3, 08/25/2026 13:45 PDT, 3.19, 570.00
FALO3, 08/25/2026 13:40 PDT, 3.19, 570.00
FALO3, 08/25/2026 13:35 PDT, 3.19, 570.00
FALO3, 08/25/2026 13:30 PDT, 3.19, 570.00
FALO3, 08/25/2026 13:25 PDT, 3.19, 570.00
FALO3, 08/25/2026 13:20 PDT, 3.19, 570.00
FALO3, 08/25/2026 13:15 PDT, 3.19, 570.00
FALO3, 08/25/2026 13:10 PDT, 3.19, 570.00
FALO3, 08/25/2026 13:05 PDT, 3.19, 570.00
FALO3, 08/25/2026 13:00 PDT, 3.19, 570.00
FALO3, 08/25/2026 12:55 PDT, 3.19, 570.00
FALO3, 08/25/2026 12:50 PDT, 3.19, 570.00
FALO3, 08/25/2026 12:45 PDT, 3.19, 570.00
FALO3, 08/25/2026 12:40 PDT, 3.19, 570.00
FALO3, 08/25/2026 12:35 PDT, 3.19, 570.00
FALO3, 08/25/2026 12:30 PDT, 3.19, 570.00
FALO3, 08/25/2026 12:25 PDT, 3.19, 570.00
FALO3, 08/25/2026 12:20 PDT, 3.19, 570.00
FALO3, 08/25/2026 12:15 PDT, 3.19, 570.00
FALO3, 08/25/2026 12:10 PDT, 3.19, 570.00
FALO3, 08/25/2026 12:05 PDT, 3.19, 570.00
FALO3, 08/25/2026 12:00 PDT, 3.19, 570.00
FALO3, 08/25/2026 11:55 PDT, 3.19, 570.00
FALO3, 08/25/2026 11:50 PDT, 3.19, 570.00
FALO3, 08/25/2026 11:45 PDT, 3.19, 570.00
FALO3, 08/25/2026 11:40 PDT, 3.19, 570.00
FALO3, 08/25/2026 11:35 PDT, 3.19, 570.00
FALO3, 08/25/2026 11:30 PDT, 3.19, 570.00
FALO3, 08/25/2026 11:25 PDT, 3.19, 570.00
FALO3, 08/25/2026 11:20 PDT, 3.19, 570.00
FALO3, 08/25/2026 11:15 PDT, 3.19, 570.00
FALO3, 08/25/2026 11:10 PDT, 3.20, 575.00
FALO3, 08/25/2026 11:05 PDT, 3.19, 570.00
FALO3, 08/25/2026 11:00 PDT, 3.20, 575.00
FALO3, 08/25/2026 10:55 PDT, 3.19, 570.00
FALO3, 08/25/2026 10:50 PDT, 3.19, 570.00
FALO3, 08/25/2026 10:45 PDT, 3.19, 570.00
FALO3, 08/25/2026 10:40 PDT, 3.19, 570.00
FALO3, 08/25/2026 10:35 PDT, 3.19, 570.00
FALO3, 08/25/2026 10:30 PDT, 3.19, 570.00
FALO3, 08/25/2026 10:25 PDT, 3.19, 570.00
FALO3, 08/25/2026 10:20 PDT, 3.19, 570.00
FALO3, 08/25/2026 10:15 PDT, 3.19, 570.00
FALO3, 08/25/2026 10:10 PDT, 3.19, 570.00
FALO3, 08/25/2026 10:05 PDT, 3.19, 570.00
FALO3, 08/25/2026 10:00 PDT, 3.20, 575.00
FALO3, 08/25/2026 09:55 PDT, 3.19, 570.00
FALO3, 08/25/2026 09:50 PDT, 3.20, 575.00
FALO3, 08/25/2026 09:45 PDT, 3.20, 575.00
FALO3, 08/25/2026 09:40 PDT, 3.19, 570.00
FALO3, 08/25/2026 09:35 PDT, 3.19, 570.00
FALO3, 08/25/2026 09:30 PDT, 3.19, 570.00
FALO3, 08/25/2026 09:25 PDT, 3.19, 570.00
FALO3, 08/25/2026 09:20 PDT, 3.19, 570.00
FALO3, 08/25/2026 09:15 PDT, 3.19, 570.00
FALO3, 08/25/2026 09:10 PDT, 3.19, 570.00
FALO3, 08/25/2026 09:05 PDT, 3.20, 575.00
FALO3, 08/25/2026 09:00 PDT, 3.19, 570.00
FALO3, 08/25/2026 08:55 PDT, 3.19, 570.00
FALO3, 08/25/2026 08:50 PDT, 3.19, 570.00
FALO3, 08/25/2026 08:45 PDT, 3.19, 570.00
FALO3, 08/25/2026 08:40 PDT, 3.19, 570.00
FALO3, 08/25/2026 08:35 PDT, 3.19, 570.00
FALO3, 08/25/2026 08:30 PDT, 3.19, 570.00
FALO3, 08/25/2026 08:25 PDT, 3.19, 570.00
FALO3, 08/25/2026 08:20 PDT, 3.19, 570.00
FALO3, 08/25/2026 08:15 PDT, 3.19, 570.00
FALO3, 08/25/2026 08:10 PDT, 3.19, 570.00
FALO3, 08/25/2026 08:05 PDT, 3.20, 575.00
FALO3, 08/25/2026 08:00 PDT, 3.19, 570.00
FALO3, 08/25/2026 07:55 PDT, 3.20, 575.00
FALO3, 08/25/2026 07:50 PDT, 3.19, 570.00
FALO3, 08/25/2026 07:45 PDT, 3.19, 570.00
FALO3, 08/25/2026 07:40 PDT, 3.19, 570.00
FALO3, 08/25/2026 07:35 PDT, 3.19, 570.00
FALO3, 08/25/2026 07:30 PDT, 3.20, 575.00
FALO3, 08/25/2026 07:25 PDT, 3.20, 575.00
FALO3, 08/25/2026 07:20 PDT, 3.20, 575.00
FALO3, 08/25/2026 07:15 PDT, 3.20, 575.00
FALO3, 08/25/2026 07:10 PDT, 3.20, 575.00
FALO3, 08/25/2026 07:05 PDT, 3.20, 575.00
FALO3, 08/25/2026 07:00 PDT, 3.20, 575.00
FALO3, 08/25/2026 06:55 PDT, 3.20, 575.00
FALO3, 08/25/2026 06:50 PDT, 3.20, 575.00
FALO3, 08/25/2026 06:45 PDT, 3.20, 575.00
FALO3, 08/25/2026 06:40 PDT, 3.19, 570.00
FALO3, 08/25/2026 06:35 PDT, 3.19, 570.00
FALO3, 08/25/2026 06:30 PDT, 3.19, 570.00
FALO3, 08/25/2026 06:25 PDT, 3.20, 575.00
FALO3, 08/25/2026 06:20 PDT, 3.20, 575.00
FALO3, 08/25/2026 06:15 PDT, 3.19, 570.00
FALO3, 08/25/2026 06:10 PDT, 3.20, 575.00
FALO3, 08/25/2026 06:05 PDT, 3.20, 575.00
FALO3, 08/25/2026 06:00 PDT, 3.20, 575.00
FALO3, 08/25/2026 05:55 PDT, 3.20, 575.00
FALO3, 08/25/2026 05:50 PDT, 3.20, 575.00
FALO3, 08/25/2026 05:45 PDT, 3.20, 575.00
FALO3, 08/25/2026 05:40 PDT, 3.20, 575.00
FALO3, 08/25/2026 05:35 PDT, 3.20, 575.00
FALO3, 08/25/2026 05:30 PDT, 3.20, 575.00
FALO3, 08/25/2026 05:25 PDT, 3.20, 575.00
FALO3, 08/25/2026 05:20 PDT, 3.20, 575.00
FALO3, 08/25/2026 05:15 PDT, 3.20, 575.00
FALO3, 08/25/2026 05:10 PDT, 3.20, 575.00
FALO3, 08/25/2026 05:05 PDT, 3.20, 575.00
FALO3, 08/25/2026 05:00 PDT, 3.20, 575.00
FALO3, 08/25/2026 04:55 PDT, 3.20, 575.00
FALO3, 08/25/2026 04:50 PDT, 3.20, 575.00
FALO3, 08/25/2026 04:45 PDT, 3.20, 575.00
FALO3, 08/25/2026 04:40 PDT, 3.20, 575.00
FALO3, 08/25/2026 04:35 PDT, 3.20, 575.00
FALO3, 08/25/2026 04:30 PDT, 3.20, 575.00
FALO3, 08/25/2026 04:25 PDT, 3.20, 575.00
FALO3, 08/25/2026 04:20 PDT, 3.19, 570.00
FALO3, 08/25/2026 04:15 PDT, 3.20, 575.00
FALO3, 08/25/2026 04:10 PDT, 3.20, 575.00
FALO3, 08/25/2026 04:05 PDT, 3.20, 575.00
FALO3, 08/25/2026 04:00 PDT, 3.20, 575.00
FALO3, 08/25/2026 03:55 PDT, 3.20, 575.00
FALO3, 08/25/2026 03:50 PDT, 3.20, 575.00
FALO3, 08/25/2026 03:45 PDT, 3.20, 575.00
FALO3, 08/25/2026 03:40 PDT, 3.20, 575.00
FALO3, 08/25/2026 03:35 PDT, 3.20, 575.00
FALO3, 08/25/2026 03:30 PDT, 3.20, 575.00
FALO3, 08/25/2026 03:25 PDT, 3.20, 575.00
FALO3, 08/25/2026 03:20 PDT, 3.20, 575.00
FALO3, 08/25/2026 03:15 PDT, 3.20, 575.00
FALO3, 08/25/2026 03:10 PDT, 3.20, 575.00
FALO3, 08/25/2026 03:05 PDT, 3.20, 575.00
FALO3, 08/25/2026 03:00 PDT, 3.20, 575.00
FALO3, 08/25/2026 02:55 PDT, 3.20, 575.00
FALO3, 08/25/2026 02:50 PDT, 3.20, 575.00
FALO3, 08/25/2026 02:45 PDT, 3.19, 570.00
FALO3, 08/25/2026 02:40 PDT, 3.20, 575.00
FALO3, 08/25/2026 02:35 PDT, 3.20, 575.00
FALO3, 08/25/2026 02:30 PDT, 3.20, 575.00
FALO3, 08/25/2026 02:25 PDT, 3.20, 575.00
FALO3, 08/25/2026 02:20 PDT, 3.20, 575.00
FALO3, 08/25/2026 02:15 PDT, 3.20, 575.00
FALO3, 08/25/2026 02:10 PDT, 3.20, 575.00
FALO3, 08/25/2026 02:05 PDT, 3.20, 575.00
FALO3, 08/25/2026 02:00 PDT, 3.20, 575.00
FALO3, 08/25/2026 01:55 PDT, 3.20, 575.00
FALO3, 08/25/2026 01:50 PDT, 3.20, 575.00
FALO3, 08/25/2026 01:45 PDT, 3.20, 575.00
FALO3, 08/25/2026 01:40 PDT, 3.20, 575.00
FALO3, 08/25/2026 01:35 PDT, 3.20, 575.00
FALO3, 08/25/2026 01:30 PDT, 3.20, 575.00
FALO3, 08/25/2026 01:25 PDT, 3.20, 575.00
FALO3, 08/25/2026 01:20 PDT, 3.20, 575.00
FALO3, 08/25/2026 01:15 PDT, 3.20, 575.00
FALO3, 08/25/2026 01:10 PDT, 3.20, 575.00
FALO3, 08/25/2026 01:05 PDT, 3.20, 575.00
FALO3, 08/25/2026 01:00 PDT, 3.20, 575.00
FALO3, 08/25/2026 00:55 PDT, 3.20, 575.00
FALO3, 08/25/2026 00:50 PDT, 3.20, 575.00
FALO3, 08/25/2026 00:45 PDT, 3.19, 570.00
FALO3, 08/25/2026 00:40 PDT, 3.20, 575.00
FALO3, 08/25/2026 00:35 PDT, 3.20, 575.00
FALO3, 08/25/2026 00:30 PDT, 3.20, 575.00
FALO3, 08/25/2026 00:25 PDT, 3.20, 575.00
FALO3, 08/25/2026 00:20 PDT, 3.20, 575.00
FALO3, 08/25/2026 00:15 PDT, 3.20, 575.00
FALO3, 08/25/2026 00:10 PDT, 3.20, 575.00
FALO3, 08/25/2026 00:05 PDT, 3.20, 575.00
FALO3, 08/25/2026 00:00 PDT, 3.20, 575.00
FALO3, 08/24/2026 23:55 PDT, 3.19, 570.00
FALO3, 08/24/2026 23:50 PDT, 3.19, 570.00
FALO3, 08/24/2026 23:45 PDT, 3.19, 570.00
FALO3, 08/24/2026 23:40 PDT, 3.19, 570.00
FALO3, 08/24/2026 23:35 PDT, 3.20, 575.00
FALO3, 08/24/2026 23:30 PDT, 3.20, 575.00
FALO3, 08/24/2026 23:25 PDT, 3.20, 575.00
FALO3, 08/24/2026 23:20 PDT, 3.20, 575.00
FALO3, 08/24/2026 23:15 PDT, 3.20, 575.00
FALO3, 08/24/2026 23:10 PDT, 3.20, 575.00
FALO3, 08/24/2026 23:05 PDT, 3.20, 575.00
FALO3, 08/24/2026 23:00 PDT, 3.20, 575.00
FALO3, 08/24/2026 22:55 PDT, 3.20, 575.00
FALO3, 08/24/2026 22:50 PDT, 3.20, 575.00
FALO3, 08/24/2026 22:45 PDT, 3.20, 575.00
FALO3, 08/24/2026 22:40 PDT, 3.20, 575.00
FALO3, 08/24/2026 22:35 PDT, 3.20, 575.00
FALO3, 08/24/2026 22:30 PDT, 3.20, 575.00
FALO3, 08/24/2026 22:25 PDT, 3.19, 570.00
FALO3, 08/24/2026 22:20 PDT, 3.20, 575.00
FALO3, 08/24/2026 22:15 PDT, 3.20, 575.00
FALO3, 08/24/2026 22:10 PDT, 3.20, 575.00
FALO3, 08/24/2026 22:05 PDT, 3.20, 575.00
FALO3, 08/24/2026 22:00 PDT, 3.19, 570.00
FALO3, 08/24/2026 21:55 PDT, 3.19, 570.00
FALO3, 08/24/2026 21:50 PDT, 3.19, 570.00
FALO3, 08/24/2026 21:45 PDT, 3.19, 570.00
FALO3, 08/24/2026 21:40 PDT, 3.20, 575.00
FALO3, 08/24/2026 21:35 PDT, 3.20, 575.00
FALO3, 08/24/2026 21:30 PDT, 3.20, 575.00
FALO3, 08/24/2026 21:25 PDT, 3.19, 570.00
FALO3, 08/24/2026 21:20 PDT, 3.19, 570.00
FALO3, 08/24/2026 21:15 PDT, 3.19, 570.00
FALO3, 08/24/2026 21:10 PDT, 3.20, 575.00
FALO3, 08/24/2026 21:05 PDT, 3.20, 575.00
FALO3, 08/24/2026 21:00 PDT, 3.20, 575.00
FALO3, 08/24/2026 20:55 PDT, 3.20, 575.00
FALO3, 08/24/2026 20:50 PDT, 3.19, 570.00
FALO3, 08/24/2026 20:45 PDT, 3.20, 575.00
FALO3, 08/24/2026 20:40 PDT, 3.20, 575.00
FALO3, 08/24/2026 20:35 PDT, 3.19, 570.00
FALO3, 08/24/2026 20:30 PDT, 3.20, 575.00
FALO3, 08/24/2026 20:25 PDT, 3.20, 575.00
FALO3, 08/24/2026 20:20 PDT, 3.20, 575.00
FALO3, 08/24/2026 20:15 PDT, 3.19, 570.00
FALO3, 08/24/2026 20:10 PDT, 3.20, 575.00
FALO3, 08/24/2026 20:05 PDT, 3.19, 570.00
FALO3, 08/24/2026 20:00 PDT, 3.19, 570.00
FALO3, 08/24/2026 19:55 PDT, 3.20, 575.00
FALO3, 08/24/2026 19:50 PDT, 3.20, 575.00
FALO3, 08/24/2026 19:45 PDT, 3.19, 570.00
FALO3, 08/24/2026 19:40 PDT, 3.19, 570.00
FALO3, 08/24/2026 19:35 PDT, 3.20, 575.00
FALO3, 08/24/2026 19:30 PDT, 3.20, 575.00
FALO3, 08/24/2026 19:25 PDT, 3.20, 575.00
FALO3, 08/24/2026 19:20 PDT, 3.19, 570.00
FALO3, 08/24/2026 19:15 PDT, 3.19, 570.00
FALO3, 08/24/2026 19:10 PDT, 3.20, 575.00
FALO3, 08/24/2026 19:05 PDT, 3.20, 575.00
FALO3, 08/24/2026 19:00 PDT, 3.19, 570.00
FALO3, 08/24/2026 18:55 PDT, 3.20, 575.00
FALO3, 08/24/2026 18:50 PDT, 3.20, 575.00
FALO3, 08/24/2026 18:45 PDT, 3.20, 575.00
FALO3, 08/24/2026 18:40 PDT, 3.20, 575.00
FALO3, 08/24/2026 18:35 PDT, 3.20, 575.00
FALO3, 08/24/2026 18:30 PDT, 3.19, 570.00
FALO3, 08/24/2026 18:25 PDT, 3.19, 570.00
FALO3, 08/24/2026 18:20 PDT, 3.19, 570.00
FALO3, 08/24/2026 18:15 PDT, 3.19, 570.00
FALO3, 08/24/2026 18:10 PDT, 3.19, 570.00
FALO3, 08/24/2026 18:05 PDT, 3.19, 570.00
FALO3, 08/24/2026 18:00 PDT, 3.20, 575.00
FALO3, 08/24/2026 17:55 PDT, 3.19, 570.00
FALO3, 08/24/2026 17:50 PDT, 3.19, 570.00
FALO3, 08/24/2026 17:45 PDT, 3.19, 570.00
FALO3, 08/24/2026 17:40 PDT, 3.20, 575.00
FALO3, 08/24/2026 17:35 PDT, 3.19, 570.00
FALO3, 08/24/2026 17:30 PDT, 3.20, 575.00
FALO3, 08/24/2026 17:25 PDT, 3.19, 570.00
FALO3, 08/24/2026 17:20 PDT, 3.19, 570.00
FALO3, 08/24/2026 17:15 PDT, 3.19, 570.00
FALO3, 08/24/2026 17:10 PDT, 3.19, 570.00
FALO3, 08/24/2026 17:05 PDT, 3.19, 570.00
FALO3, 08/24/2026 17:00 PDT, 3.19, 570.00
FALO3, 08/24/2026 16:55 PDT, 3.20, 575.00
FALO3, 08/24/2026 16:50 PDT, 3.20, 575.00
FALO3, 08/24/2026 16:45 PDT, 3.19, 570.00
FALO3, 08/24/2026 16:40 PDT, 3.19, 570.00
FALO3, 08/24/2026 16:35 PDT, 3.19, 570.00
FALO3, 08/24/2026 16:30 PDT, 3.19, 570.00
FALO3, 08/24/2026 16:25 PDT, 3.20, 575.00
FALO3, 08/24/2026 16:20 PDT, 3.19, 570.00
FALO3, 08/24/2026 16:15 PDT, 3.19, 570.00
FALO3, 08/24/2026 16:10 PDT, 3.19, 570.00
FALO3, 08/24/2026 16:05 PDT, 3.19, 570.00
FALO3, 08/24/2026 16:00 PDT, 3.19, 570.00
FALO3, 08/24/2026 15:55 PDT, 3.19, 570.00
FALO3, 08/24/2026 15:50 PDT, 3.20, 575.00
FALO3, 08/24/2026 15:45 PDT, 3.20, 575.00
FALO3, 08/24/2026 15:40 PDT, 3.19, 570.00
FALO3, 08/24/2026 15:35 PDT, 3.18, 565.00
FALO3, 08/24/2026 15:30 PDT, 3.19, 570.00
FALO3, 08/24/2026 15:25 PDT, 3.19, 570.00
FALO3, 08/24/2026 15:20 PDT, 3.19, 570.00
FALO3, 08/24/2026 15:15 PDT, 3.20, 575.00
FALO3, 08/24/2026 15:10 PDT, 3.19, 570.00
FALO3, 08/24/2026 15:05 PDT, 3.19, 570.00
FALO3, 08/24/2026 15:00 PDT, 3.19, 570.00
FALO3, 08/24/2026 14:55 PDT, 3.20, 575.00
FALO3, 08/24/2026 14:50 PDT, 3.19, 570.00
FALO3, 08/24/2026 14:45 PDT, 3.19, 570.00
FALO3, 08/24/2026 14:40 PDT, 3.20, 575.00
FALO3, 08/24/2026 14:35 PDT, 3.19, 570.00
FALO3, 08/24/2026 14:30 PDT, 3.19, 570.00
FALO3, 08/24/2026 14:25 PDT, 3.20, 575.00
FALO3, 08/24/2026 14:20 PDT, 3.20, 575.00
FALO3, 08/24/2026 14:15 PDT, 3.20, 575.00
FALO3, 08/24/2026 14:10 PDT, 3.19, 570.00
FALO3, 08/24/2026 14:05 PDT, 3.20, 575.00
FALO3, 08/24/2026 14:00 PDT, 3.20, 575.00
FALO3, 08/24/2026 13:55 PDT, 3.20, 575.00
FALO3, 08/24/2026 13:50 PDT, 3.20, 575.00
FALO3, 08/24/2026 13:45 PDT, 3.20, 575.00
FALO3, 08/24/2026 13:40 PDT, 3.20, 575.00
FALO3, 08/24/2026 13:35 PDT, 3.19, 570.00
FALO3, 08/24/2026 13:30 PDT, 3.19, 570.00
FALO3, 08/24/2026 13:25 PDT, 3.20, 575.00
FALO3, 08/24/2026 13:20 PDT, 3.19, 570.00
FALO3, 08/24/2026 13:15 PDT, 3.19, 570.00
FALO3, 08/24/2026 13:10 PDT, 3.19, 570.00
FALO3, 08/24/2026 13:05 PDT, 3.20, 575.00
FALO3, 08/24/2026 13:00 PDT, 3.20, 575.00
FALO3, 08/24/2026 12:55 PDT, 3.20, 575.00
FALO3, 08/24/2026 12:50 PDT, 3.19, 570.00
FALO3, 08/24/2026 12:45 PDT, 3.19, 570.00
FALO3, 08/24/2026 12:40 PDT, 3.19, 570.00
FALO3, 08/24/2026 12:35 PDT, 3.20, 575.00
FALO3, 08/24/2026 12:30 PDT, 3.20, 575.00
FALO3, 08/24/2026 12:25 PDT, 3.20, 575.00
FALO3, 08/24/2026 12:20 PDT, 3.19, 570.00
FALO3, 08/24/2026 12:15 PDT, 3.20, 575.00
FALO3, 08/24/2026 12:10 PDT, 3.20, 575.00
FALO3, 08/24/2026 12:05 PDT, 3.20, 575.00
FALO3, 08/24/2026 12:00 PDT, 3.20, 575.00
FALO3, 08/24/2026 11:55 PDT, 3.20, 575.00
FALO3, 08/24/2026 11:50 PDT, 3.20, 575.00
FALO3, 08/24/2026 11:45 PDT, 3.20, 575.00
FALO3, 08/24/2026 11:40 PDT, 3.20, 575.00
FALO3, 08/24/2026 11:35 PDT, 3.20, 575.00
FALO3, 08/24/2026 11:30 PDT, 3.20, 575.00
FALO3, 08/24/2026 11:25 PDT, 3.20, 575.00
FALO3, 08/24/2026 11:20 PDT, 3.20, 575.00
FALO3, 08/24/2026 11:15 PDT, 3.20, 575.00
FALO3, 08/24/2026 11:10 PDT, 3.20, 575.00
FALO3, 08/24/2026 11:05 PDT, 3.20, 575.00
FALO3, 08/24/2026 11:00 PDT, 3.20, 575.00
FALO3, 08/24/2026 10:55 PDT, 3.20, 575.00
FALO3, 08/24/2026 10:50 PDT, 3.20, 575.00
FALO3, 08/24/2026 10:45 PDT, 3.19, 570.00
FALO3, 08/24/2026 10:40 PDT, 3.20, 575.00
FALO3, 08/24/2026 10:35 PDT, 3.20, 575.00
FALO3, 08/24/2026 10:30 PDT, 3.20, 575.00
FALO3, 08/24/2026 10:25 PDT, 3.20, 575.00
FALO3, 08/24/2026 10:20 PDT, 3.20, 575.00
FALO3, 08/24/2026 10:15 PDT, 3.20, 575.00
FALO3, 08/24/2026 10:10 PDT, 3.19, 570.00
FALO3, 08/24/2026 10:05 PDT, 3.20, 575.00
FALO3, 08/24/2026 10:00 PDT, 3.20, 575.00
FALO3, 08/24/2026 09:55 PDT, 3.20, 575.00
FALO3, 08/24/2026 09:50 PDT, 3.20, 575.00
FALO3, 08/24/2026 09:45 PDT, 3.20, 575.00
FALO3, 08/24/2026 09:40 PDT, 3.20, 575.00
FALO3, 08/24/2026 09:35 PDT, 3.20, 575.00
FALO3, 08/24/2026 09:30 PDT, 3.20, 575.00
FALO3, 08/24/2026 09:25 PDT, 3.20, 575.00
FALO3, 08/24/2026 09:20 PDT, 3.20, 575.00
FALO3, 08/24/2026 09:15 PDT, 3.20, 575.00
FALO3, 08/24/2026 09:10 PDT, 3.20, 575.00
FALO3, 08/24/2026 09:05 PDT, 3.20, 575.00
FALO3, 08/24/2026 09:00 PDT, 3.20, 575.00
FALO3, 08/24/2026 08:55 PDT, 3.20, 575.00
FALO3, 08/24/2026 08:50 PDT, 3.20, 575.00
FALO3, 08/24/2026 08:45 PDT, 3.20, 575.00
FALO3, 08/24/2026 08:40 PDT, 3.20, 575.00
FALO3, 08/24/2026 08:35 PDT, 3.19, 570.00
FALO3, 08/24/2026 08:30 PDT, 3.20, 575.00
FALO3, 08/24/2026 08:25 PDT, 3.20, 575.00
FALO3, 08/24/2026 08:20 PDT, 3.20, 575.00
FALO3, 08/24/2026 08:15 PDT, 3.20, 575.00
FALO3, 08/24/2026 08:10 PDT, 3.20, 575.00
FALO3, 08/24/2026 08:05 PDT, 3.20, 575.00
FALO3, 08/24/2026 08:00 PDT, 3.20, 575.00
FALO3, 08/24/2026 07:55 PDT, 3.20, 575.00
FALO3, 08/24/2026 07:50 PDT, 3.19, 570.00
FALO3, 08/24/2026 07:45 PDT, 3.20, 575.00
FALO3, 08/24/2026 07:40 PDT, 3.20, 575.00
FALO3, 08/24/2026 07:35 PDT, 3.20, 575.00
FALO3, 08/24/2026 07:30 PDT, 3.20, 575.00
FALO3, 08/24/2026 07:25 PDT, 3.20, 575.00
FALO3, 08/24/2026 07:20 PDT, 3.20, 575.00
FALO3, 08/24/2026 07:15 PDT, 3.20, 575.00
FALO3, 08/24/2026 07:10 PDT, 3.20, 575.00
FALO3, 08/24/2026 07:05 PDT, 3.20, 575.00
FALO3, 08/24/2026 07:00 PDT, 3.20, 575.00
FALO3, 08/24/2026 06:55 PDT, 3.20, 575.00
FALO3, 08/24/2026 06:50 PDT, 3.20, 575.00
FALO3, 08/24/2026 06:45 PDT, 3.20, 575.00
FALO3, 08/24/2026 06:40 PDT, 3.20, 575.00
FALO3, 08/24/2026 06:35 PDT, 3.20, 575.00
FALO3, 08/24/2026 06:30 PDT, 3.20, 575.00
FALO3, 08/24/2026 06:25 PDT, 3.20, 575.00
FALO3, 08/24/2026 06:20 PDT, 3.20, 575.00
FALO3, 08/24/2026 06:15 PDT, 3.20, 575.00
FALO3, 08/24/2026 06:10 PDT, 3.20, 575.00
FALO3, 08/24/2026 06:05 PDT, 3.20, 575.00
FALO3, 08/24/2026 06:00 PDT, 3.20, 575.00
FALO3, 08/24/2026 05:55 PDT, 3.20, 575.00
FALO3, 08/24/2026 05:50 PDT, 3.20, 575.00
FALO3, 08/24/2026 05:45 PDT, 3.20, 575.00
FALO3, 08/24/2026 05:40 PDT, 3.20, 575.00
FALO3, 08/24/2026 05:35 PDT, 3.20, 575.00
FALO3, 08/24/2026 05:30 PDT, 3.20, 575.00
FALO3, 08/24/2026 05:25 PDT, 3.20, 575.00
FALO3, 08/24/2026 05:20 PDT, 3.20, 575.00
FALO3, 08/24/2026 05:15 PDT, 3.20, 575.00
FALO3, 08/24/2026 05:10 PDT, 3.20, 575.00
FALO3, 08/24/2026 05:05 PDT, 3.20, 575.00
FALO3, 08/24/2026 05:00 PDT, 3.20, 575.00
FALO3, 08/24/2026 04:55 PDT, 3.20, 575.00
FALO3, 08/24/2026 04:50 PDT, 3.20, 575.00
FALO3, 08/24/2026 04:45 PDT, 3.20, 575.00
FALO3, 08/24/2026 04:40 PDT, 3.19, 570.00
FALO3, 08/24/2026 04:35 PDT, 3.19, 570.00
FALO3, 08/24/2026 04:30 PDT, 3.20, 575.00
FALO3, 08/24/2026 04:25 PDT, 3.20, 575.00
FALO3, 08/24/2026 04:20 PDT, 3.20, 575.00
FALO3, 08/24/2026 04:15 PDT, 3.20, 575.00
FALO3, 08/24/2026 04:10 PDT, 3.20, 575.00
FALO3, 08/24/2026 04:05 PDT, 3.20, 575.00
FALO3, 08/24/2026 04:00 PDT, 3.20, 575.00
FALO3, 08/24/2026 03:55 PDT, 3.20, 575.00
FALO3, 08/24/2026 03:50 PDT, 3.20, 575.00
FALO3, 08/24/2026 03:45 PDT, 3.20, 575.00
FALO3, 08/24/2026 03:40 PDT, 3.20, 575.00
FALO3, 08/24/2026 03:35 PDT, 3.20, 575.00
FALO3, 08/24/2026 03:30 PDT, 3.20, 575.00
FALO3, 08/24/2026 03:25 PDT, 3.21, 580.00
FALO3, 08/24/2026 03:20 PDT, 3.20, 575.00
FALO3, 08/24/2026 03:15 PDT, 3.20, 575.00
FALO3, 08/24/2026 03:10 PDT, 3.20, 575.00
FALO3, 08/24/2026 03:05 PDT, 3.20, 575.00
FALO3, 08/24/2026 03:00 PDT, 3.20, 575.00
FALO3, 08/24/2026 02:55 PDT, 3.20, 575.00
FALO3, 08/24/2026 02:50 PDT, 3.21, 580.00
FALO3, 08/24/2026 02:45 PDT, 3.21, 580.00
FALO3, 08/24/2026 02:40 PDT, 3.21, 580.00
FALO3, 08/24/2026 02:35 PDT, 3.20, 575.00
FALO3, 08/24/2026 02:30 PDT, 3.20, 575.00
FALO3, 08/24/2026 02:25 PDT, 3.20, 575.00
FALO3, 08/24/2026 02:20 PDT, 3.20, 575.00
FALO3, 08/24/2026 02:15 PDT, 3.20, 575.00
FALO3, 08/24/2026 02:10 PDT, 3.20, 575.00
FALO3, 08/24/2026 02:05 PDT, 3.21, 580.00
FALO3, 08/24/2026 02:00 PDT, 3.21, 580.00
FALO3, 08/24/2026 01:55 PDT, 3.20, 575.00
FALO3, 08/24/2026 01:50 PDT, 3.20, 575.00
FALO3, 08/24/2026 01:45 PDT, 3.20, 575.00
FALO3, 08/24/2026 01:40 PDT, 3.20, 575.00
FALO3, 08/24/2026 01:35 PDT, 3.20, 575.00
FALO3, 08/24/2026 01:30 PDT, 3.20, 575.00
FALO3, 08/24/2026 01:25 PDT, 3.20, 575.00
FALO3, 08/24/2026 01:20 PDT, 3.20, 575.00
FALO3, 08/24/2026 01:15 PDT, 3.20, 575.00
FALO3, 08/24/2026 01:10 PDT, 3.20, 575.00
FALO3, 08/24/2026 01:05 PDT, 3.21, 580.00
FALO3, 08/24/2026 01:00 PDT, 3.21, 580.00
FALO3, 08/24/2026 00:55 PDT, 3.20, 575.00
FALO3, 08/24/2026 00:50 PDT, 3.20, 575.00
FALO3, 08/24/2026 00:45 PDT, 3.21, 580.00
FALO3, 08/24/2026 00:40 PDT, 3.21, 580.00
FALO3, 08/24/2026 00:35 PDT, 3.20, 575.00
FALO3, 08/24/2026 00:30 PDT, 3.20, 575.00
FALO3, 08/24/2026 00:25 PDT, 3.20, 575.00
FALO3, 08/24/2026 00:20 PDT, 3.21, 580.00
FALO3, 08/24/2026 00:15 PDT, 3.21, 580.00
FALO3, 08/24/2026 00:10 PDT, 3.20, 575.00
FALO3, 08/24/2026 00:05 PDT, 3.20, 575.00
FALO3, 08/24/2026 00:00 PDT, 3.20, 575.00
FALO3, 08/23/2026 23:55 PDT, 3.21, 580.00
FALO3, 08/23/2026 23:50 PDT, 3.20, 575.00
FALO3, 08/23/2026 23:45 PDT, 3.20, 575.00
FALO3, 08/23/2026 23:40 PDT, 3.20, 575.00
FALO3, 08/23/2026 23:35 PDT, 3.20, 575.00
FALO3, 08/23/2026 23:30 PDT, 3.20, 575.00
FALO3, 08/23/2026 23:25 PDT, 3.21, 580.00
FALO3, 08/23/2026 23:20 PDT, 3.20, 575.00
FALO3, 08/23/2026 23:15 PDT, 3.20, 575.00
FALO3, 08/23/2026 23:10 PDT, 3.20, 575.00
FALO3, 08/23/2026 23:05 PDT, 3.20, 575.00
FALO3, 08/23/2026 23:00 PDT, 3.20, 575.00
FALO3, 08/23/2026 22:55 PDT, 3.20, 575.00
FALO3, 08/23/2026 22:50 PDT, 3.20, 575.00
FALO3, 08/23/2026 22:45 PDT, 3.20, 575.00
FALO3, 08/23/2026 22:40 PDT, 3.20, 575.00
FALO3, 08/23/2026 22:35 PDT, 3.20, 575.00
FALO3, 08/23/2026 22:30 PDT, 3.20, 575.00
FALO3, 08/23/2026 22:25 PDT, 3.20, 575.00
FALO3, 08/23/2026 22:20 PDT, 3.20, 575.00
FALO3, 08/23/2026 22:15 PDT, 3.21, 580.00
FALO3, 08/23/2026 22:10 PDT, 3.20, 575.00
FALO3, 08/23/2026 22:05 PDT, 3.20, 575.00
FALO3, 08/23/2026 22:00 PDT, 3.20, 575.00
FALO3, 08/23/2026 21:55 PDT, 3.20, 575.00
FALO3, 08/23/2026 21:50 PDT, 3.20, 575.00
FALO3, 08/23/2026 21:45 PDT, 3.20, 575.00
FALO3, 08/23/2026 21:40 PDT, 3.20, 575.00
FALO3, 08/23/2026 21:35 PDT, 3.20, 575.00
FALO3, 08/23/2026 21:30 PDT, 3.20, 575.00
FALO3, 08/23/2026 21:25 PDT, 3.20, 575.00
FALO3, 08/23/2026 21:20 PDT, 3.20, 575.00
FALO3, 08/23/2026 21:15 PDT, 3.20, 575.00
FALO3, 08/23/2026 21:10 PDT, 3.20, 575.00
FALO3, 08/23/2026 21:05 PDT, 3.20, 575.00
FALO3, 08/23/2026 21:00 PDT, 3.20, 575.00
FALO3, 08/23/2026 20:55 PDT, 3.20, 575.00
FALO3, 08/23/2026 20:50 PDT, 3.20, 575.00
FALO3, 08/23/2026 20:45 PDT, 3.21, 580.00
FALO3, 08/23/2026 20:40 PDT, 3.20, 575.00
FALO3, 08/23/2026 20:35 PDT, 3.20, 575.00
FALO3, 08/23/2026 20:30 PDT, 3.20, 575.00
FALO3, 08/23/2026 20:25 PDT, 3.20, 575.00
FALO3, 08/23/2026 20:20 PDT, 3.20, 575.00
FALO3, 08/23/2026 20:15 PDT, 3.20, 575.00
FALO3, 08/23/2026 20:10 PDT, 3.21, 580.00
FALO3, 08/23/2026 20:05 PDT, 3.20, 575.00
FALO3, 08/23/2026 20:00 PDT, 3.20, 575.00
FALO3, 08/23/2026 19:55 PDT, 3.20, 575.00
FALO3, 08/23/2026 19:50 PDT, 3.20, 575.00
FALO3, 08/23/2026 19:45 PDT, 3.20, 575.00
FALO3, 08/23/2026 19:40 PDT, 3.20, 575.00
FALO3, 08/23/2026 19:35 PDT, 3.20, 575.00
FALO3, 08/23/2026 19:30 PDT, 3.20, 575.00
FALO3, 08/23/2026 19:25 PDT, 3.20, 575.00
FALO3, 08/23/2026 19:20 PDT, 3.20, 575.00
FALO3, 08/23/2026 19:15 PDT, 3.20, 575.00
FALO3, 08/23/2026 19:10 PDT, 3.20, 575.00
FALO3, 08/23/2026 19:05 PDT, 3.20, 575.00
FALO3, 08/23/2026 19:00 PDT, 3.20, 575.00
FALO3, 08/23/2026 18:55 PDT, 3.20, 575.00
FALO3, 08/23/2026 18:50 PDT, 3.20, 575.00
FALO3, 08/23/2026 18:45 PDT, 3.20, 575.00
FALO3, 08/23/2026 18:40 PDT, 3.20, 575.00
FALO3, 08/23/2026 18:35 PDT, 3.20, 575.00
FALO3, 08/23/2026 18:30 PDT, 3.20, 575.00
FALO3, 08/23/2026 18:25 PDT, 3.20, 575.00
FALO3, 08/23/2026 18:20 PDT, 3.20, 575.00
FALO3, 08/23/2026 18:15 PDT, 3.20, 575.00
FALO3, 08/23/2026 18:10 PDT, 3.20, 575.00
FALO3, 08/23/2026 18:05 PDT, 3.20, 575.00
FALO3, 08/23/2026 18:00 PDT, 3.20, 575.00
FALO3, 08/23/2026 17:55 PDT, 3.20, 575.00
FALO3, 08/23/2026 17:50 PDT, 3.20, 575.00
FALO3, 08/23/2026 17:45 PDT, 3.20, 575.00
FALO3, 08/23/2026 17:40 PDT, 3.20, 575.00
FALO3, 08/23/2026 17:35 PDT, 3.20, 575.00
FALO3, 08/23/2026 17:30 PDT, 3.20, 575.00
FALO3, 08/23/2026 17:25 PDT, 3.20, 575.00
FALO3, 08/23/2026 17:20 PDT, 3.20, 575.00
FALO3, 08/23/2026 17:15 PDT, 3.20, 575.00
FALO3, 08/23/2026 17:10 PDT, 3.20, 575.00
FALO3, 08/23/2026 17:05 PDT, 3.19, 570.00
FALO3, 08/23/2026 17:00 PDT, 3.19, 570.00
FALO3, 08/23/2026 16:55 PDT, 3.20, 575.00
FALO3, 08/23/2026 16:50 PDT, 3.20, 575.00
FALO3, 08/23/2026 16:45 PDT, 3.19, 570.00
FALO3, 08/23/2026 16:40 PDT, 3.20, 575.00
FALO3, 08/23/2026 16:35 PDT, 3.20, 575.00
FALO3, 08/23/2026 16:30 PDT, 3.20, 575.00
FALO3, 08/23/2026 16:25 PDT, 3.20, 575.00
FALO3, 08/23/2026 16:20 PDT, 3.20, 575.00
FALO3, 08/23/2026 16:15 PDT, 3.20, 575.00
FALO3, 08/23/2026 16:10 PDT, 3.20, 575.00
FALO3, 08/23/2026 16:05 PDT, 3.20, 575.00
FALO3, 08/23/2026 16:00 PDT, 3.20, 575.00
FALO3, 08/23/2026 15:55 PDT, 3.20, 575.00
FALO3, 08/23/2026 15:50 PDT, 3.20, 575.00
FALO3, 08/23/2026 15:45 PDT, 3.19, 570.00
FALO3, 08/23/2026 15:40 PDT, 3.20, 575.00
FALO3, 08/23/2026 15:35 PDT, 3.20, 575.00
FALO3, 08/23/2026 15:30 PDT, 3.20, 575.00
FALO3, 08/23/2026 15:25 PDT, 3.20, 575.00
FALO3, 08/23/2026 15:20 PDT, 3.20, 575.00
FALO3, 08/23/2026 15:15 PDT, 3.20, 575.00
FALO3, 08/23/2026 15:10 PDT, 3.20, 575.00
FALO3, 08/23/2026 15:05 PDT, 3.20, 575.00
FALO3, 08/23/2026 15:00 PDT, 3.20, 575.00
FALO3, 08/23/2026 14:55 PDT, 3.20, 575.00
FALO3, 08/23/2026 14:50 PDT, 3.20, 575.00
FALO3, 08/23/2026 14:45 PDT, 3.20, 575.00
FALO3, 08/23/2026 14:40 PDT, 3.20, 575.00
FALO3, 08/23/2026 14:35 PDT, 3.20, 575.00
FALO3, 08/23/2026 14:30 PDT, 3.20, 575.00
FALO3, 08/23/2026 14:25 PDT, 3.20, 575.00
FALO3, 08/23/2026 14:20 PDT, 3.20, 575.00
FALO3, 08/23/2026 14:15 PDT, 3.20, 575.00
FALO3, 08/23/2026 14:10 PDT, 3.20, 575.00
FALO3, 08/23/2026 14:05 PDT, 3.20, 575.00
FALO3, 08/23/2026 14:00 PDT, 3.20, 575.00
FALO3, 08/23/2026 13:55 PDT, 3.20, 575.00
FALO3, 08/23/2026 13:50 PDT, 3.20, 575.00
FALO3, 08/23/2026 13:45 PDT, 3.20, 575.00
FALO3, 08/23/2026 13:40 PDT, 3.21, 580.00
FALO3, 08/23/2026 13:35 PDT, 3.20, 575.00
FALO3, 08/23/2026 13:30 PDT, 3.20, 575.00
FALO3, 08/23/2026 13:25 PDT, 3.20, 575.00
FALO3, 08/23/2026 13:20 PDT, 3.20, 575.00
FALO3, 08/23/2026 13:15 PDT, 3.20, 575.00
FALO3, 08/23/2026 13:10 PDT, 3.20, 575.00
FALO3, 08/23/2026 13:05 PDT, 3.20, 575.00
FALO3, 08/23/2026 13:00 PDT, 3.21, 580.00
FALO3, 08/23/2026 12:55 PDT, 3.20, 575.00
FALO3, 08/23/2026 12:50 PDT, 3.20, 575.00
FALO3, 08/23/2026 12:45 PDT, 3.20, 575.00
FALO3, 08/23/2026 12:40 PDT, 3.20, 575.00
FALO3, 08/23/2026 12:35 PDT, 3.20, 575.00
FALO3, 08/23/2026 12:30 PDT, 3.19, 570.00
FALO3, 08/23/2026 12:25 PDT, 3.20, 575.00
FALO3, 08/23/2026 12:20 PDT, 3.20, 575.00
FALO3, 08/23/2026 12:15 PDT, 3.20, 575.00
FALO3, 08/23/2026 12:10 PDT, 3.20, 575.00
FALO3, 08/23/2026 12:05 PDT, 3.20, 575.00
FALO3, 08/23/2026 12:00 PDT, 3.20, 575.00
FALO3, 08/23/2026 11:55 PDT, 3.20, 575.00
FALO3, 08/23/2026 11:50 PDT, 3.20, 575.00
FALO3, 08/23/2026 11:45 PDT, 3.20, 575.00
FALO3, 08/23/2026 11:40 PDT, 3.20, 575.00
FALO3, 08/23/2026 11:35 PDT, 3.20, 575.00
FALO3, 08/23/2026 11:30 PDT, 3.20, 575.00
FALO3, 08/23/2026 11:25 PDT, 3.20, 575.00
FALO3, 08/23/2026 11:20 PDT, 3.20, 575.00
FALO3, 08/23/2026 11:15 PDT, 3.20, 575.00
FALO3, 08/23/2026 11:10 PDT, 3.20, 575.00
FALO3, 08/23/2026 11:05 PDT, 3.20, 575.00
FALO3, 08/23/2026 11:00 PDT, 3.21, 580.00
FALO3, 08/23/2026 10:55 PDT, 3.20, 575.00
FALO3, 08/23/2026 10:50 PDT, 3.20, 575.00
FALO3, 08/23/2026 10:45 PDT, 3.20, 575.00
FALO3, 08/23/2026 10:40 PDT, 3.21, 580.00
FALO3, 08/23/2026 10:35 PDT, 3.20, 575.00
FALO3, 08/23/2026 10:30 PDT, 3.20, 575.00
FALO3, 08/23/2026 10:25 PDT, 3.20, 575.00
FALO3, 08/23/2026 10:20 PDT, 3.20, 575.00
FALO3, 08/23/2026 10:15 PDT, 3.21, 580.00
FALO3, 08/23/2026 10:10 PDT, 3.21, 580.00
FALO3, 08/23/2026 10:05 PDT, 3.20, 575.00
FALO3, 08/23/2026 10:00 PDT, 3.20, 575.00
FALO3, 08/23/2026 09:55 PDT, 3.20, 575.00
FALO3, 08/23/2026 09:50 PDT, 3.20, 575.00
FALO3, 08/23/2026 09:45 PDT, 3.21, 580.00
FALO3, 08/23/2026 09:40 PDT, 3.21, 580.00
FALO3, 08/23/2026 09:35 PDT, 3.20, 575.00
FALO3, 08/23/2026 09:30 PDT, 3.20, 575.00
FALO3, 08/23/2026 09:25 PDT, 3.20, 575.00
FALO3, 08/23/2026 09:20 PDT, 3.20, 575.00
FALO3, 08/23/2026 09:15 PDT, 3.20, 575.00
FALO3, 08/23/2026 09:10 PDT, 3.20, 575.00
FALO3, 08/23/2026 09:05 PDT, 3.20, 575.00
FALO3, 08/23/2026 09:00 PDT, 3.21, 580.00
FALO3, 08/23/2026 08:55 PDT, 3.20, 575.00
FALO3, 08/23/2026 08:50 PDT, 3.20, 575.00
FALO3, 08/23/2026 08:45 PDT, 3.20, 575.00
FALO3, 08/23/2026 08:40 PDT, 3.20, 575.00
FALO3, 08/23/2026 08:35 PDT, 3.20, 575.00
FALO3, 08/23/2026 08:30 PDT, 3.20, 575.00
FALO3, 08/23/2026 08:25 PDT, 3.21, 580.00
FALO3, 08/23/2026 08:20 PDT, 3.20, 575.00
FALO3, 08/23/2026 08:15 PDT, 3.20, 575.00
FALO3, 08/23/2026 08:10 PDT, 3.21, 580.00
FALO3, 08/23/2026 08:05 PDT, 3.20, 575.00
FALO3, 08/23/2026 08:00 PDT, 3.20, 575.00
FALO3, 08/23/2026 07:55 PDT, 3.20, 575.00
FALO3, 08/23/2026 07:50 PDT, 3.20, 575.00
FALO3, 08/23/2026 07:45 PDT, 3.20, 575.00
FALO3, 08/23/2026 07:40 PDT, 3.21, 580.00
FALO3, 08/23/2026 07:35 PDT, 3.20, 575.00
FALO3, 08/23/2026 07:30 PDT, 3.20, 575.00
FALO3, 08/23/2026 07:25 PDT, 3.20, 575.00
FALO3, 08/23/2026 07:20 PDT, 3.20, 575.00
FALO3, 08/23/2026 07:15 PDT, 3.20, 575.00
FALO3, 08/23/2026 07:10 PDT, 3.20, 575.00
FALO3, 08/23/2026 07:05 PDT, 3.20, 575.00
FALO3, 08/23/2026 07:00 PDT, 3.20, 575.00
FALO3, 08/23/2026 06:55 PDT, 3.20, 575.00
FALO3, 08/23/2026 06:50 PDT, 3.20, 575.00
FALO3, 08/23/2026 06:45 PDT, 3.20, 575.00
FALO3, 08/23/2026 06:40 PDT, 3.20, 575.00
FALO3, 08/23/2026 06:35 PDT, 3.20, 575.00
FALO3, 08/23/2026 06:30 PDT, 3.20, 575.00
FALO3, 08/23/2026 06:25 PDT, 3.21, 580.00
FALO3, 08/23/2026 06:20 PDT, 3.20, 575.00
FALO3, 08/23/2026 06:15 PDT, 3.20, 575.00
FALO3, 08/23/2026 06:10 PDT, 3.21, 580.00
FALO3, 08/23/2026 06:05 PDT, 3.21, 580.00
FALO3, 08/23/2026 06:00 PDT, 3.20, 575.00
FALO3, 08/23/2026 05:55 PDT, 3.20, 575.00
FALO3, 08/23/2026 05:50 PDT, 3.20, 575.00
FALO3, 08/23/2026 05:45 PDT, 3.20, 575.00
FALO3, 08/23/2026 05:40 PDT, 3.20, 575.00
FALO3, 08/23/2026 05:35 PDT, 3.21, 580.00
FALO3, 08/23/2026 05:30 PDT, 3.20, 575.00
FALO3, 08/23/2026 05:25 PDT, 3.21, 580.00
FALO3, 08/23/2026 05:20 PDT, 3.20, 575.00
FALO3, 08/23/2026 05:15 PDT, 3.21, 580.00
FALO3, 08/23/2026 05:10 PDT, 3.21, 580.00
FALO3, 08/23/2026 05:05 PDT, 3.20, 575.00
FALO3, 08/23/2026 05:00 PDT, 3.20, 575.00
FALO3, 08/23/2026 04:55 PDT, 3.20, 575.00
FALO3, 08/23/2026 04:50 PDT, 3.20, 575.00
FALO3, 08/23/2026 04:45 PDT, 3.20, 575.00
FALO3, 08/23/2026 04:40 PDT, 3.20, 575.00
FALO3, 08/23/2026 04:35 PDT, 3.20, 575.00
FALO3, 08/23/2026 04:30 PDT, 3.20, 575.00
FALO3, 08/23/2026 04:25 PDT, 3.21, 580.00
FALO3, 08/23/2026 04:20 PDT, 3.20, 575.00
FALO3, 08/23/2026 04:15 PDT, 3.20, 575.00
FALO3, 08/23/2026 04:10 PDT, 3.20, 575.00
FALO3, 08/23/2026 04:05 PDT, 3.21, 580.00
FALO3, 08/23/2026 04:00 PDT, 3.20, 575.00
FALO3, 08/23/2026 03:55 PDT, 3.20, 575.00
FALO3, 08/23/2026 03:50 PDT, 3.20, 575.00
FALO3, 08/23/2026 03:45 PDT, 3.20, 575.00
FALO3, 08/23/2026 03:40 PDT, 3.21, 580.00
FALO3, 08/23/2026 03:35 PDT, 3.20, 575.00
FALO3, 08/23/2026 03:30 PDT, 3.21, 580.00
FALO3, 08/23/2026 03:25 PDT, 3.20, 575.00
FALO3, 08/23/2026 03:20 PDT, 3.21, 580.00
FALO3, 08/23/2026 03:15 PDT, 3.20, 575.00
FALO3, 08/23/2026 03:10 PDT, 3.21, 580.00
FALO3, 08/23/2026 03:05 PDT, 3.20, 575.00
FALO3, 08/23/2026 03:00 PDT, 3.20, 575.00
FALO3, 08/23/2026 02:55 PDT, 3.20, 575.00
FALO3, 08/23/2026 02:50 PDT, 3.20, 575.00
FALO3, 08/23/2026 02:45 PDT, 3.21, 580.00
FALO3, 08/23/2026 02:40 PDT, 3.20, 575.00
FALO3, 08/23/2026 02:35 PDT, 3.21, 580.00
FALO3, 08/23/2026 02:30 PDT, 3.21, 580.00
FALO3, 08/23/2026 02:25 PDT, 3.20, 575.00
FALO3, 08/23/2026 02:20 PDT, 3.21, 580.00
FALO3, 08/23/2026 02:15 PDT, 3.20, 575.00
FALO3, 08/23/2026 02:10 PDT, 3.21, 580.00
FALO3, 08/23/2026 02:05 PDT, 3.21, 580.00
FALO3, 08/23/2026 02:00 PDT, 3.21, 580.00
FALO3, 08/23/2026 01:55 PDT, 3.21, 580.00
FALO3, 08/23/2026 01:50 PDT, 3.20, 575.00
FALO3, 08/23/2026 01:45 PDT, 3.20, 575.00
FALO3, 08/23/2026 01:40 PDT, 3.20, 575.00
FALO3, 08/23/2026 01:35 PDT, 3.21, 580.00
FALO3, 08/23/2026 01:30 PDT, 3.20, 575.00
FALO3, 08/23/2026 01:25 PDT, 3.20, 575.00
FALO3, 08/23/2026 01:20 PDT, 3.20, 575.00
FALO3, 08/23/2026 01:15 PDT, 3.21, 580.00
FALO3, 08/23/2026 01:10 PDT, 3.20, 575.00
FALO3, 08/23/2026 01:05 PDT, 3.20, 575.00
FALO3, 08/23/2026 01:00 PDT, 3.20, 575.00

ID, Forecast Date, Forecast Stage, Forecast Discharge
FALO3, 09/02/2026 23:00 PDT, 3.90, 972.00
FALO3, 09/03/2026 05:00 PDT, 3.90, 972.00
FALO3, 09/03/2026 11:00 PDT, 3.90, 972.00
FALO3, 09/03/2026 17:00 PDT, 3.90, 972.00
FALO3, 09/03/2026 23:00 PDT, 3.90, 972.00
FALO3, 09/04/2026 05:00 PDT, 3.90, 972.00
FALO3, 09/04/2026 11:00 PDT, 3.90, 972.00
FALO3, 09/04/2026 17:00 PDT, 3.90, 972.00
FALO3, 09/04/2026 23:00 PDT, 3.90, 972.00
FALO3, 09/05/2026 05:00 PDT, 3.90, 972.00
FALO3, 09/05/2026 11:00 PDT, 3.90, 972.00
FALO3, 09/05/2026 17:00 PDT, 3.90, 972.00

ID, Trend Date, Trend Stage, Trend Discharge
FALO3, 09/05/2026 23:00 PDT, 3.90, 972.00
FALO3, 09/06/2026 05:00 PDT, 3.90, 972.00
FALO3, 09/06/2026 11:00 PDT, 3.90, 972.00
FALO3, 09/06/2026 17:00 PDT, 3.90, 972.00
FALO3, 09/06/2026 23:00 PDT, 3.90, 972.00
FALO3, 09/07/2026 05:00 PDT, 3.90, 972.00
FALO3, 09/07/2026 11:00 PDT, 3.90, 972.00
FALO3, 09/07/2026 17:00 PDT, 3.90, 972.00
FALO3, 09/07/2026 23:00 PDT, 3.90, 972.00
FALO3, 09/08/2026 05:00 PDT, 3.90, 972.00
FALO3, 09/08/2026 11:00 PDT, 3.90, 972.00
FALO3, 09/08/2026 17:00 PDT, 3.90, 972.00
FALO3, 09/08/2026 23:00 PDT, 3.90, 972.00
FALO3, 09/09/2026 05:00 PDT, 3.90, 972.00
FALO3, 09/09/2026 11:00 PDT, 3.90, 972.00
FALO3, 09/09/2026 17:00 PDT, 3.90, 972.00
FALO3, 09/09/2026 23:00 PDT, 3.90, 972.00
FALO3, 09/10/2026 05:00 PDT, 3.90, 972.00
FALO3, 09/10/2026 11:00 PDT, 3.90, 972.00
FALO3, 09/10/2026 17:00 PDT, 3.90, 972.00
FALO3, 09/10/2026 23:00 PDT, 3.90, 972.00
FALO3, 09/11/2026 05:00 PDT, 3.90, 972.00
FALO3, 09/11/2026 11:00 PDT, 3.90, 972.00
FALO3, 09/11/2026 17:00 PDT, 3.90, 972.00
FALO3, 09/11/2026 23:00 PDT, 3.90, 972.00
FALO3, 09/12/2026 05:00 PDT, 3.90, 972.00